Darstellungsparameter: Aktuell verwendete Einstellungen:
Skalierung der Graphiken ... ?
xyx+y,   Skalierungsfaktor:      Skalierung: Modus: x, Faktor: 1
Darstellungszeitraum ... ?
Vom - - bis: - -   Zeitraum: 07.03.2019 - 03.09.2019
Min/Max/Avg-Anzeige ... ?
Zeige MMA aktuell
Zeige MMA Monat
Zeige MMA alles
Zeige --A aktuell
Zeige --A Monat
Zeige --A alles
Keine MMA-Anzeige
MMA:
Minimum Maximum Average (ber die Originaldaten)
MMA-Basis: 07.03.2019 - 03.09.2019
Quicknavigation für Darstellung... ?
Tage:      1T, 2T, 3T, 5T -1T -2T -3T -5T +1T +2T +3T +5T
Wochen: 1W, 2W, 3W -1W -2W -3W +1W +2W +3W
Monate: 1M, 3M, 6M -1M -3M -6M +1M +3M +6M
Jahre:    1J, 3J, 5J, 10J -1J -3J -5J -10J +1J +3J +5J +10J
Nutze für die Darstellung ... ?
Originaldaten oder Mittelwerte auf ...
Stundenbasis Tagesbasis Wochenbasis
Monatsbasis Jahresbasis      Datenbasis: Original-Daten
Darstellen als:
Statistik (Auto) Statistik J:M      Darstellung:
Zur Graphik,    zurück zur Übersicht aller Sensoren.
 
Tabellarische Datenbersicht: ?
 
Sensor: Nr:Datum:Temp:Feuchte:Taupunkt:
Aussen-T/F 1 07-03-2019 00:00:00 11.4 C 81 % 8.26 C
2 07-03-2019 00:05:00 11.3 C 82 % 8.34 C
3 07-03-2019 00:10:00 11.1 C 83 % 8.33 C
4 07-03-2019 00:15:00 11.1 C 83 % 8.33 C
5 07-03-2019 00:20:00 11.1 C 82 % 8.15 C
6 07-03-2019 00:25:00 11.2 C 83 % 8.42 C
7 07-03-2019 00:30:00 11.2 C 84 % 8.6 C
8 07-03-2019 00:35:00 11.1 C 85 % 8.68 C
9 07-03-2019 00:40:00 10.9 C 85 % 8.48 C
10 07-03-2019 00:45:00 10.8 C 85 % 8.38 C
11 07-03-2019 00:50:00 10.7 C 85 % 8.28 C
12 07-03-2019 00:55:00 10.8 C 86 % 8.56 C
13 07-03-2019 01:00:00 10.8 C 86 % 8.56 C
14 07-03-2019 01:05:00 10.8 C 86 % 8.56 C
15 07-03-2019 01:10:00 10.9 C 86 % 8.65 C
16 07-03-2019 01:15:00 10.9 C 87 % 8.82 C
17 07-03-2019 01:20:00 11 C 87 % 8.92 C
18 07-03-2019 01:25:00 11.1 C 87 % 9.02 C
19 07-03-2019 01:30:00 11.1 C 87 % 9.02 C
20 07-03-2019 01:35:00 11.1 C 88 % 9.19 C
21 07-03-2019 01:40:00 11 C 88 % 9.09 C
22 07-03-2019 01:45:00 10.9 C 89 % 9.16 C
23 07-03-2019 01:50:00 10.8 C 89 % 9.06 C
24 07-03-2019 01:55:00 10.8 C 90 % 9.23 C
25 07-03-2019 02:00:00 10.7 C 91 % 9.29 C
Sensor: Nr:Datum:Temp:Feuchte:Taupunkt:
Aussen-T/F 26 07-03-2019 02:05:00 10.6 C 91 % 9.19 C
27 07-03-2019 02:10:00 10.4 C 91 % 9 C
28 07-03-2019 02:15:00 10.3 C 91 % 8.9 C
29 07-03-2019 02:20:00 10.1 C 91 % 8.7 C
30 07-03-2019 02:25:00 9.9 C 91 % 8.5 C
31 07-03-2019 02:30:00 9.8 C 91 % 8.4 C
32 07-03-2019 02:35:00 9.7 C 92 % 8.46 C
33 07-03-2019 02:40:00 9.7 C 92 % 8.46 C
34 07-03-2019 02:45:00 9.7 C 93 % 8.62 C
35 07-03-2019 02:50:00 9.7 C 93 % 8.62 C
36 07-03-2019 02:55:00 9.7 C 93 % 8.62 C
37 07-03-2019 03:00:00 9.7 C 93 % 8.62 C
38 07-03-2019 03:05:00 9.7 C 93 % 8.62 C
39 07-03-2019 03:10:00 9.7 C 93 % 8.62 C
40 07-03-2019 03:15:00 9.6 C 93 % 8.53 C
41 07-03-2019 03:20:00 9.6 C 93 % 8.53 C
42 07-03-2019 03:25:00 9.6 C 93 % 8.53 C
43 07-03-2019 03:30:00 9.6 C 93 % 8.53 C
44 07-03-2019 03:35:00 9.6 C 92 % 8.37 C
45 07-03-2019 03:40:00 9.5 C 92 % 8.27 C
46 07-03-2019 03:45:00 9.5 C 92 % 8.27 C
47 07-03-2019 03:50:00 9.4 C 92 % 8.17 C
48 07-03-2019 03:55:00 9.5 C 92 % 8.27 C
49 07-03-2019 04:00:00 9.6 C 92 % 8.37 C
50 07-03-2019 04:05:00 9.7 C 91 % 8.3 C
Sensor: Nr:Datum:Temp:Feuchte:Taupunkt:
Aussen-T/F 51 07-03-2019 04:10:00 9.8 C 90 % 8.24 C
52 07-03-2019 04:15:00 9.9 C 90 % 8.34 C
53 07-03-2019 04:20:00 10.1 C 89 % 8.37 C
54 07-03-2019 04:25:00 10.2 C 89 % 8.47 C
55 07-03-2019 04:30:00 10.2 C 88 % 8.3 C
56 07-03-2019 04:35:00 10.3 C 88 % 8.4 C
57 07-03-2019 04:40:00 10.3 C 88 % 8.4 C
58 07-03-2019 04:45:00 10.2 C 87 % 8.14 C
59 07-03-2019 04:50:00 10.3 C 86 % 8.06 C
60 07-03-2019 04:55:00 10.4 C 85 % 7.99 C
61 07-03-2019 05:00:00 10.4 C 85 % 7.99 C
62 07-03-2019 05:05:00 10.6 C 84 % 8.01 C
63 07-03-2019 05:10:00 10.8 C 83 % 8.03 C
64 07-03-2019 05:15:00 10.9 C 82 % 7.95 C
65 07-03-2019 05:20:00 11.3 C 81 % 8.16 C
66 07-03-2019 05:25:00 11.6 C 80 % 8.27 C
67 07-03-2019 05:30:00 11.7 C 78 % 8 C
68 07-03-2019 05:35:00 11.8 C 78 % 8.09 C
69 07-03-2019 05:40:00 11.9 C 77 % 8 C
70 07-03-2019 05:45:00 12 C 77 % 8.1 C
71 07-03-2019 05:50:00 12.2 C 76 % 8.1 C
72 07-03-2019 05:55:00 12.2 C 75 % 7.91 C
73 07-03-2019 06:00:00 12.3 C 75 % 8 C
74 07-03-2019 06:05:00 12.3 C 75 % 8 C
75 07-03-2019 06:10:00 12.3 C 75 % 8 C
Sensor: Nr:Datum:Temp:Feuchte:Taupunkt:
Aussen-T/F 76 07-03-2019 06:15:00 12.2 C 74 % 7.71 C
77 07-03-2019 06:20:00 12.2 C 74 % 7.71 C
78 07-03-2019 06:25:00 12.1 C 73 % 7.41 C
79 07-03-2019 06:30:00 12.1 C 73 % 7.41 C
80 07-03-2019 06:35:00 11.9 C 73 % 7.22 C
81 07-03-2019 06:40:00 11.9 C 73 % 7.22 C
82 07-03-2019 06:45:00 11.8 C 74 % 7.32 C
83 07-03-2019 06:50:00 11.8 C 74 % 7.32 C
84 07-03-2019 06:55:00 11.8 C 74 % 7.32 C
85 07-03-2019 07:00:00 11.7 C 74 % 7.23 C
86 07-03-2019 07:05:00 11.6 C 75 % 7.33 C
87 07-03-2019 07:10:00 11.6 C 75 % 7.33 C
88 07-03-2019 07:15:00 11.6 C 75 % 7.33 C
89 07-03-2019 07:20:00 11.5 C 74 % 7.03 C
90 07-03-2019 07:25:00 11.4 C 74 % 6.94 C
91 07-03-2019 07:30:00 11.4 C 74 % 6.94 C
92 07-03-2019 07:35:00 11.2 C 74 % 6.74 C
93 07-03-2019 07:40:00 11.1 C 74 % 6.65 C
94 07-03-2019 07:45:00 11 C 74 % 6.55 C
95 07-03-2019 07:50:00 10.9 C 74 % 6.45 C
96 07-03-2019 07:55:00 10.9 C 74 % 6.45 C
97 07-03-2019 08:00:00 10.8 C 74 % 6.36 C
98 07-03-2019 08:05:00 10.8 C 74 % 6.36 C
99 07-03-2019 08:10:00 10.8 C 75 % 6.55 C
100 07-03-2019 08:15:00 10.7 C 75 % 6.46 C
Sensor: Nr:Datum:Temp:Feuchte:Taupunkt:
Aussen-T/F 101 07-03-2019 08:20:00 10.7 C 75 % 6.46 C
102 07-03-2019 08:25:00 10.7 C 76 % 6.65 C
103 07-03-2019 08:30:00 10.7 C 76 % 6.65 C
104 07-03-2019 08:35:00 10.6 C 76 % 6.55 C
105 07-03-2019 08:40:00 10.6 C 77 % 6.74 C
106 07-03-2019 08:45:00 10.6 C 78 % 6.93 C
107 07-03-2019 08:50:00 10.6 C 77 % 6.74 C
108 07-03-2019 08:55:00 10.7 C 78 % 7.03 C
109 07-03-2019 09:00:00 10.7 C 79 % 7.21 C
110 07-03-2019 09:05:00 10.6 C 80 % 7.3 C
111 07-03-2019 09:10:00 10.4 C 81 % 7.28 C
112 07-03-2019 09:15:00 10.2 C 82 % 7.27 C
113 07-03-2019 09:20:00 10.1 C 84 % 7.52 C
114 07-03-2019 09:25:00 9.9 C 85 % 7.5 C
115 07-03-2019 09:30:00 9.8 C 85 % 7.4 C
116 07-03-2019 09:35:00 9.7 C 84 % 7.13 C
117 07-03-2019 09:40:00 9.8 C 84 % 7.23 C
118 07-03-2019 09:45:00 9.8 C 83 % 7.05 C
119 07-03-2019 09:50:00 9.9 C 83 % 7.15 C
120 07-03-2019 09:55:00 9.9 C 82 % 6.98 C
121 07-03-2019 10:00:00 10 C 82 % 7.07 C
122 07-03-2019 10:05:00 10.1 C 81 % 6.99 C
123 07-03-2019 10:10:00 10.2 C 82 % 7.27 C
124 07-03-2019 10:15:00 10.2 C 82 % 7.27 C
125 07-03-2019 10:20:00 10.2 C 82 % 7.27 C
Sensor: Nr:Datum:Temp:Feuchte:Taupunkt:
Aussen-T/F 126 07-03-2019 10:25:00 10.1 C 82 % 7.17 C
127 07-03-2019 10:30:00 10.2 C 82 % 7.27 C
128 07-03-2019 10:35:00 10.2 C 82 % 7.27 C
129 07-03-2019 10:40:00 10.3 C 82 % 7.37 C
130 07-03-2019 10:45:00 10.4 C 82 % 7.46 C
131 07-03-2019 10:50:00 10.4 C 83 % 7.64 C
132 07-03-2019 10:55:00 10.4 C 84 % 7.82 C
133 07-03-2019 11:00:00 10.3 C 86 % 8.06 C
134 07-03-2019 11:05:00 9.8 C 86 % 7.57 C
135 07-03-2019 11:10:00 9.5 C 87 % 7.45 C
136 07-03-2019 11:15:00 9.5 C 87 % 7.45 C
137 07-03-2019 11:20:00 9.5 C 86 % 7.28 C
138 07-03-2019 11:25:00 9.6 C 86 % 7.38 C
139 07-03-2019 11:30:00 9.6 C 85 % 7.21 C
140 07-03-2019 11:35:00 9.7 C 84 % 7.13 C
141 07-03-2019 11:40:00 9.8 C 83 % 7.05 C
142 07-03-2019 11:45:00 9.9 C 81 % 6.8 C
143 07-03-2019 11:50:00 10.1 C 78 % 6.44 C
144 07-03-2019 11:55:00 10.3 C 78 % 6.64 C
145 07-03-2019 12:00:00 10.4 C 78 % 6.74 C
146 07-03-2019 12:05:00 10.6 C 76 % 6.55 C
147 07-03-2019 12:10:00 10.6 C 76 % 6.55 C
148 07-03-2019 12:15:00 10.6 C 76 % 6.55 C
149 07-03-2019 12:20:00 10.7 C 74 % 6.26 C
150 07-03-2019 12:25:00 10.8 C 74 % 6.36 C
Sensor: Nr:Datum:Temp:Feuchte:Taupunkt:
Aussen-T/F 151 07-03-2019 12:30:00 10.8 C 74 % 6.36 C
152 07-03-2019 12:35:00 10.8 C 74 % 6.36 C
153 07-03-2019 12:40:00 10.9 C 74 % 6.45 C
154 07-03-2019 12:45:00 10.9 C 73 % 6.26 C
155 07-03-2019 12:50:00 11 C 74 % 6.55 C
156 07-03-2019 12:55:00 11.3 C 73 % 6.64 C
157 07-03-2019 13:00:00 11.7 C 71 % 6.62 C
158 07-03-2019 13:05:00 11.8 C 70 % 6.51 C
159 07-03-2019 13:10:00 11.9 C 71 % 6.82 C
160 07-03-2019 13:15:00 12.2 C 69 % 6.69 C
161 07-03-2019 13:20:00 12.4 C 66 % 6.23 C
162 07-03-2019 13:25:00 12.4 C 68 % 6.67 C
163 07-03-2019 13:30:00 12.2 C 68 % 6.48 C
164 07-03-2019 13:35:00 12 C 68 % 6.29 C
165 07-03-2019 13:40:00 12 C 68 % 6.29 C
166 07-03-2019 13:45:00 12.1 C 67 % 6.17 C
167 07-03-2019 13:50:00 11.8 C 67 % 5.88 C
168 07-03-2019 13:55:00 11.5 C 71 % 6.43 C
169 07-03-2019 14:00:00 10.7 C 77 % 6.84 C
170 07-03-2019 14:05:00 10.1 C 80 % 6.81 C
171 07-03-2019 14:10:00 9.7 C 80 % 6.42 C
172 07-03-2019 14:15:00 9.7 C 81 % 6.6 C
173 07-03-2019 14:20:00 9.9 C 81 % 6.8 C
174 07-03-2019 14:25:00 10.2 C 81 % 7.09 C
175 07-03-2019 14:30:00 10.5 C 78 % 6.83 C
Sensor: Nr:Datum:Temp:Feuchte:Taupunkt:
Aussen-T/F 176 07-03-2019 14:35:00 10.7 C 78 % 7.03 C
177 07-03-2019 14:40:00 10.7 C 77 % 6.84 C
178 07-03-2019 14:45:00 10.7 C 76 % 6.65 C
179 07-03-2019 14:50:00 10.9 C 75 % 6.65 C
180 07-03-2019 14:55:00 11.1 C 73 % 6.45 C
181 07-03-2019 15:00:00 11.3 C 70 % 6.03 C
182 07-03-2019 15:05:00 11.4 C 68 % 5.71 C
183 07-03-2019 15:10:00 11.7 C 69 % 6.21 C
184 07-03-2019 15:15:00 11.7 C 68 % 6 C
185 07-03-2019 15:20:00 11.7 C 69 % 6.21 C
186 07-03-2019 15:25:00 11.6 C 68 % 5.9 C
187 07-03-2019 15:30:00 11.2 C 73 % 6.55 C
188 07-03-2019 15:35:00 10.5 C 77 % 6.64 C
189 07-03-2019 15:40:00 10 C 81 % 6.89 C
190 07-03-2019 15:45:00 9.8 C 82 % 6.88 C
191 07-03-2019 15:50:00 9.6 C 82 % 6.68 C
192 07-03-2019 15:55:00 9.4 C 82 % 6.49 C
193 07-03-2019 16:00:00 9.4 C 84 % 6.84 C
194 07-03-2019 16:05:00 9.5 C 83 % 6.76 C
195 07-03-2019 16:10:00 9.6 C 82 % 6.68 C
196 07-03-2019 16:15:00 9.7 C 82 % 6.78 C
197 07-03-2019 16:20:00 9.8 C 82 % 6.88 C
198 07-03-2019 16:25:00 9.9 C 79 % 6.43 C
199 07-03-2019 16:30:00 10.1 C 78 % 6.44 C
200 07-03-2019 16:35:00 10.1 C 74 % 5.68 C
Sensor: Nr:Datum:Temp:Feuchte:Taupunkt:
Aussen-T/F 201 07-03-2019 16:40:00 10.2 C 73 % 5.58 C
202 07-03-2019 16:45:00 10.2 C 74 % 5.78 C
203 07-03-2019 16:50:00 10.1 C 78 % 6.44 C
204 07-03-2019 16:55:00 10 C 80 % 6.71 C
205 07-03-2019 17:00:00 10 C 80 % 6.71 C
206 07-03-2019 17:05:00 10.2 C 79 % 6.73 C
207 07-03-2019 17:10:00 10.3 C 76 % 6.26 C
208 07-03-2019 17:15:00 10.3 C 75 % 6.07 C
209 07-03-2019 17:20:00 10.3 C 75 % 6.07 C
210 07-03-2019 17:25:00 10.3 C 74 % 5.88 C
211 07-03-2019 17:30:00 10.4 C 74 % 5.97 C
212 07-03-2019 17:35:00 10.3 C 73 % 5.68 C
213 07-03-2019 17:40:00 10.1 C 73 % 5.49 C
214 07-03-2019 17:45:00 9.9 C 73 % 5.29 C
215 07-03-2019 17:50:00 9.8 C 74 % 5.39 C
216 07-03-2019 17:55:00 9.8 C 74 % 5.39 C
217 07-03-2019 18:00:00 9.8 C 72 % 5 C
218 07-03-2019 18:05:00 9.8 C 72 % 5 C
219 07-03-2019 18:10:00 9.8 C 72 % 5 C
220 07-03-2019 18:15:00 9.7 C 72 % 4.9 C
221 07-03-2019 18:20:00 9.6 C 71 % 4.61 C
222 07-03-2019 18:25:00 9.4 C 72 % 4.62 C
223 07-03-2019 18:30:00 9.4 C 72 % 4.62 C
224 07-03-2019 18:35:00 9.4 C 72 % 4.62 C
225 07-03-2019 18:40:00 9.3 C 72 % 4.52 C
Sensor: Nr:Datum:Temp:Feuchte:Taupunkt:
Aussen-T/F 226 07-03-2019 18:45:00 9.2 C 73 % 4.62 C
227 07-03-2019 18:50:00 9.1 C 74 % 4.72 C
228 07-03-2019 18:55:00 8.9 C 75 % 4.72 C
229 07-03-2019 19:00:00 8.9 C 75 % 4.72 C
230 07-03-2019 19:05:00 8.9 C 76 % 4.91 C
231 07-03-2019 19:10:00 8.9 C 76 % 4.91 C
232 07-03-2019 19:15:00 8.9 C 78 % 5.28 C
233 07-03-2019 19:20:00 8.8 C 79 % 5.36 C
234 07-03-2019 19:25:00 8.6 C 80 % 5.35 C
235 07-03-2019 19:30:00 8.4 C 81 % 5.33 C
236 07-03-2019 19:35:00 8.3 C 82 % 5.41 C
237 07-03-2019 19:40:00 8.1 C 82 % 5.22 C
238 07-03-2019 19:45:00 8 C 82 % 5.12 C
239 07-03-2019 19:50:00 7.9 C 82 % 5.02 C
240 07-03-2019 19:55:00 7.9 C 81 % 4.85 C
241 07-03-2019 20:00:00 8.1 C 80 % 4.86 C
242 07-03-2019 20:05:00 8.2 C 79 % 4.78 C
243 07-03-2019 20:10:00 8.3 C 78 % 4.7 C
244 07-03-2019 20:15:00 8.4 C 77 % 4.61 C
245 07-03-2019 20:20:00 8.6 C 77 % 4.8 C
246 07-03-2019 20:25:00 8.7 C 76 % 4.71 C
247 07-03-2019 20:30:00 8.8 C 76 % 4.81 C
248 07-03-2019 20:35:00 8.8 C 76 % 4.81 C
249 07-03-2019 20:40:00 8.9 C 75 % 4.72 C
250 07-03-2019 20:45:00 8.9 C 75 % 4.72 C
Sensor: Nr:Datum:Temp:Feuchte:Taupunkt:
Aussen-T/F 251 07-03-2019 20:50:00 9 C 75 % 4.81 C
252 07-03-2019 20:55:00 9 C 75 % 4.81 C
253 07-03-2019 21:00:00 9.1 C 75 % 4.91 C
254 07-03-2019 21:05:00 9.1 C 75 % 4.91 C
255 07-03-2019 21:10:00 9.2 C 75 % 5.01 C
256 07-03-2019 21:15:00 9.2 C 75 % 5.01 C
257 07-03-2019 21:20:00 9.2 C 75 % 5.01 C
258 07-03-2019 21:25:00 9.2 C 75 % 5.01 C
259 07-03-2019 21:30:00 9.3 C 75 % 5.1 C
260 07-03-2019 21:35:00 9.3 C 74 % 4.91 C
261 07-03-2019 21:40:00 9.3 C 74 % 4.91 C
262 07-03-2019 21:45:00 9.3 C 74 % 4.91 C
263 07-03-2019 21:50:00 9.3 C 74 % 4.91 C
264 07-03-2019 21:55:00 9.3 C 74 % 4.91 C
265 07-03-2019 22:00:00 9.4 C 74 % 5.01 C
266 07-03-2019 22:05:00 9.4 C 74 % 5.01 C
267 07-03-2019 22:10:00 9.4 C 74 % 5.01 C
268 07-03-2019 22:15:00 9.4 C 75 % 5.2 C
269 07-03-2019 22:20:00 9.3 C 75 % 5.1 C
270 07-03-2019 22:25:00 9.2 C 75 % 5.01 C
271 07-03-2019 22:30:00 9.2 C 75 % 5.01 C
272 07-03-2019 22:35:00 9.1 C 75 % 4.91 C
273 07-03-2019 22:40:00 9.1 C 75 % 4.91 C
274 07-03-2019 22:45:00 9 C 75 % 4.81 C
275 07-03-2019 22:50:00 9 C 75 % 4.81 C
Sensor: Nr:Datum:Temp:Feuchte:Taupunkt:
Aussen-T/F 276 07-03-2019 22:55:00 8.9 C 75 % 4.72 C
277 07-03-2019 23:00:00 8.9 C 75 % 4.72 C
278 07-03-2019 23:05:00 8.8 C 75 % 4.62 C
279 07-03-2019 23:10:00 8.7 C 76 % 4.71 C
280 07-03-2019 23:15:00 8.7 C 76 % 4.71 C
281 07-03-2019 23:20:00 8.5 C 77 % 4.71 C
282 07-03-2019 23:25:00 8.5 C 77 % 4.71 C
283 07-03-2019 23:30:00 8.5 C 77 % 4.71 C
284 07-03-2019 23:35:00 8.6 C 77 % 4.8 C
285 07-03-2019 23:40:00 8.6 C 77 % 4.8 C
286 07-03-2019 23:45:00 8.7 C 78 % 5.08 C
287 07-03-2019 23:50:00 8.7 C 79 % 5.27 C
288 07-03-2019 23:55:00 8.5 C 79 % 5.07 C
289 08-03-2019 00:00:00 8.3 C 80 % 5.06 C
290 08-03-2019 00:05:00 8.2 C 80 % 4.96 C
291 08-03-2019 00:10:00 8.2 C 81 % 5.14 C
292 08-03-2019 00:15:00 8.2 C 82 % 5.32 C
293 08-03-2019 00:20:00 8 C 84 % 5.47 C
294 08-03-2019 00:25:00 7.8 C 85 % 5.44 C
295 08-03-2019 00:30:00 7.6 C 86 % 5.41 C
296 08-03-2019 00:35:00 7.4 C 86 % 5.22 C
297 08-03-2019 00:40:00 7.3 C 86 % 5.12 C
298 08-03-2019 00:45:00 7.1 C 87 % 5.09 C
299 08-03-2019 00:50:00 6.9 C 87 % 4.89 C
300 08-03-2019 00:55:00 6.9 C 87 % 4.89 C
Sensor: Nr:Datum:Temp:Feuchte:Taupunkt:
Aussen-T/F 301 08-03-2019 01:00:00 6.8 C 87 % 4.79 C
302 08-03-2019 01:05:00 6.8 C 87 % 4.79 C
303 08-03-2019 01:10:00 6.8 C 87 % 4.79 C
304 08-03-2019 01:15:00 6.8 C 87 % 4.79 C
305 08-03-2019 01:20:00 6.9 C 87 % 4.89 C
306 08-03-2019 01:25:00 6.9 C 87 % 4.89 C
307 08-03-2019 01:30:00 7 C 87 % 4.99 C
308 08-03-2019 01:35:00 7.1 C 86 % 4.92 C
309 08-03-2019 01:40:00 7.2 C 85 % 4.85 C
310 08-03-2019 01:45:00 7.3 C 85 % 4.95 C
311 08-03-2019 01:50:00 7.4 C 84 % 4.88 C
312 08-03-2019 01:55:00 7.7 C 82 % 4.83 C
313 08-03-2019 02:00:00 7.9 C 80 % 4.67 C
314 08-03-2019 02:05:00 8 C 79 % 4.59 C
315 08-03-2019 02:10:00 8.1 C 79 % 4.68 C
316 08-03-2019 02:15:00 8.1 C 78 % 4.5 C
317 08-03-2019 02:20:00 8.1 C 78 % 4.5 C
318 08-03-2019 02:25:00 8.2 C 77 % 4.42 C
319 08-03-2019 02:30:00 8.2 C 77 % 4.42 C
320 08-03-2019 02:35:00 8.3 C 76 % 4.33 C
321 08-03-2019 02:40:00 8.3 C 76 % 4.33 C
322 08-03-2019 02:45:00 8.3 C 76 % 4.33 C
323 08-03-2019 02:50:00 8.2 C 76 % 4.23 C
324 08-03-2019 02:55:00 8.2 C 76 % 4.23 C
325 08-03-2019 03:00:00 8.2 C 76 % 4.23 C
Sensor: Nr:Datum:Temp:Feuchte:Taupunkt:
Aussen-T/F 326 08-03-2019 03:05:00 8.2 C 76 % 4.23 C
327 08-03-2019 03:10:00 8.2 C 76 % 4.23 C
328 08-03-2019 03:15:00 8.3 C 75 % 4.14 C
329 08-03-2019 03:20:00 8.2 C 75 % 4.04 C
330 08-03-2019 03:25:00 8.2 C 74 % 3.85 C
331 08-03-2019 03:30:00 8.1 C 75 % 3.94 C
332 08-03-2019 03:35:00 8.1 C 75 % 3.94 C
333 08-03-2019 03:40:00 8.1 C 75 % 3.94 C
334 08-03-2019 03:45:00 8.1 C 75 % 3.94 C
335 08-03-2019 03:50:00 8.1 C 75 % 3.94 C
336 08-03-2019 03:55:00 8 C 75 % 3.85 C
337 08-03-2019 04:00:00 8 C 76 % 4.04 C
338 08-03-2019 04:05:00 8 C 76 % 4.04 C
339 08-03-2019 04:10:00 8 C 76 % 4.04 C
340 08-03-2019 04:15:00 8 C 76 % 4.04 C
341 08-03-2019 04:20:00 8.1 C 76 % 4.13 C
342 08-03-2019 04:25:00 8.1 C 76 % 4.13 C
343 08-03-2019 04:30:00 8.1 C 76 % 4.13 C
344 08-03-2019 04:35:00 8 C 77 % 4.22 C
345 08-03-2019 04:40:00 8 C 77 % 4.22 C
346 08-03-2019 04:45:00 8.1 C 77 % 4.32 C
347 08-03-2019 04:50:00 8.1 C 76 % 4.13 C
348 08-03-2019 04:55:00 8.1 C 76 % 4.13 C
349 08-03-2019 05:00:00 8.1 C 77 % 4.32 C
350 08-03-2019 05:05:00 8 C 77 % 4.22 C
Sensor: Nr:Datum:Temp:Feuchte:Taupunkt:
Aussen-T/F 351 08-03-2019 05:10:00 7.9 C 77 % 4.12 C
352 08-03-2019 05:15:00 7.8 C 78 % 4.21 C
353 08-03-2019 05:20:00 7.8 C 78 % 4.21 C
354 08-03-2019 05:25:00 7.8 C 78 % 4.21 C
355 08-03-2019 05:30:00 7.8 C 78 % 4.21 C
356 08-03-2019 05:35:00 7.7 C 79 % 4.3 C
357 08-03-2019 05:40:00 7.7 C 79 % 4.3 C
358 08-03-2019 05:45:00 7.7 C 79 % 4.3 C
359 08-03-2019 05:50:00 7.7 C 79 % 4.3 C
360 08-03-2019 05:55:00 7.6 C 79 % 4.2 C
361 08-03-2019 06:00:00 7.6 C 79 % 4.2 C
362 08-03-2019 06:05:00 7.6 C 79 % 4.2 C
363 08-03-2019 06:10:00 7.6 C 80 % 4.38 C
364 08-03-2019 06:15:00 7.6 C 80 % 4.38 C
365 08-03-2019 06:20:00 7.5 C 80 % 4.28 C
366 08-03-2019 06:25:00 7.5 C 80 % 4.28 C
367 08-03-2019 06:30:00 7.6 C 80 % 4.38 C
368 08-03-2019 06:35:00 7.6 C 80 % 4.38 C
369 08-03-2019 06:40:00 7.7 C 80 % 4.47 C
370 08-03-2019 06:45:00 7.7 C 80 % 4.47 C
371 08-03-2019 06:50:00 7.7 C 80 % 4.47 C
372 08-03-2019 06:55:00 7.6 C 80 % 4.38 C
373 08-03-2019 07:00:00 7.6 C 80 % 4.38 C
374 08-03-2019 07:05:00 7.6 C 81 % 4.55 C
375 08-03-2019 07:10:00 7.6 C 81 % 4.55 C
Sensor: Nr:Datum:Temp:Feuchte:Taupunkt:
Aussen-T/F 376 08-03-2019 07:15:00 7.6 C 81 % 4.55 C
377 08-03-2019 07:20:00 7.6 C 80 % 4.38 C
378 08-03-2019 07:25:00 7.7 C 80 % 4.47 C
379 08-03-2019 07:30:00 7.7 C 80 % 4.47 C
380 08-03-2019 07:35:00 7.8 C 80 % 4.57 C
381 08-03-2019 07:40:00 7.8 C 80 % 4.57 C
382 08-03-2019 07:45:00 7.8 C 80 % 4.57 C
383 08-03-2019 07:50:00 7.8 C 81 % 4.75 C
384 08-03-2019 07:55:00 7.8 C 81 % 4.75 C
385 08-03-2019 08:00:00 7.8 C 81 % 4.75 C
386 08-03-2019 08:05:00 7.8 C 81 % 4.75 C
387 08-03-2019 08:10:00 7.8 C 81 % 4.75 C
388 08-03-2019 08:15:00 7.8 C 81 % 4.75 C
389 08-03-2019 08:20:00 7.8 C 81 % 4.75 C
390 08-03-2019 08:25:00 7.8 C 82 % 4.92 C
391 08-03-2019 08:30:00 7.9 C 82 % 5.02 C
392 08-03-2019 08:35:00 7.9 C 82 % 5.02 C
393 08-03-2019 08:40:00 7.9 C 82 % 5.02 C
394 08-03-2019 08:45:00 7.9 C 82 % 5.02 C
395 08-03-2019 08:50:00 7.9 C 83 % 5.2 C
396 08-03-2019 08:55:00 7.9 C 83 % 5.2 C
397 08-03-2019 09:00:00 7.9 C 83 % 5.2 C
398 08-03-2019 09:05:00 7.9 C 83 % 5.2 C
399 08-03-2019 09:10:00 7.9 C 83 % 5.2 C
400 08-03-2019 09:15:00 7.8 C 83 % 5.1 C
Sensor: Nr:Datum:Temp:Feuchte:Taupunkt:
Aussen-T/F 401 08-03-2019 09:20:00 7.8 C 84 % 5.27 C
402 08-03-2019 09:25:00 7.8 C 85 % 5.44 C
403 08-03-2019 09:30:00 7.7 C 86 % 5.51 C
404 08-03-2019 09:35:00 7.7 C 86 % 5.51 C
405 08-03-2019 09:40:00 7.6 C 87 % 5.58 C
406 08-03-2019 09:45:00 7.4 C 87 % 5.38 C
407 08-03-2019 09:50:00 7.4 C 88 % 5.55 C
408 08-03-2019 09:55:00 7.3 C 88 % 5.45 C
409 08-03-2019 10:00:00 7.2 C 88 % 5.35 C
410 08-03-2019 10:05:00 7.2 C 88 % 5.35 C
411 08-03-2019 10:10:00 7.3 C 88 % 5.45 C
412 08-03-2019 10:15:00 7.4 C 88 % 5.55 C
413 08-03-2019 10:20:00 7.5 C 87 % 5.48 C
414 08-03-2019 10:25:00 7.7 C 86 % 5.51 C
415 08-03-2019 10:30:00 7.8 C 84 % 5.27 C
416 08-03-2019 10:35:00 7.9 C 84 % 5.37 C
417 08-03-2019 10:40:00 8.1 C 83 % 5.39 C
418 08-03-2019 10:45:00 8.2 C 82 % 5.32 C
419 08-03-2019 10:50:00 8.3 C 82 % 5.41 C
420 08-03-2019 10:55:00 8.4 C 81 % 5.33 C
421 08-03-2019 11:00:00 8.4 C 81 % 5.33 C
422 08-03-2019 11:05:00 8.4 C 81 % 5.33 C
423 08-03-2019 11:10:00 8.4 C 80 % 5.16 C
424 08-03-2019 11:15:00 8.4 C 80 % 5.16 C
425 08-03-2019 11:20:00 8.4 C 81 % 5.33 C
Sensor: Nr:Datum:Temp:Feuchte:Taupunkt:
Aussen-T/F 426 08-03-2019 11:25:00 8.6 C 81 % 5.53 C
427 08-03-2019 11:30:00 8.7 C 79 % 5.27 C
428 08-03-2019 11:35:00 8.8 C 79 % 5.36 C
429 08-03-2019 11:40:00 8.8 C 79 % 5.36 C
430 08-03-2019 11:45:00 8.8 C 78 % 5.18 C
431 08-03-2019 11:50:00 9 C 77 % 5.19 C
432 08-03-2019 11:55:00 9.2 C 76 % 5.2 C
433 08-03-2019 12:00:00 9.3 C 73 % 4.72 C
434 08-03-2019 12:05:00 9.5 C 71 % 4.51 C
435 08-03-2019 12:10:00 9.5 C 70 % 4.31 C
436 08-03-2019 12:15:00 9.3 C 72 % 4.52 C
437 08-03-2019 12:20:00 9.1 C 73 % 4.52 C
438 08-03-2019 12:25:00 9.1 C 73 % 4.52 C
439 08-03-2019 12:30:00 9.1 C 74 % 4.72 C
440 08-03-2019 12:35:00 9 C 73 % 4.43 C
441 08-03-2019 12:40:00 9 C 71 % 4.03 C
442 08-03-2019 12:45:00 9.1 C 72 % 4.33 C
443 08-03-2019 12:50:00 9.2 C 72 % 4.42 C
444 08-03-2019 12:55:00 9.4 C 71 % 4.42 C
445 08-03-2019 13:00:00 9.6 C 71 % 4.61 C
446 08-03-2019 13:05:00 9.5 C 69 % 4.11 C
447 08-03-2019 13:10:00 9.5 C 70 % 4.31 C
448 08-03-2019 13:15:00 9.5 C 69 % 4.11 C
449 08-03-2019 13:20:00 9.5 C 69 % 4.11 C
450 08-03-2019 13:25:00 9.6 C 69 % 4.2 C
Sensor: Nr:Datum:Temp:Feuchte:Taupunkt:
Aussen-T/F 451 08-03-2019 13:30:00 9.7 C 70 % 4.5 C
452 08-03-2019 13:35:00 9.7 C 69 % 4.3 C
453 08-03-2019 13:40:00 10.1 C 69 % 4.68 C
454 08-03-2019 13:45:00 10.3 C 67 % 4.45 C
455 08-03-2019 13:50:00 10.3 C 68 % 4.66 C
456 08-03-2019 13:55:00 10.3 C 66 % 4.24 C
457 08-03-2019 14:00:00 10.3 C 65 % 4.02 C
458 08-03-2019 14:05:00 10.2 C 65 % 3.92 C
459 08-03-2019 14:10:00 10.3 C 65 % 4.02 C
460 08-03-2019 14:15:00 10.4 C 64 % 3.89 C
461 08-03-2019 14:20:00 10.3 C 64 % 3.8 C
462 08-03-2019 14:25:00 10.2 C 66 % 4.14 C
463 08-03-2019 14:30:00 10.2 C 66 % 4.14 C
464 08-03-2019 14:35:00 10.2 C 63 % 3.48 C
465 08-03-2019 14:40:00 10.3 C 64 % 3.8 C
466 08-03-2019 14:45:00 10.4 C 63 % 3.67 C
467 08-03-2019 14:50:00 10.6 C 63 % 3.86 C
468 08-03-2019 14:55:00 10.7 C 63 % 3.95 C
469 08-03-2019 15:00:00 10.8 C 63 % 4.05 C
470 08-03-2019 15:05:00 11 C 62 % 4.01 C
471 08-03-2019 15:10:00 11.1 C 61 % 3.87 C
472 08-03-2019 15:15:00 11.2 C 60 % 3.73 C
473 08-03-2019 15:20:00 11.3 C 61 % 4.06 C
474 08-03-2019 15:25:00 11.3 C 60 % 3.83 C
475 08-03-2019 15:30:00 11.4 C 61 % 4.16 C
Sensor: Nr:Datum:Temp:Feuchte:Taupunkt:
Aussen-T/F 476 08-03-2019 15:35:00 11.6 C 61 % 4.35 C
477 08-03-2019 15:40:00 11.7 C 62 % 4.67 C
478 08-03-2019 15:45:00 11.5 C 63 % 4.71 C
479 08-03-2019 15:50:00 11.2 C 64 % 4.65 C
480 08-03-2019 15:55:00 10.9 C 66 % 4.81 C
481 08-03-2019 16:00:00 10.6 C 68 % 4.95 C
482 08-03-2019 16:05:00 10.3 C 70 % 5.08 C
483 08-03-2019 16:10:00 10.3 C 71 % 5.28 C
484 08-03-2019 16:15:00 10.3 C 70 % 5.08 C
485 08-03-2019 16:20:00 10.2 C 70 % 4.98 C
486 08-03-2019 16:25:00 10.1 C 71 % 5.09 C
487 08-03-2019 16:30:00 10.3 C 70 % 5.08 C
488 08-03-2019 16:35:00 10.4 C 69 % 4.97 C
489 08-03-2019 16:40:00 10.3 C 69 % 4.87 C
490 08-03-2019 16:45:00 10.2 C 70 % 4.98 C
491 08-03-2019 16:50:00 10.1 C 71 % 5.09 C
492 08-03-2019 16:55:00 10.1 C 72 % 5.29 C
493 08-03-2019 17:00:00 10.1 C 72 % 5.29 C
494 08-03-2019 17:05:00 9.8 C 73 % 5.2 C
495 08-03-2019 17:10:00 9.6 C 74 % 5.2 C
496 08-03-2019 17:15:00 9.4 C 75 % 5.2 C
497 08-03-2019 17:20:00 9.3 C 76 % 5.29 C
498 08-03-2019 17:25:00 9.2 C 77 % 5.38 C
499 08-03-2019 17:30:00 9.1 C 78 % 5.47 C
500 08-03-2019 17:35:00 9 C 79 % 5.56 C
Sensor: Nr:Datum:Temp:Feuchte:Taupunkt:
Aussen-T/F 501 08-03-2019 17:40:00 8.9 C 81 % 5.82 C
502 08-03-2019 17:45:00 8.7 C 81 % 5.63 C
503 08-03-2019 17:50:00 8.5 C 82 % 5.61 C
504 08-03-2019 17:55:00 8.3 C 83 % 5.59 C
505 08-03-2019 18:00:00 8.1 C 84 % 5.56 C
506 08-03-2019 18:05:00 7.9 C 84 % 5.37 C
507 08-03-2019 18:10:00 7.7 C 85 % 5.34 C
508 08-03-2019 18:15:00 7.6 C 85 % 5.24 C
509 08-03-2019 18:20:00 7.4 C 85 % 5.05 C
510 08-03-2019 18:25:00 7.4 C 85 % 5.05 C
511 08-03-2019 18:30:00 7.3 C 85 % 4.95 C
512 08-03-2019 18:35:00 7.2 C 86 % 5.02 C
513 08-03-2019 18:40:00 7.2 C 86 % 5.02 C
514 08-03-2019 18:45:00 7.1 C 86 % 4.92 C
515 08-03-2019 18:50:00 7.1 C 86 % 4.92 C
516 08-03-2019 18:55:00 7.1 C 86 % 4.92 C
517 08-03-2019 19:00:00 7 C 87 % 4.99 C
518 08-03-2019 19:05:00 7 C 87 % 4.99 C
519 08-03-2019 19:10:00 7 C 87 % 4.99 C
520 08-03-2019 19:15:00 6.9 C 88 % 5.05 C
521 08-03-2019 19:20:00 6.9 C 88 % 5.05 C
522 08-03-2019 19:25:00 6.9 C 87 % 4.89 C
523 08-03-2019 19:30:00 6.8 C 88 % 4.96 C
524 08-03-2019 19:35:00 6.8 C 88 % 4.96 C
525 08-03-2019 19:40:00 6.7 C 88 % 4.86 C
Sensor: Nr:Datum:Temp:Feuchte:Taupunkt:
Aussen-T/F 526 08-03-2019 19:45:00 6.7 C 88 % 4.86 C
527 08-03-2019 19:50:00 6.7 C 89 % 5.02 C
528 08-03-2019 19:55:00 6.6 C 89 % 4.92 C
529 08-03-2019 20:00:00 6.6 C 89 % 4.92 C
530 08-03-2019 20:05:00 6.4 C 89 % 4.72 C
531 08-03-2019 20:10:00 6.4 C 89 % 4.72 C
532 08-03-2019 20:15:00 6.3 C 89 % 4.62 C
533 08-03-2019 20:20:00 6.3 C 89 % 4.62 C
534 08-03-2019 20:25:00 6.3 C 90 % 4.78 C
535 08-03-2019 20:30:00 6.2 C 89 % 4.53 C
536 08-03-2019 20:35:00 6.2 C 90 % 4.69 C
537 08-03-2019 20:40:00 6.2 C 90 % 4.69 C
538 08-03-2019 20:45:00 6.2 C 90 % 4.69 C
539 08-03-2019 20:50:00 6.2 C 90 % 4.69 C
540 08-03-2019 20:55:00 6.3 C 90 % 4.78 C
541 08-03-2019 21:00:00 6.3 C 90 % 4.78 C
542 08-03-2019 21:05:00 6.3 C 90 % 4.78 C
543 08-03-2019 21:10:00 6.3 C 90 % 4.78 C
544 08-03-2019 21:15:00 6.4 C 90 % 4.88 C
545 08-03-2019 21:20:00 6.5 C 90 % 4.98 C
546 08-03-2019 21:25:00 6.6 C 90 % 5.08 C
547 08-03-2019 21:30:00 6.6 C 89 % 4.92 C
548 08-03-2019 21:35:00 6.6 C 89 % 4.92 C
549 08-03-2019 21:40:00 6.6 C 89 % 4.92 C
550 08-03-2019 21:45:00 6.6 C 89 % 4.92 C
Sensor: Nr:Datum:Temp:Feuchte:Taupunkt:
Aussen-T/F 551 08-03-2019 21:50:00 6.7 C 88 % 4.86 C
552 08-03-2019 21:55:00 6.8 C 88 % 4.96 C
553 08-03-2019 22:00:00 6.8 C 88 % 4.96 C
554 08-03-2019 22:05:00 6.8 C 87 % 4.79 C
555 08-03-2019 22:10:00 6.8 C 87 % 4.79 C
556 08-03-2019 22:15:00 6.8 C 87 % 4.79 C
557 08-03-2019 22:20:00 6.8 C 87 % 4.79 C
558 08-03-2019 22:25:00 6.8 C 87 % 4.79 C
559 08-03-2019 22:30:00 6.8 C 86 % 4.63 C
560 08-03-2019 22:35:00 7 C 85 % 4.66 C
561 08-03-2019 22:40:00 7.2 C 85 % 4.85 C
562 08-03-2019 22:45:00 7.3 C 83 % 4.61 C
563 08-03-2019 22:50:00 7.5 C 82 % 4.63 C
564 08-03-2019 22:55:00 7.7 C 81 % 4.65 C
565 08-03-2019 23:00:00 7.9 C 80 % 4.67 C
566 08-03-2019 23:05:00 8.2 C 79 % 4.78 C
567 08-03-2019 23:10:00 8.3 C 78 % 4.7 C
568 08-03-2019 23:15:00 8.3 C 78 % 4.7 C
569 08-03-2019 23:20:00 8.3 C 78 % 4.7 C
570 08-03-2019 23:25:00 8.3 C 78 % 4.7 C
571 08-03-2019 23:30:00 8.3 C 78 % 4.7 C
572 08-03-2019 23:35:00 8.3 C 78 % 4.7 C
573 08-03-2019 23:40:00 8.3 C 77 % 4.51 C
574 08-03-2019 23:45:00 8.3 C 77 % 4.51 C
575 08-03-2019 23:50:00 8.3 C 77 % 4.51 C
Sensor: Nr:Datum:Temp:Feuchte:Taupunkt:
Aussen-T/F 576 08-03-2019 23:55:00 8.3 C 77 % 4.51 C
577 09-03-2019 00:00:00 8.4 C 77 % 4.61 C
578 09-03-2019 00:05:00 8.4 C 76 % 4.42 C
579 09-03-2019 00:10:00 8.4 C 77 % 4.61 C
580 09-03-2019 00:15:00 8.4 C 76 % 4.42 C
581 09-03-2019 00:20:00 8.5 C 76 % 4.52 C
582 09-03-2019 00:25:00 8.5 C 75 % 4.33 C
583 09-03-2019 00:30:00 8.6 C 75 % 4.43 C
584 09-03-2019 00:35:00 8.6 C 76 % 4.62 C
585 09-03-2019 00:40:00 8.7 C 75 % 4.52 C
586 09-03-2019 00:45:00 8.7 C 75 % 4.52 C
587 09-03-2019 00:50:00 8.8 C 74 % 4.43 C
588 09-03-2019 00:55:00 8.8 C 74 % 4.43 C
589 09-03-2019 01:00:00 8.9 C 74 % 4.53 C
590 09-03-2019 01:05:00 9 C 73 % 4.43 C
591 09-03-2019 01:10:00 9.1 C 73 % 4.52 C
592 09-03-2019 01:15:00 9.1 C 73 % 4.52 C
593 09-03-2019 01:20:00 9.1 C 74 % 4.72 C
594 09-03-2019 01:25:00 9.1 C 73 % 4.52 C
595 09-03-2019 01:30:00 9.2 C 72 % 4.42 C
596 09-03-2019 01:35:00 9.2 C 72 % 4.42 C
597 09-03-2019 01:40:00 9.3 C 72 % 4.52 C
598 09-03-2019 01:45:00 9.3 C 72 % 4.52 C
599 09-03-2019 01:50:00 9.3 C 72 % 4.52 C
600 09-03-2019 01:55:00 9.3 C 72 % 4.52 C
Sensor: Nr:Datum:Temp:Feuchte:Taupunkt:
Aussen-T/F 601 09-03-2019 02:00:00 9.3 C 73 % 4.72 C
602 09-03-2019 02:05:00 9.3 C 72 % 4.52 C
603 09-03-2019 02:10:00 9.3 C 72 % 4.52 C
604 09-03-2019 02:15:00 9.4 C 72 % 4.62 C
605 09-03-2019 02:20:00 9.4 C 73 % 4.81 C
606 09-03-2019 02:25:00 9.4 C 72 % 4.62 C
607 09-03-2019 02:30:00 9.4 C 72 % 4.62 C
608 09-03-2019 02:35:00 9.4 C 72 % 4.62 C
609 09-03-2019 02:40:00 9.4 C 73 % 4.81 C
610 09-03-2019 02:45:00 9.4 C 73 % 4.81 C
611 09-03-2019 02:50:00 9.4 C 72 % 4.62 C
612 09-03-2019 02:55:00 9.4 C 73 % 4.81 C
613 09-03-2019 03:00:00 9.3 C 73 % 4.72 C
614 09-03-2019 03:05:00 9.3 C 74 % 4.91 C
615 09-03-2019 03:10:00 9.3 C 74 % 4.91 C
616 09-03-2019 03:15:00 9.3 C 74 % 4.91 C
617 09-03-2019 03:20:00 9.2 C 74 % 4.81 C
618 09-03-2019 03:25:00 9.2 C 74 % 4.81 C
619 09-03-2019 03:30:00 9.2 C 76 % 5.2 C
620 09-03-2019 03:35:00 8.9 C 78 % 5.28 C
621 09-03-2019 03:40:00 8.8 C 79 % 5.36 C
622 09-03-2019 03:45:00 8.7 C 80 % 5.45 C
623 09-03-2019 03:50:00 8.6 C 80 % 5.35 C
624 09-03-2019 03:55:00 8.6 C 81 % 5.53 C
625 09-03-2019 04:00:00 8.4 C 82 % 5.51 C
Sensor: Nr:Datum:Temp:Feuchte:Taupunkt:
Aussen-T/F 626 09-03-2019 04:05:00 8.3 C 83 % 5.59 C
627 09-03-2019 04:10:00 8.2 C 84 % 5.66 C
628 09-03-2019 04:15:00 8.1 C 85 % 5.73 C
629 09-03-2019 04:20:00 7.9 C 85 % 5.54 C
630 09-03-2019 04:25:00 7.8 C 85 % 5.44 C
631 09-03-2019 04:30:00 7.8 C 85 % 5.44 C
632 09-03-2019 04:35:00 7.8 C 86 % 5.61 C
633 09-03-2019 04:40:00 7.8 C 86 % 5.61 C
634 09-03-2019 04:45:00 7.8 C 86 % 5.61 C
635 09-03-2019 04:50:00 7.8 C 86 % 5.61 C
636 09-03-2019 04:55:00 7.8 C 86 % 5.61 C
637 09-03-2019 05:00:00 7.8 C 86 % 5.61 C
638 09-03-2019 05:05:00 7.8 C 86 % 5.61 C
639 09-03-2019 05:10:00 7.8 C 87 % 5.78 C
640 09-03-2019 05:15:00 7.8 C 87 % 5.78 C
641 09-03-2019 05:20:00 7.8 C 87 % 5.78 C
642 09-03-2019 05:25:00 7.8 C 88 % 5.94 C
643 09-03-2019 05:30:00 7.8 C 88 % 5.94 C
644 09-03-2019 05:35:00 7.7 C 88 % 5.84 C
645 09-03-2019 05:40:00 7.7 C 88 % 5.84 C
646 09-03-2019 05:45:00 7.7 C 88 % 5.84 C
647 09-03-2019 05:50:00 7.8 C 88 % 5.94 C
648 09-03-2019 05:55:00 7.8 C 88 % 5.94 C
649 09-03-2019 06:00:00 7.8 C 88 % 5.94 C
650 09-03-2019 06:05:00 7.9 C 88 % 6.04 C
Sensor: Nr:Datum:Temp:Feuchte:Taupunkt:
Aussen-T/F 651 09-03-2019 06:10:00 8 C 88 % 6.14 C
652 09-03-2019 06:15:00 8 C 88 % 6.14 C
653 09-03-2019 06:20:00 8.1 C 88 % 6.24 C
654 09-03-2019 06:25:00 8.1 C 88 % 6.24 C
655 09-03-2019 06:30:00 8.1 C 88 % 6.24 C
656 09-03-2019 06:35:00 8.1 C 88 % 6.24 C
657 09-03-2019 06:40:00 8.2 C 88 % 6.33 C
658 09-03-2019 06:45:00 8.2 C 88 % 6.33 C
659 09-03-2019 06:50:00 8.2 C 88 % 6.33 C
660 09-03-2019 06:55:00 8.3 C 88 % 6.43 C
661 09-03-2019 07:00:00 8.3 C 88 % 6.43 C
662 09-03-2019 07:05:00 8.3 C 88 % 6.43 C
663 09-03-2019 07:10:00 8.4 C 88 % 6.53 C
664 09-03-2019 07:15:00 8.5 C 88 % 6.63 C
665 09-03-2019 07:20:00 8.6 C 88 % 6.73 C
666 09-03-2019 07:25:00 8.6 C 88 % 6.73 C
667 09-03-2019 07:30:00 8.7 C 87 % 6.66 C
668 09-03-2019 07:35:00 8.7 C 87 % 6.66 C
669 09-03-2019 07:40:00 8.8 C 87 % 6.76 C
670 09-03-2019 07:45:00 8.9 C 86 % 6.69 C
671 09-03-2019 07:50:00 8.9 C 86 % 6.69 C
672 09-03-2019 07:55:00 8.9 C 86 % 6.69 C
673 09-03-2019 08:00:00 8.9 C 86 % 6.69 C
674 09-03-2019 08:05:00 9 C 86 % 6.79 C
675 09-03-2019 08:10:00 9.2 C 86 % 6.98 C
Sensor: Nr:Datum:Temp:Feuchte:Taupunkt:
Aussen-T/F 676 09-03-2019 08:15:00 9.3 C 86 % 7.08 C
677 09-03-2019 08:20:00 9.3 C 85 % 6.91 C
678 09-03-2019 08:25:00 9.3 C 85 % 6.91 C
679 09-03-2019 08:30:00 9.4 C 85 % 7.01 C
680 09-03-2019 08:35:00 9.6 C 85 % 7.21 C
681 09-03-2019 08:40:00 9.7 C 85 % 7.3 C
682 09-03-2019 08:45:00 9.8 C 85 % 7.4 C
683 09-03-2019 08:50:00 9.9 C 85 % 7.5 C
684 09-03-2019 08:55:00 10 C 84 % 7.43 C
685 09-03-2019 09:00:00 10.1 C 84 % 7.52 C
686 09-03-2019 09:05:00 10.1 C 84 % 7.52 C
687 09-03-2019 09:10:00 10.1 C 84 % 7.52 C
688 09-03-2019 09:15:00 10.1 C 84 % 7.52 C
689 09-03-2019 09:20:00 10.1 C 84 % 7.52 C
690 09-03-2019 09:25:00 10.1 C 84 % 7.52 C
691 09-03-2019 09:30:00 10.1 C 84 % 7.52 C
692 09-03-2019 09:35:00 10.2 C 84 % 7.62 C
693 09-03-2019 09:40:00 10.2 C 83 % 7.45 C
694 09-03-2019 09:45:00 10.2 C 83 % 7.45 C
695 09-03-2019 09:50:00 10.3 C 83 % 7.54 C
696 09-03-2019 09:55:00 10.3 C 83 % 7.54 C
697 09-03-2019 10:00:00 10.3 C 83 % 7.54 C
698 09-03-2019 10:05:00 10.3 C 82 % 7.37 C
699 09-03-2019 10:10:00 10.3 C 82 % 7.37 C
700 09-03-2019 10:15:00 10.3 C 82 % 7.37 C
Sensor: Nr:Datum:Temp:Feuchte:Taupunkt:
Aussen-T/F 701 09-03-2019 10:20:00 10.4 C 82 % 7.46 C
702 09-03-2019 10:25:00 10.5 C 81 % 7.38 C
703 09-03-2019 10:30:00 10.6 C 81 % 7.48 C
704 09-03-2019 10:35:00 10.6 C 81 % 7.48 C
705 09-03-2019 10:40:00 10.7 C 80 % 7.4 C
706 09-03-2019 10:45:00 10.7 C 81 % 7.58 C
707 09-03-2019 10:50:00 10.7 C 81 % 7.58 C
708 09-03-2019 10:55:00 10.7 C 81 % 7.58 C
709 09-03-2019 11:00:00 10.7 C 81 % 7.58 C
710 09-03-2019 11:05:00 10.7 C 81 % 7.58 C
711 09-03-2019 11:10:00 10.7 C 80 % 7.4 C
712 09-03-2019 11:15:00 10.8 C 81 % 7.67 C
713 09-03-2019 11:20:00 10.8 C 80 % 7.49 C
714 09-03-2019 11:25:00 10.8 C 80 % 7.49 C
715 09-03-2019 11:30:00 10.9 C 80 % 7.59 C
716 09-03-2019 11:35:00 11 C 80 % 7.69 C
717 09-03-2019 11:40:00 11.1 C 79 % 7.6 C
718 09-03-2019 11:45:00 11.1 C 79 % 7.6 C
719 09-03-2019 11:50:00 11.2 C 79 % 7.7 C
720 09-03-2019 11:55:00 11.3 C 78 % 7.61 C
721 09-03-2019 12:00:00 11.4 C 78 % 7.71 C
722 09-03-2019 12:05:00 11.4 C 77 % 7.52 C
723 09-03-2019 12:10:00 11.5 C 78 % 7.8 C
724 09-03-2019 12:15:00 11.5 C 77 % 7.61 C
725 09-03-2019 12:20:00 11.5 C 77 % 7.61 C
Sensor: Nr:Datum:Temp:Feuchte:Taupunkt:
Aussen-T/F 726 09-03-2019 12:25:00 11.6 C 77 % 7.71 C
727 09-03-2019 12:30:00 11.7 C 77 % 7.81 C
728 09-03-2019 12:35:00 11.8 C 77 % 7.9 C
729 09-03-2019 12:40:00 11.9 C 76 % 7.81 C
730 09-03-2019 12:45:00 12.1 C 76 % 8 C
731 09-03-2019 12:50:00 12.1 C 75 % 7.81 C
732 09-03-2019 12:55:00 12.1 C 75 % 7.81 C
733 09-03-2019 13:00:00 12.1 C 76 % 8 C
734 09-03-2019 13:05:00 12.1 C 76 % 8 C
735 09-03-2019 13:10:00 12.2 C 76 % 8.1 C
736 09-03-2019 13:15:00 12.3 C 75 % 8 C
737 09-03-2019 13:20:00 12.4 C 75 % 8.1 C
738 09-03-2019 13:25:00 12.5 C 75 % 8.19 C
739 09-03-2019 13:30:00 12.6 C 74 % 8.09 C
740 09-03-2019 13:35:00 12.7 C 74 % 8.19 C
741 09-03-2019 13:40:00 12.7 C 74 % 8.19 C
742 09-03-2019 13:45:00 12.7 C 74 % 8.19 C
743 09-03-2019 13:50:00 12.9 C 73 % 8.18 C
744 09-03-2019 13:55:00 13.1 C 73 % 8.38 C
745 09-03-2019 14:00:00 13.3 C 72 % 8.36 C
746 09-03-2019 14:05:00 13.6 C 70 % 8.24 C
747 09-03-2019 14:10:00 13.6 C 70 % 8.24 C
748 09-03-2019 14:15:00 13.6 C 69 % 8.03 C
749 09-03-2019 14:20:00 13.7 C 70 % 8.33 C
750 09-03-2019 14:25:00 13.7 C 70 % 8.33 C
Sensor: Nr:Datum:Temp:Feuchte:Taupunkt:
Aussen-T/F 751 09-03-2019 14:30:00 13.6 C 68 % 7.81 C
752 09-03-2019 14:35:00 13.6 C 69 % 8.03 C
753 09-03-2019 14:40:00 13.6 C 69 % 8.03 C
754 09-03-2019 14:45:00 13.3 C 70 % 7.95 C
755 09-03-2019 14:50:00 13.2 C 70 % 7.86 C
756 09-03-2019 14:55:00 13 C 70 % 7.66 C
757 09-03-2019 15:00:00 12.9 C 71 % 7.78 C
758 09-03-2019 15:05:00 13 C 71 % 7.87 C
759 09-03-2019 15:10:00 13.1 C 70 % 7.76 C
760 09-03-2019 15:15:00 13.1 C 70 % 7.76 C
761 09-03-2019 15:20:00 13.1 C 69 % 7.55 C
762 09-03-2019 15:25:00 13.1 C 69 % 7.55 C
763 09-03-2019 15:30:00 13.2 C 69 % 7.64 C
764 09-03-2019 15:35:00 13.4 C 69 % 7.84 C
765 09-03-2019 15:40:00 13.7 C 68 % 7.91 C
766 09-03-2019 15:45:00 13.8 C 67 % 7.79 C
767 09-03-2019 15:50:00 13.7 C 66 % 7.47 C
768 09-03-2019 15:55:00 13.6 C 67 % 7.6 C
769 09-03-2019 16:00:00 13.7 C 67 % 7.69 C
770 09-03-2019 16:05:00 13.7 C 65 % 7.25 C
771 09-03-2019 16:10:00 13.6 C 65 % 7.15 C
772 09-03-2019 16:15:00 13.4 C 67 % 7.4 C
773 09-03-2019 16:20:00 13.3 C 67 % 7.31 C
774 09-03-2019 16:25:00 13.2 C 67 % 7.21 C
775 09-03-2019 16:30:00 13.3 C 66 % 7.09 C
Sensor: Nr:Datum:Temp:Feuchte:Taupunkt:
Aussen-T/F 776 09-03-2019 16:35:00 13.4 C 61 % 6.04 C
777 09-03-2019 16:40:00 13.3 C 59 % 5.47 C
778 09-03-2019 16:45:00 13.3 C 59 % 5.47 C
779 09-03-2019 16:50:00 13.2 C 59 % 5.37 C
780 09-03-2019 16:55:00 13.3 C 59 % 5.47 C
781 09-03-2019 17:00:00 13.3 C 59 % 5.47 C
782 09-03-2019 17:05:00 13.4 C 60 % 5.8 C
783 09-03-2019 17:10:00 13.5 C 60 % 5.9 C
784 09-03-2019 17:15:00 13.4 C 60 % 5.8 C
785 09-03-2019 17:20:00 13.2 C 60 % 5.61 C
786 09-03-2019 17:25:00 13.1 C 60 % 5.52 C
787 09-03-2019 17:30:00 13.1 C 61 % 5.76 C
788 09-03-2019 17:35:00 13.1 C 61 % 5.76 C
789 09-03-2019 17:40:00 12.9 C 62 % 5.8 C
790 09-03-2019 17:45:00 12.7 C 62 % 5.62 C
791 09-03-2019 17:50:00 12.6 C 61 % 5.29 C
792 09-03-2019 17:55:00 12.4 C 62 % 5.33 C
793 09-03-2019 18:00:00 12.3 C 63 % 5.47 C
794 09-03-2019 18:05:00 12.2 C 63 % 5.37 C
795 09-03-2019 18:10:00 12.1 C 63 % 5.28 C
796 09-03-2019 18:15:00 12 C 63 % 5.18 C
797 09-03-2019 18:20:00 11.9 C 63 % 5.09 C
798 09-03-2019 18:25:00 11.9 C 63 % 5.09 C
799 09-03-2019 18:30:00 11.8 C 63 % 5 C
800 09-03-2019 18:35:00 11.9 C 62 % 4.86 C
Sensor: Nr:Datum:Temp:Feuchte:Taupunkt:
Aussen-T/F 801 09-03-2019 18:40:00 12 C 62 % 4.96 C
802 09-03-2019 18:45:00 11.9 C 62 % 4.86 C
803 09-03-2019 18:50:00 12.1 C 62 % 5.05 C
804 09-03-2019 18:55:00 12.1 C 62 % 5.05 C
805 09-03-2019 19:00:00 12.1 C 63 % 5.28 C
806 09-03-2019 19:05:00 12 C 66 % 5.85 C
807 09-03-2019 19:10:00 11.4 C 69 % 5.92 C
808 09-03-2019 19:15:00 11.1 C 72 % 6.25 C
809 09-03-2019 19:20:00 10.8 C 73 % 6.16 C
810 09-03-2019 19:25:00 10.7 C 74 % 6.26 C
811 09-03-2019 19:30:00 10.4 C 77 % 6.55 C
812 09-03-2019 19:35:00 10.2 C 78 % 6.54 C
813 09-03-2019 19:40:00 9.9 C 79 % 6.43 C
814 09-03-2019 19:45:00 9.8 C 80 % 6.52 C
815 09-03-2019 19:50:00 9.8 C 80 % 6.52 C
816 09-03-2019 19:55:00 9.7 C 80 % 6.42 C
817 09-03-2019 20:00:00 9.7 C 80 % 6.42 C
818 09-03-2019 20:05:00 9.6 C 81 % 6.5 C
819 09-03-2019 20:10:00 9.6 C 81 % 6.5 C
820 09-03-2019 20:15:00 9.5 C 81 % 6.41 C
821 09-03-2019 20:20:00 9.5 C 82 % 6.59 C
822 09-03-2019 20:25:00 9.4 C 83 % 6.66 C
823 09-03-2019 20:30:00 9.4 C 83 % 6.66 C
824 09-03-2019 20:35:00 9.4 C 83 % 6.66 C
825 09-03-2019 20:40:00 9.4 C 83 % 6.66 C
Sensor: Nr:Datum:Temp:Feuchte:Taupunkt:
Aussen-T/F 826 09-03-2019 20:45:00 9.3 C 83 % 6.57 C
827 09-03-2019 20:50:00 9.3 C 83 % 6.57 C
828 09-03-2019 20:55:00 9.3 C 84 % 6.74 C
829 09-03-2019 21:00:00 9.3 C 84 % 6.74 C
830 09-03-2019 21:05:00 9.3 C 83 % 6.57 C
831 09-03-2019 21:10:00 9.7 C 76 % 5.68 C
832 09-03-2019 21:15:00 10.2 C 79 % 6.73 C
833 09-03-2019 21:20:00 10.2 C 80 % 6.91 C
834 09-03-2019 21:25:00 10 C 81 % 6.89 C
835 09-03-2019 21:30:00 9.8 C 82 % 6.88 C
836 09-03-2019 21:35:00 9.7 C 83 % 6.96 C
837 09-03-2019 21:40:00 9.6 C 84 % 7.03 C
838 09-03-2019 21:45:00 9.5 C 84 % 6.94 C
839 09-03-2019 21:50:00 9.4 C 85 % 7.01 C
840 09-03-2019 21:55:00 9.3 C 85 % 6.91 C
841 09-03-2019 22:00:00 9.3 C 85 % 6.91 C
842 09-03-2019 22:05:00 9.2 C 85 % 6.81 C
843 09-03-2019 22:10:00 9.2 C 85 % 6.81 C
844 09-03-2019 22:15:00 9.2 C 86 % 6.98 C
845 09-03-2019 22:20:00 9.2 C 86 % 6.98 C
846 09-03-2019 22:25:00 9.2 C 82 % 6.29 C
847 09-03-2019 22:30:00 9.4 C 79 % 5.95 C
848 09-03-2019 22:35:00 9.8 C 76 % 5.78 C
849 09-03-2019 22:40:00 10 C 75 % 5.78 C
850 09-03-2019 22:45:00 10.2 C 74 % 5.78 C
Sensor: Nr:Datum:Temp:Feuchte:Taupunkt:
Aussen-T/F 851 09-03-2019 22:50:00 10.3 C 74 % 5.88 C
852 09-03-2019 22:55:00 10.3 C 73 % 5.68 C
853 09-03-2019 23:00:00 10.4 C 73 % 5.78 C
854 09-03-2019 23:05:00 10.4 C 72 % 5.58 C
855 09-03-2019 23:10:00 10.4 C 72 % 5.58 C
856 09-03-2019 23:15:00 10.4 C 71 % 5.38 C
857 09-03-2019 23:20:00 10.3 C 71 % 5.28 C
858 09-03-2019 23:25:00 10.4 C 71 % 5.38 C
859 09-03-2019 23:30:00 10.4 C 71 % 5.38 C
860 09-03-2019 23:35:00 10.3 C 71 % 5.28 C
861 09-03-2019 23:40:00 10.3 C 71 % 5.28 C
862 09-03-2019 23:45:00 10.3 C 71 % 5.28 C
863 09-03-2019 23:50:00 10.3 C 71 % 5.28 C
864 09-03-2019 23:55:00 10.2 C 71 % 5.18 C
865 10-03-2019 00:00:00 10.2 C 71 % 5.18 C
866 10-03-2019 00:05:00 10.2 C 71 % 5.18 C
867 10-03-2019 00:10:00 10.2 C 70 % 4.98 C
868 10-03-2019 00:15:00 10.2 C 70 % 4.98 C
869 10-03-2019 00:20:00 10.2 C 69 % 4.78 C
870 10-03-2019 00:25:00 10.2 C 68 % 4.57 C
871 10-03-2019 00:30:00 10.2 C 69 % 4.78 C
872 10-03-2019 00:35:00 10.2 C 69 % 4.78 C
873 10-03-2019 00:40:00 10.1 C 69 % 4.68 C
874 10-03-2019 00:45:00 10 C 70 % 4.79 C
875 10-03-2019 00:50:00 9.9 C 70 % 4.69 C
Sensor: Nr:Datum:Temp:Feuchte:Taupunkt:
Aussen-T/F 876 10-03-2019 00:55:00 9.8 C 70 % 4.6 C
877 10-03-2019 01:00:00 9.8 C 70 % 4.6 C
878 10-03-2019 01:05:00 9.8 C 69 % 4.39 C
879 10-03-2019 01:10:00 9.8 C 69 % 4.39 C
880 10-03-2019 01:15:00 9.8 C 70 % 4.6 C
881 10-03-2019 01:20:00 9.7 C 69 % 4.3 C
882 10-03-2019 01:25:00 9.7 C 70 % 4.5 C
883 10-03-2019 01:30:00 9.7 C 70 % 4.5 C
884 10-03-2019 01:35:00 9.6 C 71 % 4.61 C
885 10-03-2019 01:40:00 9.6 C 71 % 4.61 C
886 10-03-2019 01:45:00 9.5 C 72 % 4.71 C
887 10-03-2019 01:50:00 9.5 C 72 % 4.71 C
888 10-03-2019 01:55:00 9.5 C 72 % 4.71 C
889 10-03-2019 02:00:00 9.5 C 73 % 4.91 C
890 10-03-2019 02:05:00 9.4 C 73 % 4.81 C
891 10-03-2019 02:10:00 9.4 C 73 % 4.81 C
892 10-03-2019 02:15:00 9.4 C 73 % 4.81 C
893 10-03-2019 02:20:00 9.4 C 74 % 5.01 C
894 10-03-2019 02:25:00 9.4 C 73 % 4.81 C
895 10-03-2019 02:30:00 9.4 C 74 % 5.01 C
896 10-03-2019 02:35:00 9.4 C 74 % 5.01 C
897 10-03-2019 02:40:00 9.4 C 74 % 5.01 C
898 10-03-2019 02:45:00 9.4 C 74 % 5.01 C
899 10-03-2019 02:50:00 9.4 C 74 % 5.01 C
900 10-03-2019 02:55:00 9.4 C 74 % 5.01 C
Sensor: Nr:Datum:Temp:Feuchte:Taupunkt:
Aussen-T/F 901 10-03-2019 03:00:00 9.4 C 75 % 5.2 C
902 10-03-2019 03:05:00 9.4 C 75 % 5.2 C
903 10-03-2019 03:10:00 9.3 C 75 % 5.1 C
904 10-03-2019 03:15:00 9.3 C 76 % 5.29 C
905 10-03-2019 03:20:00 9.3 C 76 % 5.29 C
906 10-03-2019 03:25:00 9.2 C 77 % 5.38 C
907 10-03-2019 03:30:00 9.2 C 77 % 5.38 C
908 10-03-2019 03:35:00 9.1 C 78 % 5.47 C
909 10-03-2019 03:40:00 8.9 C 79 % 5.46 C
910 10-03-2019 03:45:00 8.8 C 79 % 5.36 C
911 10-03-2019 03:50:00 8.7 C 80 % 5.45 C
912 10-03-2019 03:55:00 8.6 C 81 % 5.53 C
913 10-03-2019 04:00:00 8.5 C 81 % 5.43 C
914 10-03-2019 04:05:00 8.4 C 81 % 5.33 C
915 10-03-2019 04:10:00 8.4 C 82 % 5.51 C
916 10-03-2019 04:15:00 8.4 C 83 % 5.69 C
917 10-03-2019 04:20:00 8.4 C 84 % 5.86 C
918 10-03-2019 04:25:00 8.4 C 85 % 6.03 C
919 10-03-2019 04:30:00 8.4 C 86 % 6.2 C
920 10-03-2019 04:35:00 8.3 C 87 % 6.27 C
921 10-03-2019 04:40:00 8.3 C 87 % 6.27 C
922 10-03-2019 04:45:00 8.2 C 88 % 6.33 C
923 10-03-2019 04:50:00 8.1 C 88 % 6.24 C
924 10-03-2019 04:55:00 8.1 C 89 % 6.4 C
925 10-03-2019 05:00:00 8 C 89 % 6.3 C
Sensor: Nr:Datum:Temp:Feuchte:Taupunkt:
Aussen-T/F 926 10-03-2019 05:05:00 7.9 C 90 % 6.36 C
927 10-03-2019 05:10:00 7.9 C 90 % 6.36 C
928 10-03-2019 05:15:00 7.9 C 90 % 6.36 C
929 10-03-2019 05:20:00 7.9 C 90 % 6.36 C
930 10-03-2019 05:25:00 7.8 C 91 % 6.43 C
931 10-03-2019 05:30:00 7.8 C 91 % 6.43 C
932 10-03-2019 05:35:00 7.7 C 92 % 6.48 C
933 10-03-2019 05:40:00 7.7 C 92 % 6.48 C
934 10-03-2019 05:45:00 7.7 C 92 % 6.48 C
935 10-03-2019 05:50:00 7.7 C 92 % 6.48 C
936 10-03-2019 05:55:00 7.6 C 92 % 6.39 C
937 10-03-2019 06:00:00 7.6 C 93 % 6.54 C
938 10-03-2019 06:05:00 7.6 C 93 % 6.54 C
939 10-03-2019 06:10:00 7.6 C 93 % 6.54 C
940 10-03-2019 06:15:00 7.6 C 93 % 6.54 C
941 10-03-2019 06:20:00 7.5 C 93 % 6.44 C
942 10-03-2019 06:25:00 7.5 C 93 % 6.44 C
943 10-03-2019 06:30:00 7.4 C 94 % 6.5 C
944 10-03-2019 06:35:00 7.4 C 94 % 6.5 C
945 10-03-2019 06:40:00 7.4 C 94 % 6.5 C
946 10-03-2019 06:45:00 7.4 C 94 % 6.5 C
947 10-03-2019 06:50:00 7.4 C 94 % 6.5 C
948 10-03-2019 06:55:00 7.3 C 94 % 6.4 C
949 10-03-2019 07:00:00 7.3 C 94 % 6.4 C
950 10-03-2019 07:05:00 7.4 C 94 % 6.5 C
Sensor: Nr:Datum:Temp:Feuchte:Taupunkt:
Aussen-T/F 951 10-03-2019 07:10:00 7.4 C 95 % 6.65 C
952 10-03-2019 07:15:00 7.6 C 95 % 6.85 C
953 10-03-2019 07:20:00 7.6 C 95 % 6.85 C
954 10-03-2019 07:25:00 7.7 C 95 % 6.95 C
955 10-03-2019 07:30:00 7.7 C 95 % 6.95 C
956 10-03-2019 07:35:00 7.8 C 95 % 7.05 C
957 10-03-2019 07:40:00 7.8 C 95 % 7.05 C
958 10-03-2019 07:45:00 7.9 C 95 % 7.15 C
959 10-03-2019 07:50:00 7.9 C 95 % 7.15 C
960 10-03-2019 07:55:00 8 C 95 % 7.25 C
961 10-03-2019 08:00:00 8.1 C 95 % 7.35 C
962 10-03-2019 08:05:00 8.1 C 96 % 7.5 C
963 10-03-2019 08:10:00 8.2 C 96 % 7.6 C
964 10-03-2019 08:15:00 8.3 C 96 % 7.7 C
965 10-03-2019 08:20:00 8.4 C 96 % 7.8 C
966 10-03-2019 08:25:00 8.7 C 96 % 8.1 C
967 10-03-2019 08:30:00 8.9 C 96 % 8.3 C
968 10-03-2019 08:35:00 9.2 C 96 % 8.6 C
969 10-03-2019 08:40:00 9.4 C 96 % 8.8 C
970 10-03-2019 08:45:00 9.6 C 96 % 8.99 C
971 10-03-2019 08:50:00 9.7 C 96 % 9.09 C
972 10-03-2019 08:55:00 9.8 C 96 % 9.19 C
973 10-03-2019 09:00:00 9.9 C 96 % 9.29 C
974 10-03-2019 09:05:00 10.1 C 96 % 9.49 C
975 10-03-2019 09:10:00 10.2 C 95 % 9.44 C
Sensor: Nr:Datum:Temp:Feuchte:Taupunkt:
Aussen-T/F 976 10-03-2019 09:15:00 10.3 C 95 % 9.54 C
977 10-03-2019 09:20:00 10.4 C 95 % 9.63 C
978 10-03-2019 09:25:00 10.4 C 95 % 9.63 C
979 10-03-2019 09:30:00 10.6 C 95 % 9.83 C
980 10-03-2019 09:35:00 10.7 C 95 % 9.93 C
981 10-03-2019 09:40:00 10.8 C 95 % 10.03 C
982 10-03-2019 09:45:00 11.1 C 95 % 10.33 C
983 10-03-2019 09:50:00 11.2 C 95 % 10.43 C
984 10-03-2019 09:55:00 11.3 C 95 % 10.53 C
985 10-03-2019 10:00:00 11.4 C 94 % 10.47 C
986 10-03-2019 10:05:00 11.5 C 94 % 10.57 C
987 10-03-2019 10:10:00 11.6 C 94 % 10.67 C
988 10-03-2019 10:15:00 11.7 C 94 % 10.77 C
989 10-03-2019 10:20:00 11.8 C 94 % 10.87 C
990 10-03-2019 10:25:00 11.9 C 94 % 10.97 C
991 10-03-2019 10:30:00 12 C 94 % 11.07 C
992 10-03-2019 10:35:00 12.2 C 94 % 11.26 C
993 10-03-2019 10:40:00 12.2 C 93 % 11.1 C
994 10-03-2019 10:45:00 12.3 C 92 % 11.04 C
995 10-03-2019 10:50:00 12.4 C 92 % 11.14 C
996 10-03-2019 10:55:00 12.5 C 91 % 11.07 C
997 10-03-2019 11:00:00 12.6 C 90 % 11 C
998 10-03-2019 11:05:00 12.7 C 88 % 10.77 C
999 10-03-2019 11:10:00 12.8 C 85 % 10.34 C
1000 10-03-2019 11:15:00 12.9 C 81 % 9.72 C
Sensor: Nr:Datum:Temp:Feuchte:Taupunkt:
Aussen-T/F 1001 10-03-2019 11:20:00 13.2 C 79 % 9.64 C
1002 10-03-2019 11:25:00 13.3 C 77 % 9.36 C
1003 10-03-2019 11:30:00 13.3 C 75 % 8.97 C
1004 10-03-2019 11:35:00 13.3 C 74 % 8.77 C
1005 10-03-2019 11:40:00 13.3 C 74 % 8.77 C
1006 10-03-2019 11:45:00 13.3 C 75 % 8.97 C
1007 10-03-2019 11:50:00 13.4 C 74 % 8.87 C
1008 10-03-2019 11:55:00 13.6 C 73 % 8.86 C
1009 10-03-2019 12:00:00 13.7 C 75 % 9.35 C
1010 10-03-2019 12:05:00 13.8 C 75 % 9.45 C
1011 10-03-2019 12:10:00 13.9 C 73 % 9.15 C
1012 10-03-2019 12:15:00 14.1 C 72 % 9.13 C
1013 10-03-2019 12:20:00 14.1 C 71 % 8.93 C
1014 10-03-2019 12:25:00 14.2 C 71 % 9.02 C
1015 10-03-2019 12:30:00 14.3 C 71 % 9.12 C
1016 10-03-2019 12:35:00 14.3 C 70 % 8.91 C
1017 10-03-2019 12:40:00 14.3 C 72 % 9.33 C
1018 10-03-2019 12:45:00 14.3 C 72 % 9.33 C
1019 10-03-2019 12:50:00 14.3 C 73 % 9.53 C
1020 10-03-2019 12:55:00 14.2 C 72 % 9.23 C
1021 10-03-2019 13:00:00 14.1 C 72 % 9.13 C
1022 10-03-2019 13:05:00 13.9 C 71 % 8.73 C
1023 10-03-2019 13:10:00 13.9 C 69 % 8.31 C
1024 10-03-2019 13:15:00 13.9 C 69 % 8.31 C
1025 10-03-2019 13:20:00 14 C 69 % 8.41 C
Sensor: Nr:Datum:Temp:Feuchte:Taupunkt:
Aussen-T/F 1026 10-03-2019 13:25:00 14.1 C 68 % 8.29 C
1027 10-03-2019 13:30:00 14.2 C 68 % 8.39 C
1028 10-03-2019 13:35:00 14.6 C 64 % 7.87 C
1029 10-03-2019 13:40:00 14.9 C 59 % 6.97 C
1030 10-03-2019 13:45:00 15.1 C 57 % 6.65 C
1031 10-03-2019 13:50:00 15.1 C 56 % 6.4 C
1032 10-03-2019 13:55:00 15 C 53 % 5.51 C
1033 10-03-2019 14:00:00 14.9 C 52 % 5.14 C
1034 10-03-2019 14:05:00 14.8 C 51 % 4.77 C
1035 10-03-2019 14:10:00 14.8 C 52 % 5.05 C
1036 10-03-2019 14:15:00 14.7 C 52 % 4.96 C
1037 10-03-2019 14:20:00 14.6 C 53 % 5.14 C
1038 10-03-2019 14:25:00 14.4 C 52 % 4.68 C
1039 10-03-2019 14:30:00 14.3 C 52 % 4.59 C
1040 10-03-2019 14:35:00 14.2 C 52 % 4.5 C
1041 10-03-2019 14:40:00 14.2 C 52 % 4.5 C
1042 10-03-2019 14:45:00 14.1 C 53 % 4.68 C
1043 10-03-2019 14:50:00 14 C 51 % 4.04 C
1044 10-03-2019 14:55:00 13.9 C 52 % 4.22 C
1045 10-03-2019 15:00:00 13.9 C 52 % 4.22 C
1046 10-03-2019 15:05:00 13.8 C 51 % 3.85 C
1047 10-03-2019 15:10:00 13.7 C 52 % 4.03 C
1048 10-03-2019 15:15:00 13.5 C 51 % 3.57 C
1049 10-03-2019 15:20:00 13.4 C 50 % 3.2 C
1050 10-03-2019 15:25:00 13.4 C 51 % 3.48 C
Sensor: Nr:Datum:Temp:Feuchte:Taupunkt:
Aussen-T/F 1051 10-03-2019 15:30:00 13.4 C 48 % 2.63 C
1052 10-03-2019 15:35:00 13.5 C 48 % 2.72 C
1053 10-03-2019 15:40:00 13.6 C 50 % 3.39 C
1054 10-03-2019 15:45:00 13.7 C 49 % 3.19 C
1055 10-03-2019 15:50:00 13.5 C 51 % 3.57 C
1056 10-03-2019 15:55:00 13.3 C 50 % 3.11 C
1057 10-03-2019 16:00:00 13.2 C 50 % 3.02 C
1058 10-03-2019 16:05:00 13 C 51 % 3.11 C
1059 10-03-2019 16:10:00 12.8 C 51 % 2.93 C
1060 10-03-2019 16:15:00 12.6 C 52 % 3.02 C
1061 10-03-2019 16:20:00 12.5 C 51 % 2.65 C
1062 10-03-2019 16:25:00 12.4 C 50 % 2.28 C
1063 10-03-2019 16:30:00 12.4 C 50 % 2.28 C
1064 10-03-2019 16:35:00 12.6 C 49 % 2.18 C
1065 10-03-2019 16:40:00 12.4 C 48 % 1.71 C
1066 10-03-2019 16:45:00 12.3 C 49 % 1.91 C
1067 10-03-2019 16:50:00 12.2 C 50 % 2.1 C
1068 10-03-2019 16:55:00 12 C 51 % 2.19 C
1069 10-03-2019 17:00:00 11.9 C 51 % 2.1 C
1070 10-03-2019 17:05:00 11.7 C 51 % 1.91 C
1071 10-03-2019 17:10:00 11.6 C 51 % 1.82 C
1072 10-03-2019 17:15:00 11.6 C 51 % 1.82 C
1073 10-03-2019 17:20:00 11.4 C 59 % 3.68 C
1074 10-03-2019 17:25:00 10.7 C 64 % 4.18 C
1075 10-03-2019 17:30:00 9.9 C 69 % 4.49 C
Sensor: Nr:Datum:Temp:Feuchte:Taupunkt:
Aussen-T/F 1076 10-03-2019 17:35:00 9.4 C 71 % 4.42 C
1077 10-03-2019 17:40:00 9.2 C 71 % 4.22 C
1078 10-03-2019 17:45:00 9.1 C 72 % 4.33 C
1079 10-03-2019 17:50:00 9.1 C 73 % 4.52 C
1080 10-03-2019 17:55:00 9 C 72 % 4.23 C
1081 10-03-2019 18:00:00 9 C 72 % 4.23 C
1082 10-03-2019 18:05:00 9.1 C 73 % 4.52 C
1083 10-03-2019 18:10:00 8.7 C 76 % 4.71 C
1084 10-03-2019 18:15:00 8 C 79 % 4.59 C
1085 10-03-2019 18:20:00 7.7 C 81 % 4.65 C
1086 10-03-2019 18:25:00 7.5 C 82 % 4.63 C
1087 10-03-2019 18:30:00 7.3 C 83 % 4.61 C
1088 10-03-2019 18:35:00 7.1 C 83 % 4.41 C
1089 10-03-2019 18:40:00 7.1 C 84 % 4.58 C
1090 10-03-2019 18:45:00 7 C 84 % 4.49 C
1091 10-03-2019 18:50:00 6.9 C 83 % 4.22 C
1092 10-03-2019 18:55:00 6.9 C 83 % 4.22 C
1093 10-03-2019 19:00:00 6.9 C 81 % 3.87 C
1094 10-03-2019 19:05:00 6.9 C 81 % 3.87 C
1095 10-03-2019 19:10:00 6.8 C 81 % 3.77 C
1096 10-03-2019 19:15:00 6.8 C 81 % 3.77 C
1097 10-03-2019 19:20:00 6.8 C 81 % 3.77 C
1098 10-03-2019 19:25:00 6.8 C 80 % 3.6 C
1099 10-03-2019 19:30:00 6.8 C 79 % 3.42 C
1100 10-03-2019 19:35:00 6.9 C 78 % 3.34 C
Sensor: Nr:Datum:Temp:Feuchte:Taupunkt:
Aussen-T/F 1101 10-03-2019 19:40:00 7 C 77 % 3.25 C
1102 10-03-2019 19:45:00 7.1 C 75 % 2.98 C
1103 10-03-2019 19:50:00 7.2 C 75 % 3.07 C
1104 10-03-2019 19:55:00 7.3 C 74 % 2.98 C
1105 10-03-2019 20:00:00 7.3 C 73 % 2.79 C
1106 10-03-2019 20:05:00 7.3 C 72 % 2.6 C
1107 10-03-2019 20:10:00 7.2 C 73 % 2.69 C
1108 10-03-2019 20:15:00 6.6 C 73 % 2.12 C
1109 10-03-2019 20:20:00 6 C 74 % 1.73 C
1110 10-03-2019 20:25:00 5.7 C 75 % 1.62 C
1111 10-03-2019 20:30:00 5.6 C 76 % 1.71 C
1112 10-03-2019 20:35:00 5.6 C 77 % 1.89 C
1113 10-03-2019 20:40:00 5.4 C 77 % 1.7 C
1114 10-03-2019 20:45:00 5.4 C 78 % 1.88 C
1115 10-03-2019 20:50:00 5.4 C 78 % 1.88 C
1116 10-03-2019 20:55:00 5.4 C 79 % 2.06 C
1117 10-03-2019 21:00:00 5.3 C 79 % 1.96 C
1118 10-03-2019 21:05:00 5.3 C 79 % 1.96 C
1119 10-03-2019 21:10:00 5.2 C 79 % 1.86 C
1120 10-03-2019 21:15:00 5.2 C 80 % 2.04 C
1121 10-03-2019 21:20:00 5.2 C 80 % 2.04 C
1122 10-03-2019 21:25:00 5.1 C 80 % 1.94 C
1123 10-03-2019 21:30:00 5.1 C 80 % 1.94 C
1124 10-03-2019 21:35:00 5.2 C 80 % 2.04 C
1125 10-03-2019 21:40:00 5.3 C 79 % 1.96 C
Sensor: Nr:Datum:Temp:Feuchte:Taupunkt:
Aussen-T/F 1126 10-03-2019 21:45:00 5.3 C 78 % 1.78 C
1127 10-03-2019 21:50:00 5.2 C 78 % 1.69 C
1128 10-03-2019 21:55:00 5.2 C 78 % 1.69 C
1129 10-03-2019 22:00:00 5.1 C 78 % 1.59 C
1130 10-03-2019 22:05:00 4.9 C 78 % 1.39 C
1131 10-03-2019 22:10:00 4.9 C 79 % 1.57 C
1132 10-03-2019 22:15:00 4.9 C 80 % 1.75 C
1133 10-03-2019 22:20:00 5 C 80 % 1.84 C
1134 10-03-2019 22:25:00 5.1 C 80 % 1.94 C
1135 10-03-2019 22:30:00 5.2 C 80 % 2.04 C
1136 10-03-2019 22:35:00 5.2 C 80 % 2.04 C
1137 10-03-2019 22:40:00 5.2 C 81 % 2.21 C
1138 10-03-2019 22:45:00 5.2 C 81 % 2.21 C
1139 10-03-2019 22:50:00 5.1 C 81 % 2.12 C
1140 10-03-2019 22:55:00 4.9 C 81 % 1.92 C
1141 10-03-2019 23:00:00 4.9 C 81 % 1.92 C
1142 10-03-2019 23:05:00 4.8 C 81 % 1.82 C
1143 10-03-2019 23:10:00 4.8 C 81 % 1.82 C
1144 10-03-2019 23:15:00 4.8 C 81 % 1.82 C
1145 10-03-2019 23:20:00 4.9 C 81 % 1.92 C
1146 10-03-2019 23:25:00 4.9 C 80 % 1.75 C
1147 10-03-2019 23:30:00 5 C 80 % 1.84 C
1148 10-03-2019 23:35:00 4.9 C 80 % 1.75 C
1149 10-03-2019 23:40:00 4.9 C 80 % 1.75 C
1150 10-03-2019 23:45:00 4.8 C 80 % 1.65 C
Sensor: Nr:Datum:Temp:Feuchte:Taupunkt:
Aussen-T/F 1151 10-03-2019 23:50:00 4.8 C 80 % 1.65 C
1152 10-03-2019 23:55:00 4.8 C 80 % 1.65 C
1153 11-03-2019 00:00:00 4.7 C 80 % 1.55 C
1154 11-03-2019 00:05:00 4.6 C 80 % 1.46 C
1155 11-03-2019 00:10:00 4.5 C 80 % 1.36 C
1156 11-03-2019 00:15:00 4.4 C 81 % 1.43 C
1157 11-03-2019 00:20:00 4.3 C 81 % 1.34 C
1158 11-03-2019 00:25:00 4.2 C 81 % 1.24 C
1159 11-03-2019 00:30:00 4.2 C 81 % 1.24 C
1160 11-03-2019 00:35:00 4.2 C 82 % 1.41 C
1161 11-03-2019 00:40:00 4.2 C 82 % 1.41 C
1162 11-03-2019 00:45:00 4.2 C 82 % 1.41 C
1163 11-03-2019 00:50:00 4.3 C 82 % 1.51 C
1164 11-03-2019 00:55:00 4.3 C 81 % 1.34 C
1165 11-03-2019 01:00:00 4.3 C 81 % 1.34 C
1166 11-03-2019 01:05:00 4.4 C 81 % 1.43 C
1167 11-03-2019 01:10:00 4.4 C 80 % 1.26 C
1168 11-03-2019 01:15:00 4.5 C 80 % 1.36 C
1169 11-03-2019 01:20:00 4.5 C 80 % 1.36 C
1170 11-03-2019 01:25:00 4.4 C 80 % 1.26 C
1171 11-03-2019 01:30:00 4.3 C 80 % 1.16 C
1172 11-03-2019 01:35:00 4.4 C 80 % 1.26 C
1173 11-03-2019 01:40:00 4.5 C 79 % 1.18 C
1174 11-03-2019 01:45:00 4.7 C 79 % 1.38 C
1175 11-03-2019 01:50:00 4.8 C 78 % 1.3 C
Sensor: Nr:Datum:Temp:Feuchte:Taupunkt:
Aussen-T/F 1176 11-03-2019 01:55:00 4.9 C 78 % 1.39 C
1177 11-03-2019 02:00:00 5 C 78 % 1.49 C
1178 11-03-2019 02:05:00 5.2 C 77 % 1.51 C
1179 11-03-2019 02:10:00 5.4 C 77 % 1.7 C
1180 11-03-2019 02:15:00 5.4 C 77 % 1.7 C
1181 11-03-2019 02:20:00 5.3 C 78 % 1.78 C
1182 11-03-2019 02:25:00 5.2 C 79 % 1.86 C
1183 11-03-2019 02:30:00 5.1 C 80 % 1.94 C
1184 11-03-2019 02:35:00 5 C 80 % 1.84 C
1185 11-03-2019 02:40:00 4.9 C 80 % 1.75 C
1186 11-03-2019 02:45:00 4.9 C 80 % 1.75 C
1187 11-03-2019 02:50:00 4.9 C 80 % 1.75 C
1188 11-03-2019 02:55:00 5 C 81 % 2.02 C
1189 11-03-2019 03:00:00 5 C 81 % 2.02 C
1190 11-03-2019 03:05:00 5 C 81 % 2.02 C
1191 11-03-2019 03:10:00 5 C 82 % 2.19 C
1192 11-03-2019 03:15:00 4.9 C 81 % 1.92 C
1193 11-03-2019 03:20:00 4.3 C 83 % 1.67 C
1194 11-03-2019 03:25:00 3.7 C 85 % 1.42 C
1195 11-03-2019 03:30:00 3.3 C 86 % 1.19 C
1196 11-03-2019 03:35:00 2.9 C 87 % 0.96 C
1197 11-03-2019 03:40:00 2.6 C 88 % 0.82 C
1198 11-03-2019 03:45:00 2.5 C 89 % 0.88 C
1199 11-03-2019 03:50:00 2.4 C 90 % 0.93 C
1200 11-03-2019 03:55:00 2.3 C 91 % 0.99 C
Sensor: Nr:Datum:Temp:Feuchte:Taupunkt:
Aussen-T/F 1201 11-03-2019 04:00:00 2.3 C 91 % 0.99 C
1202 11-03-2019 04:05:00 2.3 C 92 % 1.14 C
1203 11-03-2019 04:10:00 2.3 C 92 % 1.14 C
1204 11-03-2019 04:15:00 2.3 C 92 % 1.14 C
1205 11-03-2019 04:20:00 2.3 C 93 % 1.29 C
1206 11-03-2019 04:25:00 2.3 C 93 % 1.29 C
1207 11-03-2019 04:30:00 2.4 C 93 % 1.39 C
1208 11-03-2019 04:35:00 2.5 C 93 % 1.49 C
1209 11-03-2019 04:40:00 2.5 C 93 % 1.49 C
1210 11-03-2019 04:45:00 2.4 C 93 % 1.39 C
1211 11-03-2019 04:50:00 2.4 C 93 % 1.39 C
1212 11-03-2019 04:55:00 2.4 C 93 % 1.39 C
1213 11-03-2019 05:00:00 2.4 C 94 % 1.54 C
1214 11-03-2019 05:05:00 2.5 C 94 % 1.63 C
1215 11-03-2019 05:10:00 2.4 C 93 % 1.39 C
1216 11-03-2019 05:15:00 2.3 C 93 % 1.29 C
1217 11-03-2019 05:20:00 2.2 C 93 % 1.19 C
1218 11-03-2019 05:25:00 2.2 C 93 % 1.19 C
1219 11-03-2019 05:30:00 2.2 C 93 % 1.19 C
1220 11-03-2019 05:35:00 2.1 C 92 % 0.94 C
1221 11-03-2019 05:40:00 2 C 92 % 0.84 C
1222 11-03-2019 05:45:00 2 C 92 % 0.84 C
1223 11-03-2019 05:50:00 2.1 C 92 % 0.94 C
1224 11-03-2019 05:55:00 2.1 C 92 % 0.94 C
1225 11-03-2019 06:00:00 2.2 C 92 % 1.04 C
Sensor: Nr:Datum:Temp:Feuchte:Taupunkt:
Aussen-T/F 1226 11-03-2019 06:05:00 2.1 C 92 % 0.94 C
1227 11-03-2019 06:10:00 1.9 C 92 % 0.74 C
1228 11-03-2019 06:15:00 1.8 C 92 % 0.64 C
1229 11-03-2019 06:20:00 1.8 C 92 % 0.64 C
1230 11-03-2019 06:25:00 1.7 C 92 % 0.54 C
1231 11-03-2019 06:30:00 1.7 C 93 % 0.69 C
1232 11-03-2019 06:35:00 1.6 C 93 % 0.59 C
1233 11-03-2019 06:40:00 1.6 C 93 % 0.59 C
1234 11-03-2019 06:45:00 1.6 C 93 % 0.59 C
1235 11-03-2019 06:50:00 1.5 C 93 % 0.49 C
1236 11-03-2019 06:55:00 1.4 C 93 % 0.4 C
1237 11-03-2019 07:00:00 1.4 C 93 % 0.4 C
1238 11-03-2019 07:05:00 1.4 C 93 % 0.4 C
1239 11-03-2019 07:10:00 1.4 C 94 % 0.54 C
1240 11-03-2019 07:15:00 1.3 C 94 % 0.44 C
1241 11-03-2019 07:20:00 1.3 C 94 % 0.44 C
1242 11-03-2019 07:25:00 1.4 C 94 % 0.54 C
1243 11-03-2019 07:30:00 1.4 C 94 % 0.54 C
1244 11-03-2019 07:35:00 1.5 C 94 % 0.64 C
1245 11-03-2019 07:40:00 1.7 C 95 % 0.99 C
1246 11-03-2019 07:45:00 1.8 C 95 % 1.09 C
1247 11-03-2019 07:50:00 1.8 C 95 % 1.09 C
1248 11-03-2019 07:55:00 1.9 C 95 % 1.19 C
1249 11-03-2019 08:00:00 1.9 C 95 % 1.19 C
1250 11-03-2019 08:05:00 2 C 95 % 1.29 C
Sensor: Nr:Datum:Temp:Feuchte:Taupunkt:
Aussen-T/F 1251 11-03-2019 08:10:00 2 C 95 % 1.29 C
1252 11-03-2019 08:15:00 2 C 95 % 1.29 C
1253 11-03-2019 08:20:00 2.1 C 95 % 1.38 C
1254 11-03-2019 08:25:00 2.2 C 95 % 1.48 C
1255 11-03-2019 08:30:00 2.3 C 95 % 1.58 C
1256 11-03-2019 08:35:00 2.4 C 95 % 1.68 C
1257 11-03-2019 08:40:00 2.5 C 95 % 1.78 C
1258 11-03-2019 08:45:00 2.7 C 95 % 1.98 C
1259 11-03-2019 08:50:00 2.8 C 95 % 2.08 C
1260 11-03-2019 08:55:00 2.9 C 95 % 2.18 C
1261 11-03-2019 09:00:00 3 C 94 % 2.13 C
1262 11-03-2019 09:05:00 3 C 93 % 1.98 C
1263 11-03-2019 09:10:00 3.2 C 91 % 1.88 C
1264 11-03-2019 09:15:00 3.3 C 89 % 1.67 C
1265 11-03-2019 09:20:00 3.4 C 89 % 1.76 C
1266 11-03-2019 09:25:00 3.6 C 87 % 1.64 C
1267 11-03-2019 09:30:00 3.7 C 86 % 1.58 C
1268 11-03-2019 09:35:00 3.6 C 87 % 1.64 C
1269 11-03-2019 09:40:00 3.4 C 88 % 1.61 C
1270 11-03-2019 09:45:00 3.3 C 89 % 1.67 C
1271 11-03-2019 09:50:00 3.3 C 90 % 1.82 C
1272 11-03-2019 09:55:00 3.3 C 90 % 1.82 C
1273 11-03-2019 10:00:00 3.4 C 91 % 2.07 C
1274 11-03-2019 10:05:00 3.5 C 91 % 2.17 C
1275 11-03-2019 10:10:00 3.6 C 91 % 2.27 C
Sensor: Nr:Datum:Temp:Feuchte:Taupunkt:
Aussen-T/F 1276 11-03-2019 10:15:00 3.8 C 91 % 2.47 C
1277 11-03-2019 10:20:00 3.9 C 91 % 2.57 C
1278 11-03-2019 10:25:00 4.1 C 89 % 2.45 C
1279 11-03-2019 10:30:00 4.1 C 88 % 2.3 C
1280 11-03-2019 10:35:00 4.1 C 87 % 2.14 C
1281 11-03-2019 10:40:00 4.2 C 86 % 2.07 C
1282 11-03-2019 10:45:00 4.1 C 85 % 1.81 C
1283 11-03-2019 10:50:00 4.1 C 85 % 1.81 C
1284 11-03-2019 10:55:00 4.2 C 85 % 1.91 C
1285 11-03-2019 11:00:00 4.3 C 86 % 2.17 C
1286 11-03-2019 11:05:00 4.4 C 86 % 2.27 C
1287 11-03-2019 11:10:00 4.6 C 85 % 2.3 C
1288 11-03-2019 11:15:00 4.6 C 84 % 2.14 C
1289 11-03-2019 11:20:00 4.6 C 83 % 1.97 C
1290 11-03-2019 11:25:00 4.7 C 84 % 2.23 C
1291 11-03-2019 11:30:00 4.9 C 83 % 2.26 C
1292 11-03-2019 11:35:00 5.2 C 81 % 2.21 C
1293 11-03-2019 11:40:00 5.3 C 79 % 1.96 C
1294 11-03-2019 11:45:00 5.3 C 79 % 1.96 C
1295 11-03-2019 11:50:00 5.3 C 79 % 1.96 C
1296 11-03-2019 11:55:00 5.3 C 79 % 1.96 C
1297 11-03-2019 12:00:00 5.3 C 79 % 1.96 C
1298 11-03-2019 12:05:00 5.3 C 78 % 1.78 C
1299 11-03-2019 12:10:00 5.3 C 77 % 1.6 C
1300 11-03-2019 12:15:00 5.4 C 77 % 1.7 C
Sensor: Nr:Datum:Temp:Feuchte:Taupunkt:
Aussen-T/F 1301 11-03-2019 12:20:00 5.5 C 76 % 1.62 C
1302 11-03-2019 12:25:00 5.6 C 77 % 1.89 C
1303 11-03-2019 12:30:00 5.6 C 76 % 1.71 C
1304 11-03-2019 12:35:00 5.7 C 76 % 1.81 C
1305 11-03-2019 12:40:00 5.8 C 75 % 1.72 C
1306 11-03-2019 12:45:00 5.8 C 75 % 1.72 C
1307 11-03-2019 12:50:00 5.9 C 76 % 2 C
1308 11-03-2019 12:55:00 6.1 C 74 % 1.82 C
1309 11-03-2019 13:00:00 6.1 C 73 % 1.63 C
1310 11-03-2019 13:05:00 6.1 C 73 % 1.63 C
1311 11-03-2019 13:10:00 6.1 C 72 % 1.44 C
1312 11-03-2019 13:15:00 6.1 C 73 % 1.63 C
1313 11-03-2019 13:20:00 6.1 C 73 % 1.63 C
1314 11-03-2019 13:25:00 6.3 C 72 % 1.63 C
1315 11-03-2019 13:30:00 6.3 C 72 % 1.63 C
1316 11-03-2019 13:35:00 6.7 C 73 % 2.21 C
1317 11-03-2019 13:40:00 7.2 C 71 % 2.3 C
1318 11-03-2019 13:45:00 7.5 C 70 % 2.39 C
1319 11-03-2019 13:50:00 7.4 C 69 % 2.1 C
1320 11-03-2019 13:55:00 7 C 71 % 2.11 C
1321 11-03-2019 14:00:00 6.8 C 72 % 2.12 C
1322 11-03-2019 14:05:00 6.6 C 71 % 1.73 C
1323 11-03-2019 14:10:00 6.7 C 73 % 2.21 C
1324 11-03-2019 14:15:00 6.8 C 72 % 2.12 C
1325 11-03-2019 14:20:00 6.8 C 72 % 2.12 C
Sensor: Nr:Datum:Temp:Feuchte:Taupunkt:
Aussen-T/F 1326 11-03-2019 14:25:00 6.9 C 71 % 2.02 C
1327 11-03-2019 14:30:00 7.1 C 71 % 2.21 C
1328 11-03-2019 14:35:00 7.2 C 71 % 2.3 C
1329 11-03-2019 14:40:00 7.4 C 67 % 1.69 C
1330 11-03-2019 14:45:00 7.4 C 67 % 1.69 C
1331 11-03-2019 14:50:00 7.4 C 68 % 1.89 C
1332 11-03-2019 14:55:00 7.4 C 67 % 1.69 C
1333 11-03-2019 15:00:00 7.4 C 67 % 1.69 C
1334 11-03-2019 15:05:00 7.4 C 67 % 1.69 C
1335 11-03-2019 15:10:00 7.5 C 67 % 1.78 C
1336 11-03-2019 15:15:00 7.6 C 67 % 1.88 C
1337 11-03-2019 15:20:00 7.5 C 66 % 1.57 C
1338 11-03-2019 15:25:00 7.6 C 67 % 1.88 C
1339 11-03-2019 15:30:00 7.8 C 67 % 2.07 C
1340 11-03-2019 15:35:00 7.9 C 66 % 1.95 C
1341 11-03-2019 15:40:00 7.8 C 66 % 1.86 C
1342 11-03-2019 15:45:00 7.7 C 67 % 1.97 C
1343 11-03-2019 15:50:00 7.7 C 67 % 1.97 C
1344 11-03-2019 15:55:00 7.7 C 67 % 1.97 C
1345 11-03-2019 16:00:00 7.5 C 67 % 1.78 C
1346 11-03-2019 16:05:00 7.3 C 68 % 1.8 C
1347 11-03-2019 16:10:00 7.3 C 68 % 1.8 C
1348 11-03-2019 16:15:00 7.2 C 68 % 1.7 C
1349 11-03-2019 16:20:00 7.2 C 68 % 1.7 C
1350 11-03-2019 16:25:00 7.2 C 68 % 1.7 C
Sensor: Nr:Datum:Temp:Feuchte:Taupunkt:
Aussen-T/F 1351 11-03-2019 16:30:00 7.3 C 68 % 1.8 C
1352 11-03-2019 16:35:00 7.3 C 69 % 2 C
1353 11-03-2019 16:40:00 7.3 C 68 % 1.8 C
1354 11-03-2019 16:45:00 7.2 C 68 % 1.7 C
1355 11-03-2019 16:50:00 7.2 C 68 % 1.7 C
1356 11-03-2019 16:55:00 7.2 C 71 % 2.3 C
1357 11-03-2019 17:00:00 7 C 71 % 2.11 C
1358 11-03-2019 17:05:00 6.7 C 72 % 2.02 C
1359 11-03-2019 17:10:00 6.6 C 73 % 2.12 C
1360 11-03-2019 17:15:00 6.4 C 73 % 1.92 C
1361 11-03-2019 17:20:00 6.6 C 75 % 2.49 C
1362 11-03-2019 17:25:00 7 C 74 % 2.69 C
1363 11-03-2019 17:30:00 7.3 C 70 % 2.2 C
1364 11-03-2019 17:35:00 7.6 C 68 % 2.08 C
1365 11-03-2019 17:40:00 7.7 C 66 % 1.76 C
1366 11-03-2019 17:45:00 7.7 C 67 % 1.97 C
1367 11-03-2019 17:50:00 7.7 C 67 % 1.97 C
1368 11-03-2019 17:55:00 7.8 C 66 % 1.86 C
1369 11-03-2019 18:00:00 7.8 C 66 % 1.86 C
1370 11-03-2019 18:05:00 7.7 C 65 % 1.55 C
1371 11-03-2019 18:10:00 7.7 C 66 % 1.76 C
1372 11-03-2019 18:15:00 7.4 C 66 % 1.48 C
1373 11-03-2019 18:20:00 7.1 C 67 % 1.4 C
1374 11-03-2019 18:25:00 6.9 C 68 % 1.41 C
1375 11-03-2019 18:30:00 6.7 C 70 % 1.63 C
Sensor: Nr:Datum:Temp:Feuchte:Taupunkt:
Aussen-T/F 1376 11-03-2019 18:35:00 6.6 C 70 % 1.53 C
1377 11-03-2019 18:40:00 6.4 C 71 % 1.54 C
1378 11-03-2019 18:45:00 6.4 C 72 % 1.73 C
1379 11-03-2019 18:50:00 6.3 C 71 % 1.44 C
1380 11-03-2019 18:55:00 6.2 C 72 % 1.54 C
1381 11-03-2019 19:00:00 6.1 C 72 % 1.44 C
1382 11-03-2019 19:05:00 5.9 C 72 % 1.25 C
1383 11-03-2019 19:10:00 5.9 C 72 % 1.25 C
1384 11-03-2019 19:15:00 5.8 C 73 % 1.34 C
1385 11-03-2019 19:20:00 5.8 C 73 % 1.34 C
1386 11-03-2019 19:25:00 5.8 C 73 % 1.34 C
1387 11-03-2019 19:30:00 5.8 C 73 % 1.34 C
1388 11-03-2019 19:35:00 5.8 C 73 % 1.34 C
1389 11-03-2019 19:40:00 5.8 C 72 % 1.15 C
1390 11-03-2019 19:45:00 5.8 C 73 % 1.34 C
1391 11-03-2019 19:50:00 5.8 C 73 % 1.34 C
1392 11-03-2019 19:55:00 5.7 C 73 % 1.25 C
1393 11-03-2019 20:00:00 5.7 C 73 % 1.25 C
1394 11-03-2019 20:05:00 5.7 C 73 % 1.25 C
1395 11-03-2019 20:10:00 5.7 C 73 % 1.25 C
1396 11-03-2019 20:15:00 5.8 C 73 % 1.34 C
1397 11-03-2019 20:20:00 5.7 C 73 % 1.25 C
1398 11-03-2019 20:25:00 5.7 C 73 % 1.25 C
1399 11-03-2019 20:30:00 5.7 C 73 % 1.25 C
1400 11-03-2019 20:35:00 5.7 C 74 % 1.44 C
Sensor: Nr:Datum:Temp:Feuchte:Taupunkt:
Aussen-T/F 1401 11-03-2019 20:40:00 5.7 C 74 % 1.44 C
1402 11-03-2019 20:45:00 5.6 C 74 % 1.34 C
1403 11-03-2019 20:50:00 5.6 C 74 % 1.34 C
1404 11-03-2019 20:55:00 5.6 C 75 % 1.53 C
1405 11-03-2019 21:00:00 5.5 C 75 % 1.43 C
1406 11-03-2019 21:05:00 5.4 C 75 % 1.33 C
1407 11-03-2019 21:10:00 5.3 C 76 % 1.42 C
1408 11-03-2019 21:15:00 5.2 C 76 % 1.32 C
1409 11-03-2019 21:20:00 5.2 C 76 % 1.32 C
1410 11-03-2019 21:25:00 5.2 C 76 % 1.32 C
1411 11-03-2019 21:30:00 5.2 C 75 % 1.14 C
1412 11-03-2019 21:35:00 5.2 C 75 % 1.14 C
1413 11-03-2019 21:40:00 5.2 C 74 % 0.95 C
1414 11-03-2019 21:45:00 5.3 C 74 % 1.05 C
1415 11-03-2019 21:50:00 5.3 C 74 % 1.05 C
1416 11-03-2019 21:55:00 5.4 C 74 % 1.15 C
1417 11-03-2019 22:00:00 5.4 C 74 % 1.15 C
1418 11-03-2019 22:05:00 5.5 C 74 % 1.24 C
1419 11-03-2019 22:10:00 5.5 C 74 % 1.24 C
1420 11-03-2019 22:15:00 5.5 C 74 % 1.24 C
1421 11-03-2019 22:20:00 5.5 C 74 % 1.24 C
1422 11-03-2019 22:25:00 5.4 C 74 % 1.15 C
1423 11-03-2019 22:30:00 5.3 C 74 % 1.05 C
1424 11-03-2019 22:35:00 5.3 C 75 % 1.24 C
1425 11-03-2019 22:40:00 5.2 C 75 % 1.14 C
Sensor: Nr:Datum:Temp:Feuchte:Taupunkt:
Aussen-T/F 1426 11-03-2019 22:45:00 5.2 C 75 % 1.14 C
1427 11-03-2019 22:50:00 5.2 C 75 % 1.14 C
1428 11-03-2019 22:55:00 5.1 C 75 % 1.04 C
1429 11-03-2019 23:00:00 5.1 C 75 % 1.04 C
1430 11-03-2019 23:05:00 5 C 75 % 0.95 C
1431 11-03-2019 23:10:00 4.9 C 75 % 0.85 C
1432 11-03-2019 23:15:00 4.9 C 75 % 0.85 C
1433 11-03-2019 23:20:00 4.8 C 75 % 0.75 C
1434 11-03-2019 23:25:00 4.8 C 76 % 0.94 C
1435 11-03-2019 23:30:00 4.8 C 76 % 0.94 C
1436 11-03-2019 23:35:00 4.7 C 76 % 0.84 C
1437 11-03-2019 23:40:00 4.6 C 77 % 0.92 C
1438 11-03-2019 23:45:00 4.5 C 77 % 0.83 C
1439 11-03-2019 23:50:00 4.5 C 77 % 0.83 C
1440 11-03-2019 23:55:00 4.4 C 78 % 0.91 C
1441 12-03-2019 00:00:00 4.5 C 78 % 1.01 C
1442 12-03-2019 00:05:00 4.4 C 78 % 0.91 C
1443 12-03-2019 00:10:00 4.4 C 79 % 1.09 C
1444 12-03-2019 00:15:00 4.4 C 79 % 1.09 C
1445 12-03-2019 00:20:00 4.3 C 79 % 0.99 C
1446 12-03-2019 00:25:00 4.3 C 80 % 1.16 C
1447 12-03-2019 00:30:00 4.2 C 80 % 1.07 C
1448 12-03-2019 00:35:00 4.1 C 81 % 1.14 C
1449 12-03-2019 00:40:00 4 C 81 % 1.04 C
1450 12-03-2019 00:45:00 3.9 C 82 % 1.12 C
Sensor: Nr:Datum:Temp:Feuchte:Taupunkt:
Aussen-T/F 1451 12-03-2019 00:50:00 3.9 C 82 % 1.12 C
1452 12-03-2019 00:55:00 3.9 C 82 % 1.12 C
1453 12-03-2019 01:00:00 3.8 C 82 % 1.02 C
1454 12-03-2019 01:05:00 3.7 C 83 % 1.09 C
1455 12-03-2019 01:10:00 3.6 C 82 % 0.82 C
1456 12-03-2019 01:15:00 3.4 C 83 % 0.79 C
1457 12-03-2019 01:20:00 3.3 C 84 % 0.86 C
1458 12-03-2019 01:25:00 3.2 C 84 % 0.76 C
1459 12-03-2019 01:30:00 3.1 C 85 % 0.83 C
1460 12-03-2019 01:35:00 3.1 C 85 % 0.83 C
1461 12-03-2019 01:40:00 3.1 C 85 % 0.83 C
1462 12-03-2019 01:45:00 2.9 C 85 % 0.63 C
1463 12-03-2019 01:50:00 2.8 C 85 % 0.54 C
1464 12-03-2019 01:55:00 2.7 C 86 % 0.6 C
1465 12-03-2019 02:00:00 2.7 C 86 % 0.6 C
1466 12-03-2019 02:05:00 2.6 C 86 % 0.5 C
1467 12-03-2019 02:10:00 2.4 C 86 % 0.3 C
1468 12-03-2019 02:15:00 2.3 C 86 % 0.21 C
1469 12-03-2019 02:20:00 2.2 C 86 % 0.11 C
1470 12-03-2019 02:25:00 2.1 C 87 % 0.17 C
1471 12-03-2019 02:30:00 2 C 87 % 0.07 C
1472 12-03-2019 02:35:00 1.9 C 88 % 0.13 C
1473 12-03-2019 02:40:00 1.9 C 88 % 0.13 C
1474 12-03-2019 02:45:00 1.9 C 88 % 0.13 C
1475 12-03-2019 02:50:00 2 C 88 % 0.23 C
Sensor: Nr:Datum:Temp:Feuchte:Taupunkt:
Aussen-T/F 1476 12-03-2019 02:55:00 1.9 C 88 % 0.13 C
1477 12-03-2019 03:00:00 1.9 C 88 % 0.13 C
1478 12-03-2019 03:05:00 1.8 C 88 % 0.03 C
1479 12-03-2019 03:10:00 1.7 C 89 % 0.09 C
1480 12-03-2019 03:15:00 1.7 C 88 % -0.07 C
1481 12-03-2019 03:20:00 1.7 C 89 % 0.09 C
1482 12-03-2019 03:25:00 1.7 C 89 % 0.09 C
1483 12-03-2019 03:30:00 1.6 C 89 % -0.01 C
1484 12-03-2019 03:35:00 1.6 C 89 % -0.01 C
1485 12-03-2019 03:40:00 1.5 C 89 % -0.11 C
1486 12-03-2019 03:45:00 1.6 C 89 % -0.01 C
1487 12-03-2019 03:50:00 1.6 C 89 % -0.01 C
1488 12-03-2019 03:55:00 1.5 C 89 % -0.11 C
1489 12-03-2019 04:00:00 1.5 C 89 % -0.11 C
1490 12-03-2019 04:05:00 1.4 C 89 % -0.21 C
1491 12-03-2019 04:10:00 1.4 C 89 % -0.21 C
1492 12-03-2019 04:15:00 1.4 C 89 % -0.21 C
1493 12-03-2019 04:20:00 1.4 C 90 % -0.06 C
1494 12-03-2019 04:25:00 1.4 C 89 % -0.21 C
1495 12-03-2019 04:30:00 1.3 C 89 % -0.31 C
1496 12-03-2019 04:35:00 1.3 C 90 % -0.15 C
1497 12-03-2019 04:40:00 1.2 C 89 % -0.41 C
1498 12-03-2019 04:45:00 1.2 C 90 % -0.25 C
1499 12-03-2019 04:50:00 1.2 C 90 % -0.25 C
1500 12-03-2019 04:55:00 1.3 C 90 % -0.15 C
Sensor: Nr:Datum:Temp:Feuchte:Taupunkt:
Aussen-T/F 1501 12-03-2019 05:00:00 1.3 C 90 % -0.15 C
1502 12-03-2019 05:05:00 1.3 C 90 % -0.15 C
1503 12-03-2019 05:10:00 1.4 C 90 % -0.06 C
1504 12-03-2019 05:15:00 1.5 C 90 % 0.04 C
1505 12-03-2019 05:20:00 1.6 C 90 % 0.14 C
1506 12-03-2019 05:25:00 1.7 C 90 % 0.24 C
1507 12-03-2019 05:30:00 1.7 C 90 % 0.24 C
1508 12-03-2019 05:35:00 1.7 C 90 % 0.24 C
1509 12-03-2019 05:40:00 1.8 C 90 % 0.34 C
1510 12-03-2019 05:45:00 1.8 C 90 % 0.34 C
1511 12-03-2019 05:50:00 1.8 C 90 % 0.34 C
1512 12-03-2019 05:55:00 1.9 C 90 % 0.44 C
1513 12-03-2019 06:00:00 1.9 C 90 % 0.44 C
1514 12-03-2019 06:05:00 1.9 C 90 % 0.44 C
1515 12-03-2019 06:10:00 1.9 C 90 % 0.44 C
1516 12-03-2019 06:15:00 1.9 C 89 % 0.28 C
1517 12-03-2019 06:20:00 1.8 C 89 % 0.19 C
1518 12-03-2019 06:25:00 1.8 C 89 % 0.19 C
1519 12-03-2019 06:30:00 1.8 C 89 % 0.19 C
1520 12-03-2019 06:35:00 1.7 C 89 % 0.09 C
1521 12-03-2019 06:40:00 1.7 C 90 % 0.24 C
1522 12-03-2019 06:45:00 1.6 C 90 % 0.14 C
1523 12-03-2019 06:50:00 1.6 C 90 % 0.14 C
1524 12-03-2019 06:55:00 1.6 C 90 % 0.14 C
1525 12-03-2019 07:00:00 1.7 C 90 % 0.24 C
Sensor: Nr:Datum:Temp:Feuchte:Taupunkt:
Aussen-T/F 1526 12-03-2019 07:05:00 1.7 C 91 % 0.39 C
1527 12-03-2019 07:10:00 1.7 C 91 % 0.39 C
1528 12-03-2019 07:15:00 1.8 C 90 % 0.34 C
1529 12-03-2019 07:20:00 1.8 C 90 % 0.34 C
1530 12-03-2019 07:25:00 1.8 C 91 % 0.49 C
1531 12-03-2019 07:30:00 1.8 C 91 % 0.49 C
1532 12-03-2019 07:35:00 1.9 C 91 % 0.59 C
1533 12-03-2019 07:40:00 2.1 C 91 % 0.79 C
1534 12-03-2019 07:45:00 2.2 C 91 % 0.89 C
1535 12-03-2019 07:50:00 2.3 C 91 % 0.99 C
1536 12-03-2019 07:55:00 2.4 C 91 % 1.08 C
1537 12-03-2019 08:00:00 2.6 C 91 % 1.28 C
1538 12-03-2019 08:05:00 2.7 C 90 % 1.23 C
1539 12-03-2019 08:10:00 2.7 C 90 % 1.23 C
1540 12-03-2019 08:15:00 2.8 C 90 % 1.33 C
1541 12-03-2019 08:20:00 2.9 C 90 % 1.43 C
1542 12-03-2019 08:25:00 3.1 C 90 % 1.62 C
1543 12-03-2019 08:30:00 3.2 C 90 % 1.72 C
1544 12-03-2019 08:35:00 3.4 C 89 % 1.76 C
1545 12-03-2019 08:40:00 3.6 C 88 % 1.8 C
1546 12-03-2019 08:45:00 3.8 C 87 % 1.84 C
1547 12-03-2019 08:50:00 4 C 86 % 1.88 C
1548 12-03-2019 08:55:00 4.2 C 86 % 2.07 C
1549 12-03-2019 09:00:00 4.4 C 85 % 2.11 C
1550 12-03-2019 09:05:00 4.6 C 85 % 2.3 C
Sensor: Nr:Datum:Temp:Feuchte:Taupunkt:
Aussen-T/F 1551 12-03-2019 09:10:00 4.7 C 84 % 2.23 C
1552 12-03-2019 09:15:00 4.8 C 84 % 2.33 C
1553 12-03-2019 09:20:00 4.9 C 84 % 2.43 C
1554 12-03-2019 09:25:00 5.1 C 83 % 2.46 C
1555 12-03-2019 09:30:00 5.2 C 83 % 2.56 C
1556 12-03-2019 09:35:00 5.3 C 82 % 2.48 C
1557 12-03-2019 09:40:00 5.6 C 81 % 2.6 C
1558 12-03-2019 09:45:00 5.7 C 81 % 2.7 C
1559 12-03-2019 09:50:00 6 C 79 % 2.64 C
1560 12-03-2019 09:55:00 6.2 C 79 % 2.84 C
1561 12-03-2019 10:00:00 6.4 C 77 % 2.67 C
1562 12-03-2019 10:05:00 6.7 C 76 % 2.78 C
1563 12-03-2019 10:10:00 6.9 C 76 % 2.97 C
1564 12-03-2019 10:15:00 7.2 C 75 % 3.07 C
1565 12-03-2019 10:20:00 7.3 C 74 % 2.98 C
1566 12-03-2019 10:25:00 7.4 C 73 % 2.89 C
1567 12-03-2019 10:30:00 7.4 C 72 % 2.69 C
1568 12-03-2019 10:35:00 7.6 C 71 % 2.69 C
1569 12-03-2019 10:40:00 7.7 C 69 % 2.38 C
1570 12-03-2019 10:45:00 7.9 C 69 % 2.57 C
1571 12-03-2019 10:50:00 8.1 C 69 % 2.77 C
1572 12-03-2019 10:55:00 8.2 C 67 % 2.45 C
1573 12-03-2019 11:00:00 8.2 C 66 % 2.24 C
1574 12-03-2019 11:05:00 8.2 C 66 % 2.24 C
1575 12-03-2019 11:10:00 8.3 C 66 % 2.33 C
Sensor: Nr:Datum:Temp:Feuchte:Taupunkt:
Aussen-T/F 1576 12-03-2019 11:15:00 8.4 C 65 % 2.21 C
1577 12-03-2019 11:20:00 8.6 C 65 % 2.4 C
1578 12-03-2019 11:25:00 8.8 C 64 % 2.38 C
1579 12-03-2019 11:30:00 9 C 63 % 2.35 C
1580 12-03-2019 11:35:00 9.1 C 63 % 2.44 C
1581 12-03-2019 11:40:00 9.2 C 61 % 2.08 C
1582 12-03-2019 11:45:00 9.2 C 61 % 2.08 C
1583 12-03-2019 11:50:00 9.2 C 62 % 2.31 C
1584 12-03-2019 11:55:00 9.2 C 61 % 2.08 C
1585 12-03-2019 12:00:00 9.2 C 61 % 2.08 C
1586 12-03-2019 12:05:00 9.2 C 63 % 2.53 C
1587 12-03-2019 12:10:00 9.2 C 62 % 2.31 C
1588 12-03-2019 12:15:00 9.2 C 62 % 2.31 C
1589 12-03-2019 12:20:00 9.2 C 61 % 2.08 C
1590 12-03-2019 12:25:00 9.3 C 62 % 2.4 C
1591 12-03-2019 12:30:00 9.4 C 60 % 2.04 C
1592 12-03-2019 12:35:00 9.5 C 61 % 2.37 C
1593 12-03-2019 12:40:00 9.6 C 60 % 2.23 C
1594 12-03-2019 12:45:00 9.7 C 61 % 2.55 C
1595 12-03-2019 12:50:00 9.7 C 61 % 2.55 C
1596 12-03-2019 12:55:00 9.7 C 60 % 2.32 C
1597 12-03-2019 13:00:00 9.7 C 60 % 2.32 C
1598 12-03-2019 13:05:00 9.6 C 60 % 2.23 C
1599 12-03-2019 13:10:00 9.6 C 60 % 2.23 C
1600 12-03-2019 13:15:00 9.6 C 59 % 1.99 C
Sensor: Nr:Datum:Temp:Feuchte:Taupunkt:
Aussen-T/F 1601 12-03-2019 13:20:00 9.7 C 61 % 2.55 C
1602 12-03-2019 13:25:00 9.7 C 59 % 2.09 C
1603 12-03-2019 13:30:00 9.8 C 60 % 2.42 C
1604 12-03-2019 13:35:00 9.9 C 60 % 2.51 C
1605 12-03-2019 13:40:00 9.9 C 58 % 2.04 C
1606 12-03-2019 13:45:00 9.8 C 59 % 2.18 C
1607 12-03-2019 13:50:00 9.8 C 58 % 1.94 C
1608 12-03-2019 13:55:00 9.8 C 59 % 2.18 C
1609 12-03-2019 14:00:00 9.8 C 59 % 2.18 C
1610 12-03-2019 14:05:00 9.9 C 59 % 2.27 C
1611 12-03-2019 14:10:00 10.1 C 60 % 2.7 C
1612 12-03-2019 14:15:00 10.1 C 59 % 2.46 C
1613 12-03-2019 14:20:00 10.1 C 58 % 2.22 C
1614 12-03-2019 14:25:00 10.2 C 57 % 2.07 C
1615 12-03-2019 14:30:00 10.2 C 56 % 1.83 C
1616 12-03-2019 14:35:00 10.2 C 57 % 2.07 C
1617 12-03-2019 14:40:00 10.3 C 58 % 2.41 C
1618 12-03-2019 14:45:00 10.3 C 56 % 1.92 C
1619 12-03-2019 14:50:00 10.4 C 57 % 2.26 C
1620 12-03-2019 14:55:00 10.6 C 56 % 2.2 C
1621 12-03-2019 15:00:00 10.8 C 55 % 2.13 C
1622 12-03-2019 15:05:00 10.8 C 55 % 2.13 C
1623 12-03-2019 15:10:00 10.8 C 55 % 2.13 C
1624 12-03-2019 15:15:00 10.8 C 54 % 1.88 C
1625 12-03-2019 15:20:00 10.6 C 53 % 1.43 C
Sensor: Nr:Datum:Temp:Feuchte:Taupunkt:
Aussen-T/F 1626 12-03-2019 15:25:00 10.6 C 54 % 1.69 C
1627 12-03-2019 15:30:00 10.4 C 54 % 1.51 C
1628 12-03-2019 15:35:00 10.4 C 53 % 1.25 C
1629 12-03-2019 15:40:00 10.3 C 53 % 1.15 C
1630 12-03-2019 15:45:00 10.3 C 54 % 1.41 C
1631 12-03-2019 15:50:00 10.4 C 53 % 1.25 C
1632 12-03-2019 15:55:00 10.6 C 55 % 1.95 C
1633 12-03-2019 16:00:00 10.6 C 54 % 1.69 C
1634 12-03-2019 16:05:00 10.6 C 52 % 1.17 C
1635 12-03-2019 16:10:00 10.6 C 52 % 1.17 C
1636 12-03-2019 16:15:00 10.6 C 49 % 0.35 C
1637 12-03-2019 16:20:00 10.5 C 52 % 1.07 C
1638 12-03-2019 16:25:00 10.4 C 49 % 0.16 C
1639 12-03-2019 16:30:00 10.3 C 48 % -0.21 C
1640 12-03-2019 16:35:00 10.2 C 49 % -0.02 C
1641 12-03-2019 16:40:00 10.2 C 50 % 0.26 C
1642 12-03-2019 16:45:00 10.1 C 50 % 0.16 C
1643 12-03-2019 16:50:00 10 C 49 % -0.21 C
1644 12-03-2019 16:55:00 9.9 C 49 % -0.3 C
1645 12-03-2019 17:00:00 9.9 C 52 % 0.52 C
1646 12-03-2019 17:05:00 9.8 C 52 % 0.43 C
1647 12-03-2019 17:10:00 9.8 C 51 % 0.16 C
1648 12-03-2019 17:15:00 9.7 C 51 % 0.07 C
1649 12-03-2019 17:20:00 9.6 C 54 % 0.76 C
1650 12-03-2019 17:25:00 9.5 C 53 % 0.41 C
Sensor: Nr:Datum:Temp:Feuchte:Taupunkt:
Aussen-T/F 1651 12-03-2019 17:30:00 9.3 C 59 % 1.71 C
1652 12-03-2019 17:35:00 9.2 C 56 % 0.89 C
1653 12-03-2019 17:40:00 9 C 57 % 0.95 C
1654 12-03-2019 17:45:00 8.9 C 58 % 1.1 C
1655 12-03-2019 17:50:00 8.8 C 61 % 1.71 C
1656 12-03-2019 17:55:00 8.6 C 62 % 1.74 C
1657 12-03-2019 18:00:00 8.4 C 62 % 1.55 C
1658 12-03-2019 18:05:00 8.3 C 62 % 1.46 C
1659 12-03-2019 18:10:00 8.2 C 61 % 1.14 C
1660 12-03-2019 18:15:00 8.1 C 62 % 1.27 C
1661 12-03-2019 18:20:00 8 C 63 % 1.4 C
1662 12-03-2019 18:25:00 7.9 C 61 % 0.86 C
1663 12-03-2019 18:30:00 7.9 C 62 % 1.08 C
1664 12-03-2019 18:35:00 7.9 C 63 % 1.3 C
1665 12-03-2019 18:40:00 8 C 58 % 0.25 C
1666 12-03-2019 18:45:00 8.1 C 59 % 0.58 C
1667 12-03-2019 18:50:00 8.2 C 62 % 1.37 C
1668 12-03-2019 18:55:00 8.2 C 60 % 0.91 C
1669 12-03-2019 19:00:00 8.4 C 56 % 0.15 C
1670 12-03-2019 19:05:00 8.5 C 59 % 0.96 C
1671 12-03-2019 19:10:00 8.5 C 54 % -0.26 C
1672 12-03-2019 19:15:00 8.6 C 59 % 1.05 C
1673 12-03-2019 19:20:00 8.6 C 52 % -0.68 C
1674 12-03-2019 19:25:00 8.8 C 55 % 0.27 C
1675 12-03-2019 19:30:00 8.8 C 58 % 1 C
Sensor: Nr:Datum:Temp:Feuchte:Taupunkt:
Aussen-T/F 1676 12-03-2019 19:35:00 8.9 C 51 % -0.67 C
1677 12-03-2019 19:40:00 9.1 C 52 % -0.22 C
1678 12-03-2019 19:45:00 8.9 C 53 % -0.15 C
1679 12-03-2019 19:50:00 8.8 C 52 % -0.5 C
1680 12-03-2019 19:55:00 8.8 C 49 % -1.31 C
1681 12-03-2019 20:00:00 8.8 C 48 % -1.59 C
1682 12-03-2019 20:05:00 9 C 46 % -1.98 C
1683 12-03-2019 20:10:00 9.3 C 46 % -1.71 C
1684 12-03-2019 20:15:00 9.4 C 46 % -1.62 C
1685 12-03-2019 20:20:00 9.4 C 50 % -0.48 C
1686 12-03-2019 20:25:00 9.4 C 45 % -1.91 C
1687 12-03-2019 20:30:00 9.4 C 46 % -1.62 C
1688 12-03-2019 20:35:00 9.5 C 46 % -1.53 C
1689 12-03-2019 20:40:00 9.6 C 46 % -1.43 C
1690 12-03-2019 20:45:00 9.7 C 47 % -1.05 C
1691 12-03-2019 20:50:00 9.8 C 46 % -1.25 C
1692 12-03-2019 20:55:00 9.8 C 46 % -1.25 C
1693 12-03-2019 21:00:00 10 C 45 % -1.37 C
1694 12-03-2019 21:05:00 10.2 C 46 % -0.89 C
1695 12-03-2019 21:10:00 10.3 C 46 % -0.8 C
1696 12-03-2019 21:15:00 10.4 C 46 % -0.7 C
1697 12-03-2019 21:20:00 10.6 C 45 % -0.82 C
1698 12-03-2019 21:25:00 10.8 C 44 % -0.95 C
1699 12-03-2019 21:30:00 11 C 45 % -0.46 C
1700 12-03-2019 21:35:00 11.1 C 45 % -0.37 C
Sensor: Nr:Datum:Temp:Feuchte:Taupunkt:
Aussen-T/F 1701 12-03-2019 21:40:00 11 C 46 % -0.16 C
1702 12-03-2019 21:45:00 11.1 C 46 % -0.07 C
1703 12-03-2019 21:50:00 11.2 C 47 % 0.32 C
1704 12-03-2019 21:55:00 11.2 C 47 % 0.32 C
1705 12-03-2019 22:00:00 11.3 C 49 % 0.99 C
1706 12-03-2019 22:05:00 11.3 C 49 % 0.99 C
1707 12-03-2019 22:10:00 11.3 C 50 % 1.27 C
1708 12-03-2019 22:15:00 11.3 C 51 % 1.54 C
1709 12-03-2019 22:20:00 11.3 C 51 % 1.54 C
1710 12-03-2019 22:25:00 11.3 C 52 % 1.81 C
1711 12-03-2019 22:30:00 11.3 C 53 % 2.08 C
1712 12-03-2019 22:35:00 11.2 C 54 % 2.25 C
1713 12-03-2019 22:40:00 11.2 C 54 % 2.25 C
1714 12-03-2019 22:45:00 11.1 C 57 % 2.92 C
1715 12-03-2019 22:50:00 10.8 C 62 % 3.82 C
1716 12-03-2019 22:55:00 10.3 C 65 % 4.02 C
1717 12-03-2019 23:00:00 9.9 C 69 % 4.49 C
1718 12-03-2019 23:05:00 9.6 C 71 % 4.61 C
1719 12-03-2019 23:10:00 9.3 C 73 % 4.72 C
1720 12-03-2019 23:15:00 9.1 C 74 % 4.72 C
1721 12-03-2019 23:20:00 8.9 C 76 % 4.91 C
1722 12-03-2019 23:25:00 8.8 C 76 % 4.81 C
1723 12-03-2019 23:30:00 8.7 C 78 % 5.08 C
1724 12-03-2019 23:35:00 8.5 C 79 % 5.07 C
1725 12-03-2019 23:40:00 8 C 79 % 4.59 C
Sensor: Nr:Datum:Temp:Feuchte:Taupunkt:
Aussen-T/F 1726 12-03-2019 23:45:00 7.5 C 80 % 4.28 C
1727 12-03-2019 23:50:00 7.2 C 82 % 4.34 C
1728 12-03-2019 23:55:00 6.9 C 83 % 4.22 C
1729 13-03-2019 00:00:00 6.8 C 83 % 4.12 C
1730 13-03-2019 00:05:00 6.8 C 83 % 4.12 C
1731 13-03-2019 00:10:00 6.8 C 82 % 3.95 C
1732 13-03-2019 00:15:00 6.7 C 80 % 3.5 C
1733 13-03-2019 00:20:00 6.6 C 80 % 3.4 C
1734 13-03-2019 00:25:00 6.6 C 80 % 3.4 C
1735 13-03-2019 00:30:00 6.4 C 80 % 3.21 C
1736 13-03-2019 00:35:00 6.4 C 80 % 3.21 C
1737 13-03-2019 00:40:00 6.3 C 80 % 3.11 C
1738 13-03-2019 00:45:00 6.3 C 79 % 2.93 C
1739 13-03-2019 00:50:00 6.4 C 80 % 3.21 C
1740 13-03-2019 00:55:00 6.3 C 80 % 3.11 C
1741 13-03-2019 01:00:00 6.2 C 79 % 2.84 C
1742 13-03-2019 01:05:00 6.2 C 79 % 2.84 C
1743 13-03-2019 01:10:00 6.1 C 79 % 2.74 C
1744 13-03-2019 01:15:00 5.9 C 79 % 2.54 C
1745 13-03-2019 01:20:00 5.8 C 79 % 2.45 C
1746 13-03-2019 01:25:00 5.7 C 80 % 2.53 C
1747 13-03-2019 01:30:00 5.6 C 80 % 2.43 C
1748 13-03-2019 01:35:00 5.6 C 80 % 2.43 C
1749 13-03-2019 01:40:00 5.4 C 80 % 2.23 C
1750 13-03-2019 01:45:00 5.4 C 80 % 2.23 C
Sensor: Nr:Datum:Temp:Feuchte:Taupunkt:
Aussen-T/F 1751 13-03-2019 01:50:00 5.5 C 79 % 2.16 C
1752 13-03-2019 01:55:00 5.5 C 79 % 2.16 C
1753 13-03-2019 02:00:00 5.5 C 80 % 2.33 C
1754 13-03-2019 02:05:00 5.4 C 80 % 2.23 C
1755 13-03-2019 02:10:00 5.3 C 81 % 2.31 C
1756 13-03-2019 02:15:00 5.2 C 81 % 2.21 C
1757 13-03-2019 02:20:00 5.2 C 82 % 2.39 C
1758 13-03-2019 02:25:00 5.2 C 82 % 2.39 C
1759 13-03-2019 02:30:00 5.3 C 82 % 2.48 C
1760 13-03-2019 02:35:00 5.4 C 81 % 2.41 C
1761 13-03-2019 02:40:00 5.5 C 79 % 2.16 C
1762 13-03-2019 02:45:00 5.6 C 78 % 2.07 C
1763 13-03-2019 02:50:00 5.7 C 78 % 2.17 C
1764 13-03-2019 02:55:00 5.8 C 78 % 2.27 C
1765 13-03-2019 03:00:00 5.8 C 78 % 2.27 C
1766 13-03-2019 03:05:00 5.7 C 77 % 1.99 C
1767 13-03-2019 03:10:00 5.7 C 77 % 1.99 C
1768 13-03-2019 03:15:00 5.6 C 76 % 1.71 C
1769 13-03-2019 03:20:00 5.6 C 77 % 1.89 C
1770 13-03-2019 03:25:00 5.6 C 77 % 1.89 C
1771 13-03-2019 03:30:00 5.7 C 77 % 1.99 C
1772 13-03-2019 03:35:00 5.8 C 77 % 2.09 C
1773 13-03-2019 03:40:00 5.8 C 77 % 2.09 C
1774 13-03-2019 03:45:00 5.9 C 77 % 2.19 C
1775 13-03-2019 03:50:00 5.9 C 78 % 2.37 C
Sensor: Nr:Datum:Temp:Feuchte:Taupunkt:
Aussen-T/F 1776 13-03-2019 03:55:00 5.8 C 78 % 2.27 C
1777 13-03-2019 04:00:00 5.8 C 78 % 2.27 C
1778 13-03-2019 04:05:00 5.7 C 79 % 2.35 C
1779 13-03-2019 04:10:00 5.6 C 79 % 2.25 C
1780 13-03-2019 04:15:00 5.7 C 79 % 2.35 C
1781 13-03-2019 04:20:00 5.6 C 79 % 2.25 C
1782 13-03-2019 04:25:00 5.6 C 80 % 2.43 C
1783 13-03-2019 04:30:00 5.6 C 80 % 2.43 C
1784 13-03-2019 04:35:00 5.5 C 80 % 2.33 C
1785 13-03-2019 04:40:00 5.4 C 80 % 2.23 C
1786 13-03-2019 04:45:00 5.3 C 81 % 2.31 C
1787 13-03-2019 04:50:00 5.3 C 81 % 2.31 C
1788 13-03-2019 04:55:00 5.3 C 81 % 2.31 C
1789 13-03-2019 05:00:00 5.4 C 83 % 2.75 C
1790 13-03-2019 05:05:00 5.4 C 83 % 2.75 C
1791 13-03-2019 05:10:00 5.4 C 83 % 2.75 C
1792 13-03-2019 05:15:00 5.3 C 83 % 2.65 C
1793 13-03-2019 05:20:00 5.3 C 83 % 2.65 C
1794 13-03-2019 05:25:00 5.2 C 83 % 2.56 C
1795 13-03-2019 05:30:00 5.2 C 84 % 2.72 C
1796 13-03-2019 05:35:00 5.3 C 83 % 2.65 C
1797 13-03-2019 05:40:00 5.4 C 83 % 2.75 C
1798 13-03-2019 05:45:00 5.5 C 83 % 2.85 C
1799 13-03-2019 05:50:00 5.4 C 83 % 2.75 C
1800 13-03-2019 05:55:00 5.3 C 83 % 2.65 C
Sensor: Nr:Datum:Temp:Feuchte:Taupunkt:
Aussen-T/F 1801 13-03-2019 06:00:00 5.3 C 83 % 2.65 C
1802 13-03-2019 06:05:00 5.2 C 83 % 2.56 C
1803 13-03-2019 06:10:00 5.1 C 83 % 2.46 C
1804 13-03-2019 06:15:00 4.9 C 83 % 2.26 C
1805 13-03-2019 06:20:00 4.8 C 83 % 2.16 C
1806 13-03-2019 06:25:00 4.9 C 84 % 2.43 C
1807 13-03-2019 06:30:00 5.1 C 84 % 2.63 C
1808 13-03-2019 06:35:00 5.2 C 83 % 2.56 C
1809 13-03-2019 06:40:00 5.3 C 83 % 2.65 C
1810 13-03-2019 06:45:00 5.4 C 82 % 2.58 C
1811 13-03-2019 06:50:00 5.4 C 81 % 2.41 C
1812 13-03-2019 06:55:00 5.4 C 81 % 2.41 C
1813 13-03-2019 07:00:00 5.4 C 81 % 2.41 C
1814 13-03-2019 07:05:00 5.4 C 81 % 2.41 C
1815 13-03-2019 07:10:00 5.4 C 81 % 2.41 C
1816 13-03-2019 07:15:00 5.4 C 81 % 2.41 C
1817 13-03-2019 07:20:00 5.4 C 80 % 2.23 C
1818 13-03-2019 07:25:00 5.4 C 80 % 2.23 C
1819 13-03-2019 07:30:00 5.4 C 80 % 2.23 C
1820 13-03-2019 07:35:00 5.4 C 80 % 2.23 C
1821 13-03-2019 07:40:00 5.5 C 80 % 2.33 C
1822 13-03-2019 07:45:00 5.6 C 80 % 2.43 C
1823 13-03-2019 07:50:00 5.6 C 81 % 2.6 C
1824 13-03-2019 07:55:00 5.7 C 82 % 2.87 C
1825 13-03-2019 08:00:00 5.6 C 81 % 2.6 C
Sensor: Nr:Datum:Temp:Feuchte:Taupunkt:
Aussen-T/F 1826 13-03-2019 08:05:00 5.6 C 81 % 2.6 C
1827 13-03-2019 08:10:00 5.8 C 81 % 2.8 C
1828 13-03-2019 08:15:00 5.9 C 80 % 2.72 C
1829 13-03-2019 08:20:00 6.1 C 80 % 2.92 C
1830 13-03-2019 08:25:00 6.2 C 80 % 3.01 C
1831 13-03-2019 08:30:00 6.3 C 80 % 3.11 C
1832 13-03-2019 08:35:00 6.3 C 80 % 3.11 C
1833 13-03-2019 08:40:00 6.3 C 79 % 2.93 C
1834 13-03-2019 08:45:00 6.3 C 80 % 3.11 C
1835 13-03-2019 08:50:00 6.3 C 80 % 3.11 C
1836 13-03-2019 08:55:00 6.3 C 80 % 3.11 C
1837 13-03-2019 09:00:00 6.3 C 80 % 3.11 C
1838 13-03-2019 09:05:00 6.3 C 80 % 3.11 C
1839 13-03-2019 09:10:00 6.3 C 80 % 3.11 C
1840 13-03-2019 09:15:00 6.4 C 79 % 3.03 C
1841 13-03-2019 09:20:00 6.6 C 77 % 2.86 C
1842 13-03-2019 09:25:00 6.7 C 77 % 2.96 C
1843 13-03-2019 09:30:00 6.8 C 77 % 3.06 C
1844 13-03-2019 09:35:00 6.7 C 77 % 2.96 C
1845 13-03-2019 09:40:00 6.6 C 76 % 2.68 C
1846 13-03-2019 09:45:00 6.5 C 77 % 2.77 C
1847 13-03-2019 09:50:00 6.4 C 77 % 2.67 C
1848 13-03-2019 09:55:00 6.4 C 77 % 2.67 C
1849 13-03-2019 10:00:00 6.4 C 78 % 2.85 C
1850 13-03-2019 10:05:00 6.6 C 78 % 3.05 C
Sensor: Nr:Datum:Temp:Feuchte:Taupunkt:
Aussen-T/F 1851 13-03-2019 10:10:00 6.7 C 78 % 3.14 C
1852 13-03-2019 10:15:00 6.8 C 77 % 3.06 C
1853 13-03-2019 10:20:00 6.9 C 77 % 3.16 C
1854 13-03-2019 10:25:00 6.9 C 77 % 3.16 C
1855 13-03-2019 10:30:00 6.9 C 78 % 3.34 C
1856 13-03-2019 10:35:00 7.1 C 77 % 3.35 C
1857 13-03-2019 10:40:00 7.1 C 77 % 3.35 C
1858 13-03-2019 10:45:00 7.2 C 77 % 3.45 C
1859 13-03-2019 10:50:00 7.3 C 77 % 3.54 C
1860 13-03-2019 10:55:00 7.4 C 76 % 3.45 C
1861 13-03-2019 11:00:00 7.4 C 76 % 3.45 C
1862 13-03-2019 11:05:00 7.6 C 76 % 3.65 C
1863 13-03-2019 11:10:00 7.7 C 75 % 3.56 C
1864 13-03-2019 11:15:00 7.8 C 75 % 3.65 C
1865 13-03-2019 11:20:00 7.8 C 74 % 3.46 C
1866 13-03-2019 11:25:00 7.8 C 75 % 3.65 C
1867 13-03-2019 11:30:00 7.8 C 74 % 3.46 C
1868 13-03-2019 11:35:00 7.9 C 74 % 3.56 C
1869 13-03-2019 11:40:00 8.1 C 76 % 4.13 C
1870 13-03-2019 11:45:00 8.1 C 75 % 3.94 C
1871 13-03-2019 11:50:00 8 C 76 % 4.04 C
1872 13-03-2019 11:55:00 7.8 C 76 % 3.84 C
1873 13-03-2019 12:00:00 7.8 C 77 % 4.03 C
1874 13-03-2019 12:05:00 7.9 C 76 % 3.94 C
1875 13-03-2019 12:10:00 8 C 75 % 3.85 C
Sensor: Nr:Datum:Temp:Feuchte:Taupunkt:
Aussen-T/F 1876 13-03-2019 12:15:00 8.2 C 75 % 4.04 C
1877 13-03-2019 12:20:00 8.3 C 74 % 3.95 C
1878 13-03-2019 12:25:00 8.3 C 74 % 3.95 C
1879 13-03-2019 12:30:00 8.3 C 73 % 3.75 C
1880 13-03-2019 12:35:00 8.3 C 73 % 3.75 C
1881 13-03-2019 12:40:00 8.3 C 73 % 3.75 C
1882 13-03-2019 12:45:00 8.2 C 74 % 3.85 C
1883 13-03-2019 12:50:00 8.2 C 74 % 3.85 C
1884 13-03-2019 12:55:00 8.1 C 75 % 3.94 C
1885 13-03-2019 13:00:00 8.2 C 75 % 4.04 C
1886 13-03-2019 13:05:00 8.2 C 75 % 4.04 C
1887 13-03-2019 13:10:00 8.1 C 75 % 3.94 C
1888 13-03-2019 13:15:00 8.1 C 75 % 3.94 C
1889 13-03-2019 13:20:00 8.1 C 75 % 3.94 C
1890 13-03-2019 13:25:00 8 C 75 % 3.85 C
1891 13-03-2019 13:30:00 7.8 C 76 % 3.84 C
1892 13-03-2019 13:35:00 7.8 C 78 % 4.21 C
1893 13-03-2019 13:40:00 7.8 C 79 % 4.39 C
1894 13-03-2019 13:45:00 7.8 C 79 % 4.39 C
1895 13-03-2019 13:50:00 7.8 C 78 % 4.21 C
1896 13-03-2019 13:55:00 7.8 C 78 % 4.21 C
1897 13-03-2019 14:00:00 7.9 C 78 % 4.31 C
1898 13-03-2019 14:05:00 8.1 C 78 % 4.5 C
1899 13-03-2019 14:10:00 8.2 C 77 % 4.42 C
1900 13-03-2019 14:15:00 8.2 C 77 % 4.42 C
Sensor: Nr:Datum:Temp:Feuchte:Taupunkt:
Aussen-T/F 1901 13-03-2019 14:20:00 8.2 C 78 % 4.6 C
1902 13-03-2019 14:25:00 8.1 C 78 % 4.5 C
1903 13-03-2019 14:30:00 8 C 79 % 4.59 C
1904 13-03-2019 14:35:00 7.9 C 78 % 4.31 C
1905 13-03-2019 14:40:00 7.9 C 79 % 4.49 C
1906 13-03-2019 14:45:00 8 C 79 % 4.59 C
1907 13-03-2019 14:50:00 8 C 78 % 4.41 C
1908 13-03-2019 14:55:00 8.1 C 78 % 4.5 C
1909 13-03-2019 15:00:00 8 C 78 % 4.41 C
1910 13-03-2019 15:05:00 7.9 C 79 % 4.49 C
1911 13-03-2019 15:10:00 7.9 C 79 % 4.49 C
1912 13-03-2019 15:15:00 7.9 C 80 % 4.67 C
1913 13-03-2019 15:20:00 7.8 C 80 % 4.57 C
1914 13-03-2019 15:25:00 7.9 C 80 % 4.67 C
1915 13-03-2019 15:30:00 7.9 C 80 % 4.67 C
1916 13-03-2019 15:35:00 7.8 C 80 % 4.57 C
1917 13-03-2019 15:40:00 7.7 C 81 % 4.65 C
1918 13-03-2019 15:45:00 7.6 C 81 % 4.55 C
1919 13-03-2019 15:50:00 7.6 C 81 % 4.55 C
1920 13-03-2019 15:55:00 7.5 C 83 % 4.81 C
1921 13-03-2019 16:00:00 7.4 C 84 % 4.88 C
1922 13-03-2019 16:05:00 7.3 C 85 % 4.95 C
1923 13-03-2019 16:10:00 7.1 C 86 % 4.92 C
1924 13-03-2019 16:15:00 7 C 87 % 4.99 C
1925 13-03-2019 16:20:00 6.8 C 87 % 4.79 C
Sensor: Nr:Datum:Temp:Feuchte:Taupunkt:
Aussen-T/F 1926 13-03-2019 16:25:00 6.7 C 88 % 4.86 C
1927 13-03-2019 16:30:00 6.6 C 88 % 4.76 C
1928 13-03-2019 16:35:00 6.6 C 88 % 4.76 C
1929 13-03-2019 16:40:00 6.6 C 88 % 4.76 C
1930 13-03-2019 16:45:00 6.6 C 89 % 4.92 C
1931 13-03-2019 16:50:00 6.6 C 89 % 4.92 C
1932 13-03-2019 16:55:00 6.6 C 89 % 4.92 C
1933 13-03-2019 17:00:00 6.6 C 89 % 4.92 C
1934 13-03-2019 17:05:00 6.6 C 89 % 4.92 C
1935 13-03-2019 17:10:00 6.7 C 89 % 5.02 C
1936 13-03-2019 17:15:00 6.6 C 88 % 4.76 C
1937 13-03-2019 17:20:00 6.7 C 88 % 4.86 C
1938 13-03-2019 17:25:00 6.7 C 87 % 4.69 C
1939 13-03-2019 17:30:00 6.7 C 88 % 4.86 C
1940 13-03-2019 17:35:00 6.6 C 88 % 4.76 C
1941 13-03-2019 17:40:00 6.6 C 87 % 4.6 C
1942 13-03-2019 17:45:00 6.7 C 87 % 4.69 C
1943 13-03-2019 17:50:00 6.7 C 87 % 4.69 C
1944 13-03-2019 17:55:00 6.7 C 87 % 4.69 C
1945 13-03-2019 18:00:00 6.8 C 87 % 4.79 C
1946 13-03-2019 18:05:00 6.8 C 86 % 4.63 C
1947 13-03-2019 18:10:00 6.9 C 86 % 4.72 C
1948 13-03-2019 18:15:00 6.9 C 86 % 4.72 C
1949 13-03-2019 18:20:00 6.9 C 86 % 4.72 C
1950 13-03-2019 18:25:00 6.8 C 88 % 4.96 C
Sensor: Nr:Datum:Temp:Feuchte:Taupunkt:
Aussen-T/F 1951 13-03-2019 18:30:00 6.7 C 88 % 4.86 C
1952 13-03-2019 18:35:00 6.6 C 89 % 4.92 C
1953 13-03-2019 18:40:00 6.6 C 89 % 4.92 C
1954 13-03-2019 18:45:00 6.3 C 89 % 4.62 C
1955 13-03-2019 18:50:00 5.9 C 89 % 4.23 C
1956 13-03-2019 18:55:00 5.4 C 89 % 3.74 C
1957 13-03-2019 19:00:00 5.3 C 90 % 3.8 C
1958 13-03-2019 19:05:00 5.1 C 91 % 3.76 C
1959 13-03-2019 19:10:00 5 C 91 % 3.66 C
1960 13-03-2019 19:15:00 4.9 C 91 % 3.56 C
1961 13-03-2019 19:20:00 4.9 C 92 % 3.71 C
1962 13-03-2019 19:25:00 4.9 C 92 % 3.71 C
1963 13-03-2019 19:30:00 4.9 C 92 % 3.71 C
1964 13-03-2019 19:35:00 4.9 C 92 % 3.71 C
1965 13-03-2019 19:40:00 4.9 C 93 % 3.87 C
1966 13-03-2019 19:45:00 4.9 C 93 % 3.87 C
1967 13-03-2019 19:50:00 4.9 C 93 % 3.87 C
1968 13-03-2019 19:55:00 4.9 C 93 % 3.87 C
1969 13-03-2019 20:00:00 5 C 93 % 3.96 C
1970 13-03-2019 20:05:00 5.1 C 93 % 4.06 C
1971 13-03-2019 20:10:00 5.1 C 93 % 4.06 C
1972 13-03-2019 20:15:00 5.1 C 92 % 3.91 C
1973 13-03-2019 20:20:00 5.1 C 92 % 3.91 C
1974 13-03-2019 20:25:00 5.1 C 92 % 3.91 C
1975 13-03-2019 20:30:00 5 C 92 % 3.81 C
Sensor: Nr:Datum:Temp:Feuchte:Taupunkt:
Aussen-T/F 1976 13-03-2019 20:35:00 4.9 C 92 % 3.71 C
1977 13-03-2019 20:40:00 4.8 C 92 % 3.61 C
1978 13-03-2019 20:45:00 4.7 C 92 % 3.51 C
1979 13-03-2019 20:50:00 4.7 C 92 % 3.51 C
1980 13-03-2019 20:55:00 4.7 C 92 % 3.51 C
1981 13-03-2019 21:00:00 4.7 C 92 % 3.51 C
1982 13-03-2019 21:05:00 4.8 C 92 % 3.61 C
1983 13-03-2019 21:10:00 4.8 C 92 % 3.61 C
1984 13-03-2019 21:15:00 4.9 C 92 % 3.71 C
1985 13-03-2019 21:20:00 4.9 C 92 % 3.71 C
1986 13-03-2019 21:25:00 5 C 93 % 3.96 C
1987 13-03-2019 21:30:00 5 C 93 % 3.96 C
1988 13-03-2019 21:35:00 5.1 C 93 % 4.06 C
1989 13-03-2019 21:40:00 5.1 C 93 % 4.06 C
1990 13-03-2019 21:45:00 5 C 93 % 3.96 C
1991 13-03-2019 21:50:00 5 C 93 % 3.96 C
1992 13-03-2019 21:55:00 5 C 93 % 3.96 C
1993 13-03-2019 22:00:00 5 C 93 % 3.96 C
1994 13-03-2019 22:05:00 5 C 93 % 3.96 C
1995 13-03-2019 22:10:00 5 C 93 % 3.96 C
1996 13-03-2019 22:15:00 5.1 C 93 % 4.06 C
1997 13-03-2019 22:20:00 5 C 93 % 3.96 C
1998 13-03-2019 22:25:00 5 C 93 % 3.96 C
1999 13-03-2019 22:30:00 4.9 C 93 % 3.87 C
2000 13-03-2019 22:35:00 5 C 93 % 3.96 C
Sensor: Nr:Datum:Temp:Feuchte:Taupunkt:
Aussen-T/F 2001 13-03-2019 22:40:00 5 C 93 % 3.96 C
2002 13-03-2019 22:45:00 5.1 C 93 % 4.06 C
2003 13-03-2019 22:50:00 5.2 C 93 % 4.16 C
2004 13-03-2019 22:55:00 5.2 C 93 % 4.16 C
2005 13-03-2019 23:00:00 5.2 C 92 % 4.01 C
2006 13-03-2019 23:05:00 5.1 C 92 % 3.91 C
2007 13-03-2019 23:10:00 5 C 92 % 3.81 C
2008 13-03-2019 23:15:00 4.8 C 92 % 3.61 C
2009 13-03-2019 23:20:00 4.7 C 92 % 3.51 C
2010 13-03-2019 23:25:00 4.6 C 93 % 3.57 C
2011 13-03-2019 23:30:00 4.6 C 93 % 3.57 C
2012 13-03-2019 23:35:00 4.5 C 93 % 3.47 C
2013 13-03-2019 23:40:00 4.5 C 93 % 3.47 C
2014 13-03-2019 23:45:00 4.5 C 93 % 3.47 C
2015 13-03-2019 23:50:00 4.6 C 93 % 3.57 C
2016 13-03-2019 23:55:00 4.6 C 94 % 3.72 C
2017 14-03-2019 00:00:00 4.6 C 93 % 3.57 C
2018 14-03-2019 00:05:00 4.6 C 93 % 3.57 C
2019 14-03-2019 00:10:00 4.6 C 93 % 3.57 C
2020 14-03-2019 00:15:00 4.6 C 93 % 3.57 C
2021 14-03-2019 00:20:00 4.6 C 93 % 3.57 C
2022 14-03-2019 00:25:00 4.6 C 93 % 3.57 C
2023 14-03-2019 00:30:00 4.6 C 92 % 3.42 C
2024 14-03-2019 00:35:00 4.6 C 92 % 3.42 C
2025 14-03-2019 00:40:00 4.6 C 92 % 3.42 C
Sensor: Nr:Datum:Temp:Feuchte:Taupunkt:
Aussen-T/F 2026 14-03-2019 00:45:00 4.7 C 92 % 3.51 C
2027 14-03-2019 00:50:00 4.8 C 92 % 3.61 C
2028 14-03-2019 00:55:00 4.9 C 91 % 3.56 C
2029 14-03-2019 01:00:00 5 C 91 % 3.66 C
2030 14-03-2019 01:05:00 5.1 C 90 % 3.6 C
2031 14-03-2019 01:10:00 5.2 C 90 % 3.7 C
2032 14-03-2019 01:15:00 5.2 C 91 % 3.85 C
2033 14-03-2019 01:20:00 5.2 C 90 % 3.7 C
2034 14-03-2019 01:25:00 5.2 C 90 % 3.7 C
2035 14-03-2019 01:30:00 5.2 C 90 % 3.7 C
2036 14-03-2019 01:35:00 5.2 C 91 % 3.85 C
2037 14-03-2019 01:40:00 5.1 C 91 % 3.76 C
2038 14-03-2019 01:45:00 5.1 C 91 % 3.76 C
2039 14-03-2019 01:50:00 5.1 C 91 % 3.76 C
2040 14-03-2019 01:55:00 5 C 91 % 3.66 C
2041 14-03-2019 02:00:00 5 C 91 % 3.66 C
2042 14-03-2019 02:05:00 5 C 92 % 3.81 C
2043 14-03-2019 02:10:00 4.9 C 92 % 3.71 C
2044 14-03-2019 02:15:00 4.9 C 92 % 3.71 C
2045 14-03-2019 02:20:00 4.9 C 92 % 3.71 C
2046 14-03-2019 02:25:00 4.9 C 92 % 3.71 C
2047 14-03-2019 02:30:00 4.8 C 92 % 3.61 C
2048 14-03-2019 02:35:00 4.8 C 92 % 3.61 C
2049 14-03-2019 02:40:00 4.7 C 92 % 3.51 C
2050 14-03-2019 02:45:00 4.7 C 92 % 3.51 C
Sensor: Nr:Datum:Temp:Feuchte:Taupunkt:
Aussen-T/F 2051 14-03-2019 02:50:00 4.6 C 92 % 3.42 C
2052 14-03-2019 02:55:00 4.6 C 92 % 3.42 C
2053 14-03-2019 03:00:00 4.4 C 92 % 3.22 C
2054 14-03-2019 03:05:00 4.4 C 92 % 3.22 C
2055 14-03-2019 03:10:00 4.4 C 92 % 3.22 C
2056 14-03-2019 03:15:00 4.4 C 93 % 3.37 C
2057 14-03-2019 03:20:00 4.4 C 93 % 3.37 C
2058 14-03-2019 03:25:00 4.3 C 93 % 3.27 C
2059 14-03-2019 03:30:00 4.4 C 93 % 3.37 C
2060 14-03-2019 03:35:00 4.4 C 93 % 3.37 C
2061 14-03-2019 03:40:00 4.4 C 93 % 3.37 C
2062 14-03-2019 03:45:00 4.6 C 94 % 3.72 C
2063 14-03-2019 03:50:00 4.7 C 94 % 3.82 C
2064 14-03-2019 03:55:00 4.8 C 94 % 3.92 C
2065 14-03-2019 04:00:00 4.8 C 94 % 3.92 C
2066 14-03-2019 04:05:00 4.8 C 94 % 3.92 C
2067 14-03-2019 04:10:00 4.9 C 93 % 3.87 C
2068 14-03-2019 04:15:00 4.9 C 94 % 4.02 C
2069 14-03-2019 04:20:00 4.9 C 93 % 3.87 C
2070 14-03-2019 04:25:00 5 C 94 % 4.12 C
2071 14-03-2019 04:30:00 5.1 C 93 % 4.06 C
2072 14-03-2019 04:35:00 5.2 C 93 % 4.16 C
2073 14-03-2019 04:40:00 5.2 C 93 % 4.16 C
2074 14-03-2019 04:45:00 5.2 C 93 % 4.16 C
2075 14-03-2019 04:50:00 5.3 C 93 % 4.26 C
Sensor: Nr:Datum:Temp:Feuchte:Taupunkt:
Aussen-T/F 2076 14-03-2019 04:55:00 5.3 C 93 % 4.26 C
2077 14-03-2019 05:00:00 5.4 C 93 % 4.36 C
2078 14-03-2019 05:05:00 5.5 C 93 % 4.46 C
2079 14-03-2019 05:10:00 5.6 C 93 % 4.56 C
2080 14-03-2019 05:15:00 5.6 C 92 % 4.41 C
2081 14-03-2019 05:20:00 5.6 C 92 % 4.41 C
2082 14-03-2019 05:25:00 5.7 C 92 % 4.5 C
2083 14-03-2019 05:30:00 5.8 C 92 % 4.6 C
2084 14-03-2019 05:35:00 5.8 C 91 % 4.45 C
2085 14-03-2019 05:40:00 5.9 C 91 % 4.55 C
2086 14-03-2019 05:45:00 5.9 C 91 % 4.55 C
2087 14-03-2019 05:50:00 6 C 90 % 4.49 C
2088 14-03-2019 05:55:00 6 C 90 % 4.49 C
2089 14-03-2019 06:00:00 6.1 C 90 % 4.59 C
2090 14-03-2019 06:05:00 6.1 C 90 % 4.59 C
2091 14-03-2019 06:10:00 6.1 C 90 % 4.59 C
2092 14-03-2019 06:15:00 6.1 C 89 % 4.43 C
2093 14-03-2019 06:20:00 6.1 C 89 % 4.43 C
2094 14-03-2019 06:25:00 6.1 C 90 % 4.59 C
2095 14-03-2019 06:30:00 6.1 C 89 % 4.43 C
2096 14-03-2019 06:35:00 6.1 C 89 % 4.43 C
2097 14-03-2019 06:40:00 6.2 C 89 % 4.53 C
2098 14-03-2019 06:45:00 6.2 C 89 % 4.53 C
2099 14-03-2019 06:50:00 6.2 C 89 % 4.53 C
2100 14-03-2019 06:55:00 6.2 C 88 % 4.36 C
Sensor: Nr:Datum:Temp:Feuchte:Taupunkt:
Aussen-T/F 2101 14-03-2019 07:00:00 6.2 C 88 % 4.36 C
2102 14-03-2019 07:05:00 6.3 C 88 % 4.46 C
2103 14-03-2019 07:10:00 6.3 C 88 % 4.46 C
2104 14-03-2019 07:15:00 6.3 C 88 % 4.46 C
2105 14-03-2019 07:20:00 6.3 C 88 % 4.46 C
2106 14-03-2019 07:25:00 6.3 C 88 % 4.46 C
2107 14-03-2019 07:30:00 6.3 C 87 % 4.3 C
2108 14-03-2019 07:35:00 6.3 C 87 % 4.3 C
2109 14-03-2019 07:40:00 6.4 C 87 % 4.4 C
2110 14-03-2019 07:45:00 6.4 C 86 % 4.23 C
2111 14-03-2019 07:50:00 6.5 C 86 % 4.33 C
2112 14-03-2019 07:55:00 6.6 C 86 % 4.43 C
2113 14-03-2019 08:00:00 6.6 C 86 % 4.43 C
2114 14-03-2019 08:05:00 6.6 C 86 % 4.43 C
2115 14-03-2019 08:10:00 6.7 C 85 % 4.36 C
2116 14-03-2019 08:15:00 6.7 C 85 % 4.36 C
2117 14-03-2019 08:20:00 6.7 C 85 % 4.36 C
2118 14-03-2019 08:25:00 6.7 C 85 % 4.36 C
2119 14-03-2019 08:30:00 6.8 C 85 % 4.46 C
2120 14-03-2019 08:35:00 6.8 C 85 % 4.46 C
2121 14-03-2019 08:40:00 6.8 C 85 % 4.46 C
2122 14-03-2019 08:45:00 6.7 C 86 % 4.53 C
2123 14-03-2019 08:50:00 6.7 C 87 % 4.69 C
2124 14-03-2019 08:55:00 6.7 C 87 % 4.69 C
2125 14-03-2019 09:00:00 6.6 C 88 % 4.76 C
Sensor: Nr:Datum:Temp:Feuchte:Taupunkt:
Aussen-T/F 2126 14-03-2019 09:05:00 6.5 C 88 % 4.66 C
2127 14-03-2019 09:10:00 6.5 C 89 % 4.82 C
2128 14-03-2019 09:15:00 6.4 C 89 % 4.72 C
2129 14-03-2019 09:20:00 6.4 C 89 % 4.72 C
2130 14-03-2019 09:25:00 6.4 C 89 % 4.72 C
2131 14-03-2019 09:30:00 6.3 C 89 % 4.62 C
2132 14-03-2019 09:35:00 6.3 C 89 % 4.62 C
2133 14-03-2019 09:40:00 6.4 C 89 % 4.72 C
2134 14-03-2019 09:45:00 6.4 C 89 % 4.72 C
2135 14-03-2019 09:50:00 6.4 C 89 % 4.72 C
2136 14-03-2019 09:55:00 6.4 C 89 % 4.72 C
2137 14-03-2019 10:00:00 6.5 C 89 % 4.82 C
2138 14-03-2019 10:05:00 6.5 C 89 % 4.82 C
2139 14-03-2019 10:10:00 6.5 C 89 % 4.82 C
2140 14-03-2019 10:15:00 6.5 C 88 % 4.66 C
2141 14-03-2019 10:20:00 6.5 C 88 % 4.66 C
2142 14-03-2019 10:25:00 6.6 C 88 % 4.76 C
2143 14-03-2019 10:30:00 6.6 C 88 % 4.76 C
2144 14-03-2019 10:35:00 6.6 C 88 % 4.76 C
2145 14-03-2019 10:40:00 6.6 C 88 % 4.76 C
2146 14-03-2019 10:45:00 6.6 C 88 % 4.76 C
2147 14-03-2019 10:50:00 6.6 C 88 % 4.76 C
2148 14-03-2019 10:55:00 6.5 C 88 % 4.66 C
2149 14-03-2019 11:00:00 6.5 C 89 % 4.82 C
2150 14-03-2019 11:05:00 6.5 C 89 % 4.82 C
Sensor: Nr:Datum:Temp:Feuchte:Taupunkt:
Aussen-T/F 2151 14-03-2019 11:10:00 6.4 C 89 % 4.72 C
2152 14-03-2019 11:15:00 6.4 C 89 % 4.72 C
2153 14-03-2019 11:20:00 6.5 C 89 % 4.82 C
2154 14-03-2019 11:25:00 6.5 C 89 % 4.82 C
2155 14-03-2019 11:30:00 6.5 C 89 % 4.82 C
2156 14-03-2019 11:35:00 6.6 C 89 % 4.92 C
2157 14-03-2019 11:40:00 6.6 C 89 % 4.92 C
2158 14-03-2019 11:45:00 6.7 C 90 % 5.18 C
2159 14-03-2019 11:50:00 6.7 C 89 % 5.02 C
2160 14-03-2019 11:55:00 6.8 C 89 % 5.12 C
2161 14-03-2019 12:00:00 6.9 C 89 % 5.22 C
2162 14-03-2019 12:05:00 7.1 C 89 % 5.41 C
2163 14-03-2019 12:10:00 7.1 C 88 % 5.25 C
2164 14-03-2019 12:15:00 7.2 C 88 % 5.35 C
2165 14-03-2019 12:20:00 7.2 C 88 % 5.35 C
2166 14-03-2019 12:25:00 7.2 C 88 % 5.35 C
2167 14-03-2019 12:30:00 7.2 C 88 % 5.35 C
2168 14-03-2019 12:35:00 7.1 C 88 % 5.25 C
2169 14-03-2019 12:40:00 7.1 C 89 % 5.41 C
2170 14-03-2019 12:45:00 7.2 C 90 % 5.67 C
2171 14-03-2019 12:50:00 7.2 C 90 % 5.67 C
2172 14-03-2019 12:55:00 7.3 C 90 % 5.77 C
2173 14-03-2019 13:00:00 7.3 C 90 % 5.77 C
2174 14-03-2019 13:05:00 7.3 C 89 % 5.61 C
2175 14-03-2019 13:10:00 7.3 C 90 % 5.77 C
Sensor: Nr:Datum:Temp:Feuchte:Taupunkt:
Aussen-T/F 2176 14-03-2019 13:15:00 7.3 C 90 % 5.77 C
2177 14-03-2019 13:20:00 7.3 C 89 % 5.61 C
2178 14-03-2019 13:25:00 7.3 C 89 % 5.61 C
2179 14-03-2019 13:30:00 7.3 C 88 % 5.45 C
2180 14-03-2019 13:35:00 7.3 C 88 % 5.45 C
2181 14-03-2019 13:40:00 7.3 C 88 % 5.45 C
2182 14-03-2019 13:45:00 7.3 C 87 % 5.28 C
2183 14-03-2019 13:50:00 7.3 C 87 % 5.28 C
2184 14-03-2019 13:55:00 7.4 C 87 % 5.38 C
2185 14-03-2019 14:00:00 7.4 C 87 % 5.38 C
2186 14-03-2019 14:05:00 7.4 C 87 % 5.38 C
2187 14-03-2019 14:10:00 7.4 C 87 % 5.38 C
2188 14-03-2019 14:15:00 7.4 C 87 % 5.38 C
2189 14-03-2019 14:20:00 7.4 C 88 % 5.55 C
2190 14-03-2019 14:25:00 7.4 C 88 % 5.55 C
2191 14-03-2019 14:30:00 7.3 C 88 % 5.45 C
2192 14-03-2019 14:35:00 7.3 C 87 % 5.28 C
2193 14-03-2019 14:40:00 7.3 C 88 % 5.45 C
2194 14-03-2019 14:45:00 7.3 C 89 % 5.61 C
2195 14-03-2019 14:50:00 7.2 C 89 % 5.51 C
2196 14-03-2019 14:55:00 7.2 C 90 % 5.67 C
2197 14-03-2019 15:00:00 7.3 C 90 % 5.77 C
2198 14-03-2019 15:05:00 7.3 C 91 % 5.93 C
2199 14-03-2019 15:10:00 7.5 C 90 % 5.97 C
2200 14-03-2019 15:15:00 7.7 C 90 % 6.17 C
Sensor: Nr:Datum:Temp:Feuchte:Taupunkt:
Aussen-T/F 2201 14-03-2019 15:20:00 7.8 C 90 % 6.27 C
2202 14-03-2019 15:25:00 7.8 C 89 % 6.1 C
2203 14-03-2019 15:30:00 7.8 C 89 % 6.1 C
2204 14-03-2019 15:35:00 7.8 C 90 % 6.27 C
2205 14-03-2019 15:40:00 7.8 C 90 % 6.27 C
2206 14-03-2019 15:45:00 7.8 C 91 % 6.43 C
2207 14-03-2019 15:50:00 7.8 C 91 % 6.43 C
2208 14-03-2019 15:55:00 7.9 C 91 % 6.52 C
2209 14-03-2019 16:00:00 8.1 C 90 % 6.56 C
2210 14-03-2019 16:05:00 8.3 C 89 % 6.6 C
2211 14-03-2019 16:10:00 8.6 C 88 % 6.73 C
2212 14-03-2019 16:15:00 8.8 C 87 % 6.76 C
2213 14-03-2019 16:20:00 8.9 C 85 % 6.52 C
2214 14-03-2019 16:25:00 9.1 C 85 % 6.72 C
2215 14-03-2019 16:30:00 9.1 C 85 % 6.72 C
2216 14-03-2019 16:35:00 9.2 C 85 % 6.81 C
2217 14-03-2019 16:40:00 9.1 C 85 % 6.72 C
2218 14-03-2019 16:45:00 9.1 C 85 % 6.72 C
2219 14-03-2019 16:50:00 9.1 C 85 % 6.72 C
2220 14-03-2019 16:55:00 9.1 C 85 % 6.72 C
2221 14-03-2019 17:00:00 9.2 C 87 % 7.15 C
2222 14-03-2019 17:05:00 9.2 C 87 % 7.15 C
2223 14-03-2019 17:10:00 9.2 C 87 % 7.15 C
2224 14-03-2019 17:15:00 9.2 C 87 % 7.15 C
2225 14-03-2019 17:20:00 9.4 C 87 % 7.35 C
Sensor: Nr:Datum:Temp:Feuchte:Taupunkt:
Aussen-T/F 2226 14-03-2019 17:25:00 9.8 C 85 % 7.4 C
2227 14-03-2019 17:30:00 10.2 C 84 % 7.62 C
2228 14-03-2019 17:35:00 10.4 C 83 % 7.64 C
2229 14-03-2019 17:40:00 10.6 C 82 % 7.66 C
2230 14-03-2019 17:45:00 10.5 C 82 % 7.56 C
2231 14-03-2019 17:50:00 10.3 C 82 % 7.37 C
2232 14-03-2019 17:55:00 10.3 C 83 % 7.54 C
2233 14-03-2019 18:00:00 10.2 C 83 % 7.45 C
2234 14-03-2019 18:05:00 10.1 C 84 % 7.52 C
2235 14-03-2019 18:10:00 10 C 84 % 7.43 C
2236 14-03-2019 18:15:00 9.9 C 85 % 7.5 C
2237 14-03-2019 18:20:00 9.8 C 84 % 7.23 C
2238 14-03-2019 18:25:00 9.7 C 84 % 7.13 C
2239 14-03-2019 18:30:00 9.7 C 83 % 6.96 C
2240 14-03-2019 18:35:00 9.8 C 83 % 7.05 C
2241 14-03-2019 18:40:00 9.8 C 81 % 6.7 C
2242 14-03-2019 18:45:00 9.8 C 81 % 6.7 C
2243 14-03-2019 18:50:00 9.8 C 80 % 6.52 C
2244 14-03-2019 18:55:00 9.9 C 79 % 6.43 C
2245 14-03-2019 19:00:00 9.9 C 80 % 6.62 C
2246 14-03-2019 19:05:00 9.8 C 76 % 5.78 C
2247 14-03-2019 19:10:00 9.9 C 76 % 5.87 C
2248 14-03-2019 19:15:00 9.9 C 75 % 5.68 C
2249 14-03-2019 19:20:00 9.9 C 73 % 5.29 C
2250 14-03-2019 19:25:00 9.9 C 73 % 5.29 C
Sensor: Nr:Datum:Temp:Feuchte:Taupunkt:
Aussen-T/F 2251 14-03-2019 19:30:00 9.9 C 74 % 5.49 C
2252 14-03-2019 19:35:00 9.8 C 77 % 5.97 C
2253 14-03-2019 19:40:00 9.3 C 79 % 5.85 C
2254 14-03-2019 19:45:00 8.9 C 81 % 5.82 C
2255 14-03-2019 19:50:00 8.7 C 82 % 5.8 C
2256 14-03-2019 19:55:00 8.6 C 83 % 5.88 C
2257 14-03-2019 20:00:00 8.3 C 84 % 5.76 C
2258 14-03-2019 20:05:00 8.3 C 85 % 5.93 C
2259 14-03-2019 20:10:00 8.2 C 85 % 5.83 C
2260 14-03-2019 20:15:00 8.1 C 86 % 5.9 C
2261 14-03-2019 20:20:00 7.9 C 85 % 5.54 C
2262 14-03-2019 20:25:00 7.9 C 85 % 5.54 C
2263 14-03-2019 20:30:00 7.9 C 86 % 5.71 C
2264 14-03-2019 20:35:00 7.8 C 86 % 5.61 C
2265 14-03-2019 20:40:00 7.8 C 85 % 5.44 C
2266 14-03-2019 20:45:00 7.8 C 85 % 5.44 C
2267 14-03-2019 20:50:00 7.8 C 85 % 5.44 C
2268 14-03-2019 20:55:00 7.8 C 84 % 5.27 C
2269 14-03-2019 21:00:00 7.9 C 84 % 5.37 C
2270 14-03-2019 21:05:00 7.9 C 84 % 5.37 C
2271 14-03-2019 21:10:00 8 C 84 % 5.47 C
2272 14-03-2019 21:15:00 8.1 C 83 % 5.39 C
2273 14-03-2019 21:20:00 8.2 C 83 % 5.49 C
2274 14-03-2019 21:25:00 8.3 C 83 % 5.59 C
2275 14-03-2019 21:30:00 8.3 C 82 % 5.41 C
Sensor: Nr:Datum:Temp:Feuchte:Taupunkt:
Aussen-T/F 2276 14-03-2019 21:35:00 8.4 C 82 % 5.51 C
2277 14-03-2019 21:40:00 8.4 C 82 % 5.51 C
2278 14-03-2019 21:45:00 8.4 C 83 % 5.69 C
2279 14-03-2019 21:50:00 8.3 C 83 % 5.59 C
2280 14-03-2019 21:55:00 8.2 C 83 % 5.49 C
2281 14-03-2019 22:00:00 8.2 C 82 % 5.32 C
2282 14-03-2019 22:05:00 8.3 C 82 % 5.41 C
2283 14-03-2019 22:10:00 8.4 C 81 % 5.33 C
2284 14-03-2019 22:15:00 8.4 C 80 % 5.16 C
2285 14-03-2019 22:20:00 8.5 C 79 % 5.07 C
2286 14-03-2019 22:25:00 8.6 C 79 % 5.17 C
2287 14-03-2019 22:30:00 8.6 C 79 % 5.17 C
2288 14-03-2019 22:35:00 8.4 C 79 % 4.98 C
2289 14-03-2019 22:40:00 8.4 C 79 % 4.98 C
2290 14-03-2019 22:45:00 8.3 C 79 % 4.88 C
2291 14-03-2019 22:50:00 8.3 C 79 % 4.88 C
2292 14-03-2019 22:55:00 8.2 C 79 % 4.78 C
2293 14-03-2019 23:00:00 8.2 C 79 % 4.78 C
2294 14-03-2019 23:05:00 8.2 C 79 % 4.78 C
2295 14-03-2019 23:10:00 8.2 C 79 % 4.78 C
2296 14-03-2019 23:15:00 8.2 C 79 % 4.78 C
2297 14-03-2019 23:20:00 8.2 C 79 % 4.78 C
2298 14-03-2019 23:25:00 8.2 C 79 % 4.78 C
2299 14-03-2019 23:30:00 8.2 C 79 % 4.78 C
2300 14-03-2019 23:35:00 8.2 C 79 % 4.78 C
Sensor: Nr:Datum:Temp:Feuchte:Taupunkt:
Aussen-T/F 2301 14-03-2019 23:40:00 8.1 C 79 % 4.68 C
2302 14-03-2019 23:45:00 8 C 80 % 4.77 C
2303 14-03-2019 23:50:00 7.9 C 80 % 4.67 C
2304 14-03-2019 23:55:00 7.8 C 80 % 4.57 C
2305 15-03-2019 00:00:00 7.8 C 80 % 4.57 C
2306 15-03-2019 00:05:00 7.7 C 81 % 4.65 C
2307 15-03-2019 00:10:00 7.6 C 82 % 4.73 C
2308 15-03-2019 00:15:00 7.4 C 82 % 4.53 C
2309 15-03-2019 00:20:00 7.2 C 82 % 4.34 C
2310 15-03-2019 00:25:00 7.1 C 83 % 4.41 C
2311 15-03-2019 00:30:00 6.9 C 84 % 4.39 C
2312 15-03-2019 00:35:00 6.9 C 84 % 4.39 C
2313 15-03-2019 00:40:00 6.8 C 84 % 4.29 C
2314 15-03-2019 00:45:00 6.7 C 84 % 4.19 C
2315 15-03-2019 00:50:00 6.7 C 85 % 4.36 C
2316 15-03-2019 00:55:00 6.6 C 85 % 4.26 C
2317 15-03-2019 01:00:00 6.4 C 85 % 4.07 C
2318 15-03-2019 01:05:00 6.3 C 85 % 3.97 C
2319 15-03-2019 01:10:00 6.3 C 86 % 4.14 C
2320 15-03-2019 01:15:00 6.3 C 86 % 4.14 C
2321 15-03-2019 01:20:00 6.3 C 86 % 4.14 C
2322 15-03-2019 01:25:00 6.3 C 86 % 4.14 C
2323 15-03-2019 01:30:00 6.3 C 86 % 4.14 C
2324 15-03-2019 01:35:00 6.4 C 86 % 4.23 C
2325 15-03-2019 01:40:00 6.4 C 86 % 4.23 C
Sensor: Nr:Datum:Temp:Feuchte:Taupunkt:
Aussen-T/F 2326 15-03-2019 01:45:00 6.4 C 86 % 4.23 C
2327 15-03-2019 01:50:00 6.6 C 86 % 4.43 C
2328 15-03-2019 01:55:00 6.6 C 86 % 4.43 C
2329 15-03-2019 02:00:00 6.6 C 86 % 4.43 C
2330 15-03-2019 02:05:00 6.7 C 86 % 4.53 C
2331 15-03-2019 02:10:00 6.7 C 86 % 4.53 C
2332 15-03-2019 02:15:00 6.8 C 86 % 4.63 C
2333 15-03-2019 02:20:00 6.8 C 86 % 4.63 C
2334 15-03-2019 02:25:00 6.9 C 86 % 4.72 C
2335 15-03-2019 02:30:00 6.9 C 86 % 4.72 C
2336 15-03-2019 02:35:00 7 C 85 % 4.66 C
2337 15-03-2019 02:40:00 7 C 85 % 4.66 C
2338 15-03-2019 02:45:00 7.1 C 85 % 4.75 C
2339 15-03-2019 02:50:00 7 C 85 % 4.66 C
2340 15-03-2019 02:55:00 6.9 C 85 % 4.56 C
2341 15-03-2019 03:00:00 6.8 C 85 % 4.46 C
2342 15-03-2019 03:05:00 6.7 C 86 % 4.53 C
2343 15-03-2019 03:10:00 6.5 C 86 % 4.33 C
2344 15-03-2019 03:15:00 6.4 C 87 % 4.4 C
2345 15-03-2019 03:20:00 6.4 C 87 % 4.4 C
2346 15-03-2019 03:25:00 6.4 C 87 % 4.4 C
2347 15-03-2019 03:30:00 6.4 C 87 % 4.4 C
2348 15-03-2019 03:35:00 6.3 C 87 % 4.3 C
2349 15-03-2019 03:40:00 6.3 C 88 % 4.46 C
2350 15-03-2019 03:45:00 6.3 C 88 % 4.46 C
Sensor: Nr:Datum:Temp:Feuchte:Taupunkt:
Aussen-T/F 2351 15-03-2019 03:50:00 6.2 C 88 % 4.36 C
2352 15-03-2019 03:55:00 6.2 C 88 % 4.36 C
2353 15-03-2019 04:00:00 6.1 C 88 % 4.27 C
2354 15-03-2019 04:05:00 6 C 88 % 4.17 C
2355 15-03-2019 04:10:00 5.9 C 89 % 4.23 C
2356 15-03-2019 04:15:00 5.9 C 89 % 4.23 C
2357 15-03-2019 04:20:00 5.9 C 89 % 4.23 C
2358 15-03-2019 04:25:00 5.8 C 89 % 4.13 C
2359 15-03-2019 04:30:00 5.9 C 90 % 4.39 C
2360 15-03-2019 04:35:00 6 C 90 % 4.49 C
2361 15-03-2019 04:40:00 6.1 C 90 % 4.59 C
2362 15-03-2019 04:45:00 6.2 C 90 % 4.69 C
2363 15-03-2019 04:50:00 6.3 C 90 % 4.78 C
2364 15-03-2019 04:55:00 6.4 C 90 % 4.88 C
2365 15-03-2019 05:00:00 6.6 C 89 % 4.92 C
2366 15-03-2019 05:05:00 6.7 C 89 % 5.02 C
2367 15-03-2019 05:10:00 6.8 C 88 % 4.96 C
2368 15-03-2019 05:15:00 6.9 C 88 % 5.05 C
2369 15-03-2019 05:20:00 7 C 88 % 5.15 C
2370 15-03-2019 05:25:00 7.1 C 87 % 5.09 C
2371 15-03-2019 05:30:00 7.1 C 87 % 5.09 C
2372 15-03-2019 05:35:00 7.1 C 87 % 5.09 C
2373 15-03-2019 05:40:00 7.1 C 87 % 5.09 C
2374 15-03-2019 05:45:00 7.2 C 87 % 5.19 C
2375 15-03-2019 05:50:00 7.2 C 87 % 5.19 C
Sensor: Nr:Datum:Temp:Feuchte:Taupunkt:
Aussen-T/F 2376 15-03-2019 05:55:00 7.3 C 87 % 5.28 C
2377 15-03-2019 06:00:00 7.3 C 88 % 5.45 C
2378 15-03-2019 06:05:00 7.3 C 88 % 5.45 C
2379 15-03-2019 06:10:00 7.3 C 89 % 5.61 C
2380 15-03-2019 06:15:00 7.3 C 89 % 5.61 C
2381 15-03-2019 06:20:00 7.3 C 90 % 5.77 C
2382 15-03-2019 06:25:00 7.3 C 90 % 5.77 C
2383 15-03-2019 06:30:00 7.2 C 90 % 5.67 C
2384 15-03-2019 06:35:00 7.2 C 91 % 5.83 C
2385 15-03-2019 06:40:00 7.2 C 91 % 5.83 C
2386 15-03-2019 06:45:00 7.1 C 91 % 5.73 C
2387 15-03-2019 06:50:00 7.1 C 91 % 5.73 C
2388 15-03-2019 06:55:00 7.1 C 92 % 5.89 C
2389 15-03-2019 07:00:00 7 C 92 % 5.79 C
2390 15-03-2019 07:05:00 7 C 92 % 5.79 C
2391 15-03-2019 07:10:00 7.1 C 93 % 6.05 C
2392 15-03-2019 07:15:00 7.1 C 93 % 6.05 C
2393 15-03-2019 07:20:00 7.1 C 93 % 6.05 C
2394 15-03-2019 07:25:00 7.1 C 93 % 6.05 C
2395 15-03-2019 07:30:00 7.1 C 93 % 6.05 C
2396 15-03-2019 07:35:00 7.1 C 93 % 6.05 C
2397 15-03-2019 07:40:00 7.2 C 93 % 6.15 C
2398 15-03-2019 07:45:00 7.2 C 93 % 6.15 C
2399 15-03-2019 07:50:00 7.2 C 93 % 6.15 C
2400 15-03-2019 07:55:00 7.3 C 93 % 6.25 C
Sensor: Nr:Datum:Temp:Feuchte:Taupunkt:
Aussen-T/F 2401 15-03-2019 08:00:00 7.3 C 94 % 6.4 C
2402 15-03-2019 08:05:00 7.3 C 94 % 6.4 C
2403 15-03-2019 08:10:00 7.3 C 94 % 6.4 C
2404 15-03-2019 08:15:00 7.3 C 94 % 6.4 C
2405 15-03-2019 08:20:00 7.4 C 94 % 6.5 C
2406 15-03-2019 08:25:00 7.4 C 94 % 6.5 C
2407 15-03-2019 08:30:00 7.5 C 94 % 6.6 C
2408 15-03-2019 08:35:00 7.6 C 94 % 6.7 C
2409 15-03-2019 08:40:00 7.6 C 94 % 6.7 C
2410 15-03-2019 08:45:00 7.7 C 94 % 6.8 C
2411 15-03-2019 08:50:00 7.7 C 94 % 6.8 C
2412 15-03-2019 08:55:00 7.8 C 94 % 6.9 C
2413 15-03-2019 09:00:00 7.8 C 94 % 6.9 C
2414 15-03-2019 09:05:00 7.8 C 94 % 6.9 C
2415 15-03-2019 09:10:00 7.9 C 94 % 7 C
2416 15-03-2019 09:15:00 7.9 C 94 % 7 C
2417 15-03-2019 09:20:00 8 C 94 % 7.09 C
2418 15-03-2019 09:25:00 8.1 C 94 % 7.19 C
2419 15-03-2019 09:30:00 8.2 C 94 % 7.29 C
2420 15-03-2019 09:35:00 8.3 C 94 % 7.39 C
2421 15-03-2019 09:40:00 8.4 C 94 % 7.49 C
2422 15-03-2019 09:45:00 8.5 C 94 % 7.59 C
2423 15-03-2019 09:50:00 8.7 C 94 % 7.79 C
2424 15-03-2019 09:55:00 8.8 C 94 % 7.89 C
2425 15-03-2019 10:00:00 8.8 C 94 % 7.89 C
Sensor: Nr:Datum:Temp:Feuchte:Taupunkt:
Aussen-T/F 2426 15-03-2019 10:05:00 8.9 C 94 % 7.99 C
2427 15-03-2019 10:10:00 9 C 94 % 8.09 C
2428 15-03-2019 10:15:00 9.1 C 94 % 8.19 C
2429 15-03-2019 10:20:00 9.2 C 94 % 8.29 C
2430 15-03-2019 10:25:00 9.3 C 94 % 8.39 C
2431 15-03-2019 10:30:00 9.5 C 94 % 8.58 C
2432 15-03-2019 10:35:00 9.6 C 94 % 8.68 C
2433 15-03-2019 10:40:00 9.7 C 94 % 8.78 C
2434 15-03-2019 10:45:00 9.7 C 94 % 8.78 C
2435 15-03-2019 10:50:00 9.8 C 94 % 8.88 C
2436 15-03-2019 10:55:00 9.9 C 94 % 8.98 C
2437 15-03-2019 11:00:00 10.1 C 94 % 9.18 C
2438 15-03-2019 11:05:00 10.2 C 93 % 9.12 C
2439 15-03-2019 11:10:00 10.4 C 93 % 9.32 C
2440 15-03-2019 11:15:00 10.7 C 93 % 9.62 C
2441 15-03-2019 11:20:00 10.8 C 92 % 9.55 C
2442 15-03-2019 11:25:00 10.9 C 92 % 9.65 C
2443 15-03-2019 11:30:00 11.1 C 91 % 9.69 C
2444 15-03-2019 11:35:00 11.3 C 91 % 9.89 C
2445 15-03-2019 11:40:00 11.6 C 91 % 10.18 C
2446 15-03-2019 11:45:00 11.7 C 90 % 10.12 C
2447 15-03-2019 11:50:00 11.8 C 89 % 10.05 C
2448 15-03-2019 11:55:00 12 C 90 % 10.41 C
2449 15-03-2019 12:00:00 12.1 C 89 % 10.34 C
2450 15-03-2019 12:05:00 12.2 C 89 % 10.44 C
Sensor: Nr:Datum:Temp:Feuchte:Taupunkt:
Aussen-T/F 2451 15-03-2019 12:10:00 12.2 C 89 % 10.44 C
2452 15-03-2019 12:15:00 12.2 C 88 % 10.27 C
2453 15-03-2019 12:20:00 12.2 C 89 % 10.44 C
2454 15-03-2019 12:25:00 12.2 C 89 % 10.44 C
2455 15-03-2019 12:30:00 12.3 C 89 % 10.54 C
2456 15-03-2019 12:35:00 12.4 C 89 % 10.64 C
2457 15-03-2019 12:40:00 12.6 C 89 % 10.84 C
2458 15-03-2019 12:45:00 12.7 C 88 % 10.77 C
2459 15-03-2019 12:50:00 12.7 C 87 % 10.59 C
2460 15-03-2019 12:55:00 12.8 C 87 % 10.69 C
2461 15-03-2019 13:00:00 12.8 C 87 % 10.69 C
2462 15-03-2019 13:05:00 12.8 C 87 % 10.69 C
2463 15-03-2019 13:10:00 12.9 C 86 % 10.62 C
2464 15-03-2019 13:15:00 12.9 C 85 % 10.44 C
2465 15-03-2019 13:20:00 13.1 C 86 % 10.81 C
2466 15-03-2019 13:25:00 13.1 C 85 % 10.64 C
2467 15-03-2019 13:30:00 13.1 C 84 % 10.46 C
2468 15-03-2019 13:35:00 13.2 C 84 % 10.56 C
2469 15-03-2019 13:40:00 13.3 C 84 % 10.66 C
2470 15-03-2019 13:45:00 13.3 C 83 % 10.48 C
2471 15-03-2019 13:50:00 13.4 C 82 % 10.39 C
2472 15-03-2019 13:55:00 13.5 C 82 % 10.49 C
2473 15-03-2019 14:00:00 13.6 C 81 % 10.4 C
2474 15-03-2019 14:05:00 13.7 C 81 % 10.5 C
2475 15-03-2019 14:10:00 13.8 C 81 % 10.6 C
Sensor: Nr:Datum:Temp:Feuchte:Taupunkt:
Aussen-T/F 2476 15-03-2019 14:15:00 13.8 C 80 % 10.41 C
2477 15-03-2019 14:20:00 13.8 C 81 % 10.6 C
2478 15-03-2019 14:25:00 13.7 C 80 % 10.32 C
2479 15-03-2019 14:30:00 13.7 C 80 % 10.32 C
2480 15-03-2019 14:35:00 13.7 C 81 % 10.5 C
2481 15-03-2019 14:40:00 13.6 C 81 % 10.4 C
2482 15-03-2019 14:45:00 13.6 C 81 % 10.4 C
2483 15-03-2019 14:50:00 13.5 C 82 % 10.49 C
2484 15-03-2019 14:55:00 13.5 C 82 % 10.49 C
2485 15-03-2019 15:00:00 13.6 C 83 % 10.77 C
2486 15-03-2019 15:05:00 13.6 C 83 % 10.77 C
2487 15-03-2019 15:10:00 13.7 C 83 % 10.87 C
2488 15-03-2019 15:15:00 13.7 C 83 % 10.87 C
2489 15-03-2019 15:20:00 13.7 C 83 % 10.87 C
2490 15-03-2019 15:25:00 13.6 C 82 % 10.59 C
2491 15-03-2019 15:30:00 13.5 C 82 % 10.49 C
2492 15-03-2019 15:35:00 13.4 C 82 % 10.39 C
2493 15-03-2019 15:40:00 13.4 C 83 % 10.57 C
2494 15-03-2019 15:45:00 13.4 C 83 % 10.57 C
2495 15-03-2019 15:50:00 13.3 C 83 % 10.48 C
2496 15-03-2019 15:55:00 13.3 C 83 % 10.48 C
2497 15-03-2019 16:00:00 13.3 C 83 % 10.48 C
2498 15-03-2019 16:05:00 13.4 C 82 % 10.39 C
2499 15-03-2019 16:10:00 13.4 C 82 % 10.39 C
2500 15-03-2019 16:15:00 13.4 C 82 % 10.39 C
Sensor: Nr:Datum:Temp:Feuchte:Taupunkt:
Aussen-T/F 2501 15-03-2019 16:20:00 13.4 C 82 % 10.39 C
2502 15-03-2019 16:25:00 13.4 C 82 % 10.39 C
2503 15-03-2019 16:30:00 13.4 C 82 % 10.39 C
2504 15-03-2019 16:35:00 13.4 C 81 % 10.21 C
2505 15-03-2019 16:40:00 13.4 C 82 % 10.39 C
2506 15-03-2019 16:45:00 13.4 C 82 % 10.39 C
2507 15-03-2019 16:50:00 13.4 C 82 % 10.39 C
2508 15-03-2019 16:55:00 13.3 C 82 % 10.3 C
2509 15-03-2019 17:00:00 13.3 C 82 % 10.3 C
2510 15-03-2019 17:05:00 13.2 C 81 % 10.01 C
2511 15-03-2019 17:10:00 13.2 C 82 % 10.2 C
2512 15-03-2019 17:15:00 13.2 C 82 % 10.2 C
2513 15-03-2019 17:20:00 13.2 C 82 % 10.2 C
2514 15-03-2019 17:25:00 13.1 C 82 % 10.1 C
2515 15-03-2019 17:30:00 13.1 C 83 % 10.28 C
2516 15-03-2019 17:35:00 12.9 C 83 % 10.09 C
2517 15-03-2019 17:40:00 12.9 C 84 % 10.26 C
2518 15-03-2019 17:45:00 12.8 C 84 % 10.17 C
2519 15-03-2019 17:50:00 12.8 C 84 % 10.17 C
2520 15-03-2019 17:55:00 12.7 C 84 % 10.07 C
2521 15-03-2019 18:00:00 12.7 C 84 % 10.07 C
2522 15-03-2019 18:05:00 12.7 C 85 % 10.25 C
2523 15-03-2019 18:10:00 12.7 C 85 % 10.25 C
2524 15-03-2019 18:15:00 12.7 C 85 % 10.25 C
2525 15-03-2019 18:20:00 12.7 C 85 % 10.25 C
Sensor: Nr:Datum:Temp:Feuchte:Taupunkt:
Aussen-T/F 2526 15-03-2019 18:25:00 12.7 C 84 % 10.07 C
2527 15-03-2019 18:30:00 12.7 C 84 % 10.07 C
2528 15-03-2019 18:35:00 12.7 C 84 % 10.07 C
2529 15-03-2019 18:40:00 12.7 C 84 % 10.07 C
2530 15-03-2019 18:45:00 12.7 C 84 % 10.07 C
2531 15-03-2019 18:50:00 12.7 C 84 % 10.07 C
2532 15-03-2019 18:55:00 12.8 C 83 % 9.99 C
2533 15-03-2019 19:00:00 12.8 C 83 % 9.99 C
2534 15-03-2019 19:05:00 12.8 C 83 % 9.99 C
2535 15-03-2019 19:10:00 12.8 C 84 % 10.17 C
2536 15-03-2019 19:15:00 12.7 C 84 % 10.07 C
2537 15-03-2019 19:20:00 12.7 C 84 % 10.07 C
2538 15-03-2019 19:25:00 12.6 C 85 % 10.15 C
2539 15-03-2019 19:30:00 12.6 C 85 % 10.15 C
2540 15-03-2019 19:35:00 12.6 C 85 % 10.15 C
2541 15-03-2019 19:40:00 12.6 C 85 % 10.15 C
2542 15-03-2019 19:45:00 12.6 C 85 % 10.15 C
2543 15-03-2019 19:50:00 12.5 C 86 % 10.22 C
2544 15-03-2019 19:55:00 12.4 C 86 % 10.13 C
2545 15-03-2019 20:00:00 12.4 C 86 % 10.13 C
2546 15-03-2019 20:05:00 12.4 C 86 % 10.13 C
2547 15-03-2019 20:10:00 12.4 C 87 % 10.3 C
2548 15-03-2019 20:15:00 12.3 C 88 % 10.37 C
2549 15-03-2019 20:20:00 12.2 C 88 % 10.27 C
2550 15-03-2019 20:25:00 12.1 C 88 % 10.17 C
Sensor: Nr:Datum:Temp:Feuchte:Taupunkt:
Aussen-T/F 2551 15-03-2019 20:30:00 12 C 89 % 10.25 C
2552 15-03-2019 20:35:00 11.9 C 89 % 10.15 C
2553 15-03-2019 20:40:00 11.9 C 89 % 10.15 C
2554 15-03-2019 20:45:00 11.9 C 89 % 10.15 C
2555 15-03-2019 20:50:00 11.9 C 89 % 10.15 C
2556 15-03-2019 20:55:00 11.9 C 89 % 10.15 C
2557 15-03-2019 21:00:00 12 C 88 % 10.08 C
2558 15-03-2019 21:05:00 12.1 C 88 % 10.17 C
2559 15-03-2019 21:10:00 12.2 C 87 % 10.1 C
2560 15-03-2019 21:15:00 12.2 C 87 % 10.1 C
2561 15-03-2019 21:20:00 12.2 C 87 % 10.1 C
2562 15-03-2019 21:25:00 12.2 C 87 % 10.1 C
2563 15-03-2019 21:30:00 12.3 C 86 % 10.03 C
2564 15-03-2019 21:35:00 12.3 C 86 % 10.03 C
2565 15-03-2019 21:40:00 12.3 C 86 % 10.03 C
2566 15-03-2019 21:45:00 12.4 C 86 % 10.13 C
2567 15-03-2019 21:50:00 12.4 C 86 % 10.13 C
2568 15-03-2019 21:55:00 12.4 C 86 % 10.13 C
2569 15-03-2019 22:00:00 12.4 C 86 % 10.13 C
2570 15-03-2019 22:05:00 12.4 C 85 % 9.95 C
2571 15-03-2019 22:10:00 12.4 C 86 % 10.13 C
2572 15-03-2019 22:15:00 12.4 C 86 % 10.13 C
2573 15-03-2019 22:20:00 12.3 C 86 % 10.03 C
2574 15-03-2019 22:25:00 12.4 C 85 % 9.95 C
2575 15-03-2019 22:30:00 12.4 C 85 % 9.95 C
Sensor: Nr:Datum:Temp:Feuchte:Taupunkt:
Aussen-T/F 2576 15-03-2019 22:35:00 12.3 C 85 % 9.85 C
2577 15-03-2019 22:40:00 12.3 C 85 % 9.85 C
2578 15-03-2019 22:45:00 12.4 C 84 % 9.78 C
2579 15-03-2019 22:50:00 12.6 C 84 % 9.97 C
2580 15-03-2019 22:55:00 12.5 C 85 % 10.05 C
2581 15-03-2019 23:00:00 12.3 C 85 % 9.85 C
2582 15-03-2019 23:05:00 12.1 C 86 % 9.83 C
2583 15-03-2019 23:10:00 11.9 C 87 % 9.81 C
2584 15-03-2019 23:15:00 11.8 C 87 % 9.71 C
2585 15-03-2019 23:20:00 11.9 C 87 % 9.81 C
2586 15-03-2019 23:25:00 11.9 C 88 % 9.98 C
2587 15-03-2019 23:30:00 11.8 C 88 % 9.88 C
2588 15-03-2019 23:35:00 11.8 C 89 % 10.05 C
2589 15-03-2019 23:40:00 11.8 C 89 % 10.05 C
2590 15-03-2019 23:45:00 11.7 C 89 % 9.95 C
2591 15-03-2019 23:50:00 11.7 C 89 % 9.95 C
2592 15-03-2019 23:55:00 11.6 C 90 % 10.02 C
2593 16-03-2019 00:00:00 11.6 C 90 % 10.02 C
2594 16-03-2019 00:05:00 11.6 C 90 % 10.02 C
2595 16-03-2019 00:10:00 11.7 C 89 % 9.95 C
2596 16-03-2019 00:15:00 11.7 C 89 % 9.95 C
2597 16-03-2019 00:20:00 11.7 C 89 % 9.95 C
2598 16-03-2019 00:25:00 11.7 C 88 % 9.78 C
2599 16-03-2019 00:30:00 11.7 C 88 % 9.78 C
2600 16-03-2019 00:35:00 11.8 C 88 % 9.88 C
Sensor: Nr:Datum:Temp:Feuchte:Taupunkt:
Aussen-T/F 2601 16-03-2019 00:40:00 11.8 C 88 % 9.88 C
2602 16-03-2019 00:45:00 11.7 C 87 % 9.61 C
2603 16-03-2019 00:50:00 11.1 C 87 % 9.02 C
2604 16-03-2019 00:55:00 10.8 C 89 % 9.06 C
2605 16-03-2019 01:00:00 10.5 C 90 % 8.93 C
2606 16-03-2019 01:05:00 10.3 C 91 % 8.9 C
2607 16-03-2019 01:10:00 10.2 C 91 % 8.8 C
2608 16-03-2019 01:15:00 10.1 C 92 % 8.86 C
2609 16-03-2019 01:20:00 10.1 C 92 % 8.86 C
2610 16-03-2019 01:25:00 10 C 92 % 8.76 C
2611 16-03-2019 01:30:00 9.8 C 93 % 8.72 C
2612 16-03-2019 01:35:00 9.6 C 92 % 8.37 C
2613 16-03-2019 01:40:00 9.3 C 92 % 8.07 C
2614 16-03-2019 01:45:00 9.3 C 92 % 8.07 C
2615 16-03-2019 01:50:00 9.2 C 92 % 7.97 C
2616 16-03-2019 01:55:00 9.1 C 92 % 7.87 C
2617 16-03-2019 02:00:00 9.1 C 93 % 8.03 C
2618 16-03-2019 02:05:00 9.1 C 93 % 8.03 C
2619 16-03-2019 02:10:00 9.1 C 92 % 7.87 C
2620 16-03-2019 02:15:00 9.1 C 92 % 7.87 C
2621 16-03-2019 02:20:00 9 C 92 % 7.77 C
2622 16-03-2019 02:25:00 9 C 92 % 7.77 C
2623 16-03-2019 02:30:00 8.9 C 92 % 7.67 C
2624 16-03-2019 02:35:00 8.9 C 92 % 7.67 C
2625 16-03-2019 02:40:00 8.8 C 92 % 7.57 C
Sensor: Nr:Datum:Temp:Feuchte:Taupunkt:
Aussen-T/F 2626 16-03-2019 02:45:00 8.8 C 92 % 7.57 C
2627 16-03-2019 02:50:00 8.7 C 92 % 7.47 C
2628 16-03-2019 02:55:00 8.7 C 92 % 7.47 C
2629 16-03-2019 03:00:00 8.7 C 93 % 7.63 C
2630 16-03-2019 03:05:00 8.6 C 93 % 7.53 C
2631 16-03-2019 03:10:00 8.5 C 93 % 7.43 C
2632 16-03-2019 03:15:00 8.5 C 93 % 7.43 C
2633 16-03-2019 03:20:00 8.4 C 94 % 7.49 C
2634 16-03-2019 03:25:00 8.4 C 94 % 7.49 C
2635 16-03-2019 03:30:00 8.4 C 94 % 7.49 C
2636 16-03-2019 03:35:00 8.3 C 94 % 7.39 C
2637 16-03-2019 03:40:00 8.3 C 94 % 7.39 C
2638 16-03-2019 03:45:00 8.3 C 94 % 7.39 C
2639 16-03-2019 03:50:00 8.3 C 94 % 7.39 C
2640 16-03-2019 03:55:00 8.3 C 95 % 7.55 C
2641 16-03-2019 04:00:00 8.3 C 95 % 7.55 C
2642 16-03-2019 04:05:00 8.3 C 95 % 7.55 C
2643 16-03-2019 04:10:00 8.3 C 95 % 7.55 C
2644 16-03-2019 04:15:00 8.3 C 95 % 7.55 C
2645 16-03-2019 04:20:00 8.3 C 95 % 7.55 C
2646 16-03-2019 04:25:00 8.3 C 95 % 7.55 C
2647 16-03-2019 04:30:00 8.3 C 95 % 7.55 C
2648 16-03-2019 04:35:00 8.3 C 95 % 7.55 C
2649 16-03-2019 04:40:00 8.3 C 95 % 7.55 C
2650 16-03-2019 04:45:00 8.3 C 95 % 7.55 C
Sensor: Nr:Datum:Temp:Feuchte:Taupunkt:
Aussen-T/F 2651 16-03-2019 04:50:00 8.3 C 95 % 7.55 C
2652 16-03-2019 04:55:00 8.3 C 95 % 7.55 C
2653 16-03-2019 05:00:00 8.3 C 95 % 7.55 C
2654 16-03-2019 05:05:00 8.3 C 95 % 7.55 C
2655 16-03-2019 05:10:00 8.3 C 95 % 7.55 C
2656 16-03-2019 05:15:00 8.3 C 95 % 7.55 C
2657 16-03-2019 05:20:00 8.3 C 95 % 7.55 C
2658 16-03-2019 05:25:00 8.3 C 95 % 7.55 C
2659 16-03-2019 05:30:00 8.3 C 95 % 7.55 C
2660 16-03-2019 05:35:00 8.3 C 95 % 7.55 C
2661 16-03-2019 05:40:00 8.3 C 95 % 7.55 C
2662 16-03-2019 05:45:00 8.3 C 95 % 7.55 C
2663 16-03-2019 05:50:00 8.3 C 95 % 7.55 C
2664 16-03-2019 05:55:00 8.3 C 96 % 7.7 C
2665 16-03-2019 06:00:00 8.3 C 96 % 7.7 C
2666 16-03-2019 06:05:00 8.3 C 96 % 7.7 C
2667 16-03-2019 06:10:00 8.3 C 96 % 7.7 C
2668 16-03-2019 06:15:00 8.3 C 96 % 7.7 C
2669 16-03-2019 06:20:00 8.3 C 96 % 7.7 C
2670 16-03-2019 06:25:00 8.4 C 96 % 7.8 C
2671 16-03-2019 06:30:00 8.7 C 96 % 8.1 C
2672 16-03-2019 06:35:00 8.8 C 96 % 8.2 C
2673 16-03-2019 06:40:00 9.1 C 97 % 8.65 C
2674 16-03-2019 06:45:00 9.3 C 97 % 8.85 C
2675 16-03-2019 06:50:00 9.4 C 97 % 8.95 C
Sensor: Nr:Datum:Temp:Feuchte:Taupunkt:
Aussen-T/F 2676 16-03-2019 06:55:00 9.6 C 97 % 9.15 C
2677 16-03-2019 07:00:00 9.7 C 96 % 9.09 C
2678 16-03-2019 07:05:00 9.7 C 96 % 9.09 C
2679 16-03-2019 07:10:00 9.7 C 96 % 9.09 C
2680 16-03-2019 07:15:00 9.8 C 96 % 9.19 C
2681 16-03-2019 07:20:00 9.8 C 96 % 9.19 C
2682 16-03-2019 07:25:00 9.8 C 95 % 9.04 C
2683 16-03-2019 07:30:00 9.9 C 95 % 9.14 C
2684 16-03-2019 07:35:00 9.9 C 95 % 9.14 C
2685 16-03-2019 07:40:00 10 C 94 % 9.08 C
2686 16-03-2019 07:45:00 10.1 C 94 % 9.18 C
2687 16-03-2019 07:50:00 10.1 C 94 % 9.18 C
2688 16-03-2019 07:55:00 10.1 C 94 % 9.18 C
2689 16-03-2019 08:00:00 10.2 C 94 % 9.28 C
2690 16-03-2019 08:05:00 10.2 C 94 % 9.28 C
2691 16-03-2019 08:10:00 10.2 C 93 % 9.12 C
2692 16-03-2019 08:15:00 10.3 C 93 % 9.22 C
2693 16-03-2019 08:20:00 10.3 C 93 % 9.22 C
2694 16-03-2019 08:25:00 10.3 C 93 % 9.22 C
2695 16-03-2019 08:30:00 10.4 C 93 % 9.32 C
2696 16-03-2019 08:35:00 10.4 C 93 % 9.32 C
2697 16-03-2019 08:40:00 10.5 C 93 % 9.42 C
2698 16-03-2019 08:45:00 10.5 C 93 % 9.42 C
2699 16-03-2019 08:50:00 10.6 C 93 % 9.52 C
2700 16-03-2019 08:55:00 10.6 C 93 % 9.52 C
Sensor: Nr:Datum:Temp:Feuchte:Taupunkt:
Aussen-T/F 2701 16-03-2019 09:00:00 10.7 C 93 % 9.62 C
2702 16-03-2019 09:05:00 10.7 C 92 % 9.45 C
2703 16-03-2019 09:10:00 10.7 C 92 % 9.45 C
2704 16-03-2019 09:15:00 10.7 C 92 % 9.45 C
2705 16-03-2019 09:20:00 10.7 C 92 % 9.45 C
2706 16-03-2019 09:25:00 10.7 C 92 % 9.45 C
2707 16-03-2019 09:30:00 10.7 C 92 % 9.45 C
2708 16-03-2019 09:35:00 10.7 C 92 % 9.45 C
2709 16-03-2019 09:40:00 10.7 C 92 % 9.45 C
2710 16-03-2019 09:45:00 10.7 C 91 % 9.29 C
2711 16-03-2019 09:50:00 10.8 C 91 % 9.39 C
2712 16-03-2019 09:55:00 10.8 C 90 % 9.23 C
2713 16-03-2019 10:00:00 10.8 C 90 % 9.23 C
2714 16-03-2019 10:05:00 10.9 C 90 % 9.33 C
2715 16-03-2019 10:10:00 10.9 C 90 % 9.33 C
2716 16-03-2019 10:15:00 10.9 C 90 % 9.33 C
2717 16-03-2019 10:20:00 10.9 C 90 % 9.33 C
2718 16-03-2019 10:25:00 10.8 C 90 % 9.23 C
2719 16-03-2019 10:30:00 10.9 C 90 % 9.33 C
2720 16-03-2019 10:35:00 10.9 C 89 % 9.16 C
2721 16-03-2019 10:40:00 10.9 C 90 % 9.33 C
2722 16-03-2019 10:45:00 10.8 C 90 % 9.23 C
2723 16-03-2019 10:50:00 10.7 C 90 % 9.13 C
2724 16-03-2019 10:55:00 10.7 C 91 % 9.29 C
2725 16-03-2019 11:00:00 10.7 C 91 % 9.29 C
Sensor: Nr:Datum:Temp:Feuchte:Taupunkt:
Aussen-T/F 2726 16-03-2019 11:05:00 10.7 C 91 % 9.29 C
2727 16-03-2019 11:10:00 10.7 C 91 % 9.29 C
2728 16-03-2019 11:15:00 10.7 C 91 % 9.29 C
2729 16-03-2019 11:20:00 10.7 C 90 % 9.13 C
2730 16-03-2019 11:25:00 10.7 C 90 % 9.13 C
2731 16-03-2019 11:30:00 10.8 C 89 % 9.06 C
2732 16-03-2019 11:35:00 10.8 C 88 % 8.89 C
2733 16-03-2019 11:40:00 10.9 C 88 % 8.99 C
2734 16-03-2019 11:45:00 11 C 88 % 9.09 C
2735 16-03-2019 11:50:00 11.1 C 87 % 9.02 C
2736 16-03-2019 11:55:00 11.1 C 87 % 9.02 C
2737 16-03-2019 12:00:00 11.1 C 87 % 9.02 C
2738 16-03-2019 12:05:00 11.2 C 86 % 8.95 C
2739 16-03-2019 12:10:00 11.2 C 86 % 8.95 C
2740 16-03-2019 12:15:00 11.2 C 85 % 8.77 C
2741 16-03-2019 12:20:00 11.3 C 85 % 8.87 C
2742 16-03-2019 12:25:00 11.4 C 84 % 8.8 C
2743 16-03-2019 12:30:00 11.6 C 84 % 8.99 C
2744 16-03-2019 12:35:00 11.7 C 83 % 8.91 C
2745 16-03-2019 12:40:00 11.8 C 82 % 8.83 C
2746 16-03-2019 12:45:00 11.8 C 82 % 8.83 C
2747 16-03-2019 12:50:00 11.7 C 82 % 8.73 C
2748 16-03-2019 12:55:00 11.6 C 82 % 8.64 C
2749 16-03-2019 13:00:00 11.5 C 81 % 8.36 C
2750 16-03-2019 13:05:00 11.5 C 81 % 8.36 C
Sensor: Nr:Datum:Temp:Feuchte:Taupunkt:
Aussen-T/F 2751 16-03-2019 13:10:00 11.7 C 80 % 8.37 C
2752 16-03-2019 13:15:00 11.8 C 80 % 8.47 C
2753 16-03-2019 13:20:00 11.8 C 79 % 8.28 C
2754 16-03-2019 13:25:00 11.8 C 79 % 8.28 C
2755 16-03-2019 13:30:00 11.9 C 79 % 8.38 C
2756 16-03-2019 13:35:00 11.9 C 79 % 8.38 C
2757 16-03-2019 13:40:00 11.8 C 80 % 8.47 C
2758 16-03-2019 13:45:00 11.8 C 80 % 8.47 C
2759 16-03-2019 13:50:00 11.8 C 81 % 8.65 C
2760 16-03-2019 13:55:00 11.8 C 81 % 8.65 C
2761 16-03-2019 14:00:00 11.7 C 81 % 8.55 C
2762 16-03-2019 14:05:00 11.6 C 80 % 8.27 C
2763 16-03-2019 14:10:00 11.4 C 81 % 8.26 C
2764 16-03-2019 14:15:00 11.3 C 81 % 8.16 C
2765 16-03-2019 14:20:00 11.1 C 81 % 7.97 C
2766 16-03-2019 14:25:00 11.1 C 82 % 8.15 C
2767 16-03-2019 14:30:00 10.9 C 82 % 7.95 C
2768 16-03-2019 14:35:00 10.9 C 81 % 7.77 C
2769 16-03-2019 14:40:00 10.9 C 81 % 7.77 C
2770 16-03-2019 14:45:00 10.9 C 80 % 7.59 C
2771 16-03-2019 14:50:00 10.9 C 80 % 7.59 C
2772 16-03-2019 14:55:00 10.8 C 80 % 7.49 C
2773 16-03-2019 15:00:00 10.8 C 80 % 7.49 C
2774 16-03-2019 15:05:00 10.8 C 79 % 7.31 C
2775 16-03-2019 15:10:00 10.8 C 80 % 7.49 C
Sensor: Nr:Datum:Temp:Feuchte:Taupunkt:
Aussen-T/F 2776 16-03-2019 15:15:00 10.8 C 80 % 7.49 C
2777 16-03-2019 15:20:00 10.9 C 80 % 7.59 C
2778 16-03-2019 15:25:00 10.9 C 79 % 7.41 C
2779 16-03-2019 15:30:00 10.9 C 78 % 7.22 C
2780 16-03-2019 15:35:00 11 C 78 % 7.32 C
2781 16-03-2019 15:40:00 11.1 C 78 % 7.41 C
2782 16-03-2019 15:45:00 11.1 C 77 % 7.23 C
2783 16-03-2019 15:50:00 11.1 C 77 % 7.23 C
2784 16-03-2019 15:55:00 11.1 C 77 % 7.23 C
2785 16-03-2019 16:00:00 11.1 C 78 % 7.41 C
2786 16-03-2019 16:05:00 11 C 78 % 7.32 C
2787 16-03-2019 16:10:00 10.9 C 78 % 7.22 C
2788 16-03-2019 16:15:00 11 C 78 % 7.32 C
2789 16-03-2019 16:20:00 11.1 C 78 % 7.41 C
2790 16-03-2019 16:25:00 11.1 C 77 % 7.23 C
2791 16-03-2019 16:30:00 11 C 78 % 7.32 C
2792 16-03-2019 16:35:00 11 C 77 % 7.13 C
2793 16-03-2019 16:40:00 11 C 77 % 7.13 C
2794 16-03-2019 16:45:00 10.9 C 77 % 7.03 C
2795 16-03-2019 16:50:00 10.9 C 77 % 7.03 C
2796 16-03-2019 16:55:00 10.9 C 76 % 6.84 C
2797 16-03-2019 17:00:00 10.9 C 77 % 7.03 C
2798 16-03-2019 17:05:00 10.9 C 77 % 7.03 C
2799 16-03-2019 17:10:00 10.9 C 76 % 6.84 C
2800 16-03-2019 17:15:00 10.9 C 76 % 6.84 C
Sensor: Nr:Datum:Temp:Feuchte:Taupunkt:
Aussen-T/F 2801 16-03-2019 17:20:00 10.9 C 76 % 6.84 C
2802 16-03-2019 17:25:00 10.9 C 76 % 6.84 C
2803 16-03-2019 17:30:00 10.9 C 76 % 6.84 C
2804 16-03-2019 17:35:00 10.9 C 76 % 6.84 C
2805 16-03-2019 17:40:00 10.9 C 77 % 7.03 C
2806 16-03-2019 17:45:00 10.9 C 76 % 6.84 C
2807 16-03-2019 17:50:00 10.9 C 76 % 6.84 C
2808 16-03-2019 17:55:00 10.9 C 76 % 6.84 C
2809 16-03-2019 18:00:00 10.9 C 76 % 6.84 C
2810 16-03-2019 18:05:00 10.8 C 76 % 6.75 C
2811 16-03-2019 18:10:00 10.8 C 77 % 6.94 C
2812 16-03-2019 18:15:00 10.8 C 77 % 6.94 C
2813 16-03-2019 18:20:00 10.7 C 76 % 6.65 C
2814 16-03-2019 18:25:00 10.7 C 76 % 6.65 C
2815 16-03-2019 18:30:00 10.7 C 77 % 6.84 C
2816 16-03-2019 18:35:00 10.7 C 77 % 6.84 C
2817 16-03-2019 18:40:00 10.6 C 77 % 6.74 C
2818 16-03-2019 18:45:00 10.6 C 76 % 6.55 C
2819 16-03-2019 18:50:00 10.5 C 76 % 6.45 C
2820 16-03-2019 18:55:00 10.5 C 76 % 6.45 C
2821 16-03-2019 19:00:00 10.5 C 76 % 6.45 C
2822 16-03-2019 19:05:00 10.5 C 76 % 6.45 C
2823 16-03-2019 19:10:00 10.5 C 76 % 6.45 C
2824 16-03-2019 19:15:00 10.5 C 76 % 6.45 C
2825 16-03-2019 19:20:00 10.4 C 76 % 6.36 C
Sensor: Nr:Datum:Temp:Feuchte:Taupunkt:
Aussen-T/F 2826 16-03-2019 19:25:00 10.4 C 76 % 6.36 C
2827 16-03-2019 19:30:00 10.4 C 76 % 6.36 C
2828 16-03-2019 19:35:00 10.4 C 76 % 6.36 C
2829 16-03-2019 19:40:00 10.4 C 76 % 6.36 C
2830 16-03-2019 19:45:00 10.4 C 76 % 6.36 C
2831 16-03-2019 19:50:00 10.4 C 76 % 6.36 C
2832 16-03-2019 19:55:00 10.4 C 76 % 6.36 C
2833 16-03-2019 20:00:00 10.4 C 76 % 6.36 C
2834 16-03-2019 20:05:00 10.4 C 76 % 6.36 C
2835 16-03-2019 20:10:00 10.4 C 76 % 6.36 C
2836 16-03-2019 20:15:00 10.3 C 76 % 6.26 C
2837 16-03-2019 20:20:00 10.3 C 75 % 6.07 C
2838 16-03-2019 20:25:00 10.4 C 75 % 6.17 C
2839 16-03-2019 20:30:00 10.4 C 75 % 6.17 C
2840 16-03-2019 20:35:00 10.3 C 75 % 6.07 C
2841 16-03-2019 20:40:00 10.3 C 75 % 6.07 C
2842 16-03-2019 20:45:00 10.3 C 75 % 6.07 C
2843 16-03-2019 20:50:00 10.2 C 76 % 6.16 C
2844 16-03-2019 20:55:00 10.1 C 76 % 6.07 C
2845 16-03-2019 21:00:00 10.1 C 77 % 6.26 C
2846 16-03-2019 21:05:00 9.9 C 78 % 6.25 C
2847 16-03-2019 21:10:00 9.9 C 78 % 6.25 C
2848 16-03-2019 21:15:00 10.1 C 78 % 6.44 C
2849 16-03-2019 21:20:00 10.1 C 78 % 6.44 C
2850 16-03-2019 21:25:00 10.2 C 78 % 6.54 C
Sensor: Nr:Datum:Temp:Feuchte:Taupunkt:
Aussen-T/F 2851 16-03-2019 21:30:00 10.2 C 78 % 6.54 C
2852 16-03-2019 21:35:00 10.3 C 78 % 6.64 C
2853 16-03-2019 21:40:00 10.2 C 78 % 6.54 C
2854 16-03-2019 21:45:00 10.2 C 78 % 6.54 C
2855 16-03-2019 21:50:00 10.1 C 79 % 6.63 C
2856 16-03-2019 21:55:00 10 C 79 % 6.53 C
2857 16-03-2019 22:00:00 10 C 79 % 6.53 C
2858 16-03-2019 22:05:00 10 C 79 % 6.53 C
2859 16-03-2019 22:10:00 10.1 C 79 % 6.63 C
2860 16-03-2019 22:15:00 10 C 80 % 6.71 C
2861 16-03-2019 22:20:00 10 C 79 % 6.53 C
2862 16-03-2019 22:25:00 10.1 C 79 % 6.63 C
2863 16-03-2019 22:30:00 10.1 C 79 % 6.63 C
2864 16-03-2019 22:35:00 10.1 C 79 % 6.63 C
2865 16-03-2019 22:40:00 10.1 C 79 % 6.63 C
2866 16-03-2019 22:45:00 10.2 C 79 % 6.73 C
2867 16-03-2019 22:50:00 10.2 C 79 % 6.73 C
2868 16-03-2019 22:55:00 10.2 C 79 % 6.73 C
2869 16-03-2019 23:00:00 10.2 C 79 % 6.73 C
2870 16-03-2019 23:05:00 10.1 C 79 % 6.63 C
2871 16-03-2019 23:10:00 10.1 C 79 % 6.63 C
2872 16-03-2019 23:15:00 10.1 C 79 % 6.63 C
2873 16-03-2019 23:20:00 10.1 C 80 % 6.81 C
2874 16-03-2019 23:25:00 10 C 80 % 6.71 C
2875 16-03-2019 23:30:00 10.1 C 79 % 6.63 C
Sensor: Nr:Datum:Temp:Feuchte:Taupunkt:
Aussen-T/F 2876 16-03-2019 23:35:00 10.1 C 79 % 6.63 C
2877 16-03-2019 23:40:00 10.1 C 79 % 6.63 C
2878 16-03-2019 23:45:00 10.1 C 79 % 6.63 C
2879 16-03-2019 23:50:00 10.2 C 78 % 6.54 C
2880 16-03-2019 23:55:00 10.2 C 78 % 6.54 C
2881 17-03-2019 00:00:00 10.2 C 78 % 6.54 C
2882 17-03-2019 00:05:00 10.2 C 78 % 6.54 C
2883 17-03-2019 00:10:00 10.2 C 78 % 6.54 C
2884 17-03-2019 00:15:00 10.2 C 78 % 6.54 C
2885 17-03-2019 00:20:00 10.2 C 78 % 6.54 C
2886 17-03-2019 00:25:00 10.3 C 78 % 6.64 C
2887 17-03-2019 00:30:00 10.3 C 78 % 6.64 C
2888 17-03-2019 00:35:00 10.3 C 78 % 6.64 C
2889 17-03-2019 00:40:00 10.4 C 78 % 6.74 C
2890 17-03-2019 00:45:00 10.4 C 77 % 6.55 C
2891 17-03-2019 00:50:00 10.4 C 78 % 6.74 C
2892 17-03-2019 00:55:00 10.4 C 77 % 6.55 C
2893 17-03-2019 01:00:00 10.4 C 77 % 6.55 C
2894 17-03-2019 01:05:00 10.4 C 77 % 6.55 C
2895 17-03-2019 01:10:00 10.4 C 77 % 6.55 C
2896 17-03-2019 01:15:00 10.4 C 77 % 6.55 C
2897 17-03-2019 01:20:00 10.4 C 77 % 6.55 C
2898 17-03-2019 01:25:00 10.5 C 77 % 6.64 C
2899 17-03-2019 01:30:00 10.5 C 77 % 6.64 C
2900 17-03-2019 01:35:00 10.5 C 77 % 6.64 C
Sensor: Nr:Datum:Temp:Feuchte:Taupunkt:
Aussen-T/F 2901 17-03-2019 01:40:00 10.4 C 77 % 6.55 C
2902 17-03-2019 01:45:00 10.5 C 77 % 6.64 C
2903 17-03-2019 01:50:00 10.4 C 77 % 6.55 C
2904 17-03-2019 01:55:00 10.3 C 77 % 6.45 C
2905 17-03-2019 02:00:00 10.3 C 77 % 6.45 C
2906 17-03-2019 02:05:00 10.2 C 77 % 6.35 C
2907 17-03-2019 02:10:00 10.2 C 77 % 6.35 C
2908 17-03-2019 02:15:00 10.2 C 78 % 6.54 C
2909 17-03-2019 02:20:00 10.2 C 78 % 6.54 C
2910 17-03-2019 02:25:00 10.2 C 78 % 6.54 C
2911 17-03-2019 02:30:00 10.2 C 78 % 6.54 C
2912 17-03-2019 02:35:00 10.2 C 78 % 6.54 C
2913 17-03-2019 02:40:00 10.2 C 78 % 6.54 C
2914 17-03-2019 02:45:00 10.2 C 77 % 6.35 C
2915 17-03-2019 02:50:00 10.2 C 78 % 6.54 C
2916 17-03-2019 02:55:00 10.2 C 77 % 6.35 C
2917 17-03-2019 03:00:00 10.2 C 77 % 6.35 C
2918 17-03-2019 03:05:00 10.2 C 77 % 6.35 C
2919 17-03-2019 03:10:00 10.2 C 77 % 6.35 C
2920 17-03-2019 03:15:00 10.2 C 77 % 6.35 C
2921 17-03-2019 03:20:00 10.2 C 77 % 6.35 C
2922 17-03-2019 03:25:00 10.2 C 77 % 6.35 C
2923 17-03-2019 03:30:00 10.2 C 77 % 6.35 C
2924 17-03-2019 03:35:00 10.2 C 77 % 6.35 C
2925 17-03-2019 03:40:00 10.1 C 77 % 6.26 C
Sensor: Nr:Datum:Temp:Feuchte:Taupunkt:
Aussen-T/F 2926 17-03-2019 03:45:00 10.2 C 77 % 6.35 C
2927 17-03-2019 03:50:00 10.2 C 77 % 6.35 C
2928 17-03-2019 03:55:00 10.2 C 77 % 6.35 C
2929 17-03-2019 04:00:00 10.2 C 77 % 6.35 C
2930 17-03-2019 04:05:00 10.1 C 76 % 6.07 C
2931 17-03-2019 04:10:00 10.1 C 76 % 6.07 C
2932 17-03-2019 04:15:00 10.1 C 76 % 6.07 C
2933 17-03-2019 04:20:00 10.1 C 76 % 6.07 C
2934 17-03-2019 04:25:00 10.1 C 76 % 6.07 C
2935 17-03-2019 04:30:00 10.1 C 76 % 6.07 C
2936 17-03-2019 04:35:00 10.1 C 76 % 6.07 C
2937 17-03-2019 04:40:00 10.1 C 76 % 6.07 C
2938 17-03-2019 04:45:00 10.1 C 76 % 6.07 C
2939 17-03-2019 04:50:00 10.1 C 76 % 6.07 C
2940 17-03-2019 04:55:00 10.2 C 76 % 6.16 C
2941 17-03-2019 05:00:00 10.2 C 76 % 6.16 C
2942 17-03-2019 05:05:00 10.2 C 76 % 6.16 C
2943 17-03-2019 05:10:00 10.3 C 75 % 6.07 C
2944 17-03-2019 05:15:00 10.3 C 75 % 6.07 C
2945 17-03-2019 05:20:00 10.3 C 75 % 6.07 C
2946 17-03-2019 05:25:00 10.3 C 75 % 6.07 C
2947 17-03-2019 05:30:00 10.3 C 74 % 5.88 C
2948 17-03-2019 05:35:00 10.3 C 74 % 5.88 C
2949 17-03-2019 05:40:00 10.3 C 74 % 5.88 C
2950 17-03-2019 05:45:00 10.3 C 74 % 5.88 C
Sensor: Nr:Datum:Temp:Feuchte:Taupunkt:
Aussen-T/F 2951 17-03-2019 05:50:00 10.3 C 74 % 5.88 C
2952 17-03-2019 05:55:00 10.3 C 75 % 6.07 C
2953 17-03-2019 06:00:00 10.2 C 75 % 5.97 C
2954 17-03-2019 06:05:00 10.2 C 74 % 5.78 C
2955 17-03-2019 06:10:00 10.2 C 74 % 5.78 C
2956 17-03-2019 06:15:00 10.2 C 74 % 5.78 C
2957 17-03-2019 06:20:00 10.2 C 74 % 5.78 C
2958 17-03-2019 06:25:00 10.2 C 74 % 5.78 C
2959 17-03-2019 06:30:00 10.2 C 74 % 5.78 C
2960 17-03-2019 06:35:00 10.2 C 74 % 5.78 C
2961 17-03-2019 06:40:00 10.3 C 74 % 5.88 C
2962 17-03-2019 06:45:00 10.3 C 74 % 5.88 C
2963 17-03-2019 06:50:00 10.3 C 75 % 6.07 C
2964 17-03-2019 06:55:00 10.3 C 75 % 6.07 C
2965 17-03-2019 07:00:00 10.3 C 75 % 6.07 C
2966 17-03-2019 07:05:00 10.2 C 75 % 5.97 C
2967 17-03-2019 07:10:00 10.3 C 76 % 6.26 C
2968 17-03-2019 07:15:00 10.3 C 75 % 6.07 C
2969 17-03-2019 07:20:00 10.3 C 76 % 6.26 C
2970 17-03-2019 07:25:00 10.3 C 76 % 6.26 C
2971 17-03-2019 07:30:00 10.2 C 76 % 6.16 C
2972 17-03-2019 07:35:00 10.2 C 76 % 6.16 C
2973 17-03-2019 07:40:00 10.2 C 76 % 6.16 C
2974 17-03-2019 07:45:00 10.2 C 77 % 6.35 C
2975 17-03-2019 07:50:00 10.2 C 77 % 6.35 C
Sensor: Nr:Datum:Temp:Feuchte:Taupunkt:
Aussen-T/F 2976 17-03-2019 07:55:00 10.2 C 77 % 6.35 C
2977 17-03-2019 08:00:00 10.2 C 77 % 6.35 C
2978 17-03-2019 08:05:00 10.3 C 77 % 6.45 C
2979 17-03-2019 08:10:00 10.3 C 78 % 6.64 C
2980 17-03-2019 08:15:00 10.3 C 78 % 6.64 C
2981 17-03-2019 08:20:00 10.2 C 78 % 6.54 C
2982 17-03-2019 08:25:00 10.2 C 79 % 6.73 C
2983 17-03-2019 08:30:00 10.2 C 79 % 6.73 C
2984 17-03-2019 08:35:00 10.1 C 80 % 6.81 C
2985 17-03-2019 08:40:00 10.1 C 80 % 6.81 C
2986 17-03-2019 08:45:00 10.1 C 80 % 6.81 C
2987 17-03-2019 08:50:00 10.2 C 80 % 6.91 C
2988 17-03-2019 08:55:00 10.2 C 80 % 6.91 C
2989 17-03-2019 09:00:00 10.2 C 80 % 6.91 C
2990 17-03-2019 09:05:00 10.2 C 80 % 6.91 C
2991 17-03-2019 09:10:00 10.2 C 80 % 6.91 C
2992 17-03-2019 09:15:00 10.2 C 80 % 6.91 C
2993 17-03-2019 09:20:00 10.3 C 80 % 7.01 C
2994 17-03-2019 09:25:00 10.3 C 79 % 6.82 C
2995 17-03-2019 09:30:00 10.3 C 79 % 6.82 C
2996 17-03-2019 09:35:00 10.3 C 80 % 7.01 C
2997 17-03-2019 09:40:00 10.3 C 79 % 6.82 C
2998 17-03-2019 09:45:00 10.3 C 79 % 6.82 C
2999 17-03-2019 09:50:00 10.3 C 80 % 7.01 C
3000 17-03-2019 09:55:00 10.3 C 80 % 7.01 C
Sensor: Nr:Datum:Temp:Feuchte:Taupunkt:
Aussen-T/F 3001 17-03-2019 10:00:00 10.3 C 80 % 7.01 C
3002 17-03-2019 10:05:00 10.2 C 81 % 7.09 C
3003 17-03-2019 10:10:00 10.2 C 82 % 7.27 C
3004 17-03-2019 10:15:00 10.1 C 82 % 7.17 C
3005 17-03-2019 10:20:00 10.1 C 82 % 7.17 C
3006 17-03-2019 10:25:00 10.1 C 82 % 7.17 C
3007 17-03-2019 10:30:00 9.9 C 82 % 6.98 C
3008 17-03-2019 10:35:00 9.8 C 83 % 7.05 C
3009 17-03-2019 10:40:00 9.7 C 84 % 7.13 C
3010 17-03-2019 10:45:00 9.6 C 84 % 7.03 C
3011 17-03-2019 10:50:00 9.5 C 85 % 7.11 C
3012 17-03-2019 10:55:00 9.2 C 84 % 6.64 C
3013 17-03-2019 11:00:00 8.8 C 84 % 6.25 C
3014 17-03-2019 11:05:00 8.3 C 85 % 5.93 C
3015 17-03-2019 11:10:00 8.1 C 85 % 5.73 C
3016 17-03-2019 11:15:00 7.9 C 85 % 5.54 C
3017 17-03-2019 11:20:00 7.8 C 85 % 5.44 C
3018 17-03-2019 11:25:00 7.8 C 85 % 5.44 C
3019 17-03-2019 11:30:00 7.9 C 84 % 5.37 C
3020 17-03-2019 11:35:00 7.9 C 84 % 5.37 C
3021 17-03-2019 11:40:00 7.9 C 83 % 5.2 C
3022 17-03-2019 11:45:00 8 C 83 % 5.29 C
3023 17-03-2019 11:50:00 8.2 C 83 % 5.49 C
3024 17-03-2019 11:55:00 8.3 C 82 % 5.41 C
3025 17-03-2019 12:00:00 8.3 C 81 % 5.24 C
Sensor: Nr:Datum:Temp:Feuchte:Taupunkt:
Aussen-T/F 3026 17-03-2019 12:05:00 8.4 C 81 % 5.33 C
3027 17-03-2019 12:10:00 8.6 C 81 % 5.53 C
3028 17-03-2019 12:15:00 8.7 C 80 % 5.45 C
3029 17-03-2019 12:20:00 8.8 C 79 % 5.36 C
3030 17-03-2019 12:25:00 8.9 C 79 % 5.46 C
3031 17-03-2019 12:30:00 9 C 78 % 5.38 C
3032 17-03-2019 12:35:00 9 C 79 % 5.56 C
3033 17-03-2019 12:40:00 9 C 78 % 5.38 C
3034 17-03-2019 12:45:00 8.9 C 77 % 5.09 C
3035 17-03-2019 12:50:00 8.9 C 77 % 5.09 C
3036 17-03-2019 12:55:00 8.9 C 78 % 5.28 C
3037 17-03-2019 13:00:00 9.1 C 78 % 5.47 C
3038 17-03-2019 13:05:00 9.2 C 77 % 5.38 C
3039 17-03-2019 13:10:00 9.4 C 77 % 5.58 C
3040 17-03-2019 13:15:00 9.7 C 76 % 5.68 C
3041 17-03-2019 13:20:00 9.8 C 76 % 5.78 C
3042 17-03-2019 13:25:00 9.8 C 76 % 5.78 C
3043 17-03-2019 13:30:00 9.9 C 76 % 5.87 C
3044 17-03-2019 13:35:00 10.1 C 75 % 5.88 C
3045 17-03-2019 13:40:00 10.1 C 74 % 5.68 C
3046 17-03-2019 13:45:00 10.2 C 75 % 5.97 C
3047 17-03-2019 13:50:00 10.2 C 74 % 5.78 C
3048 17-03-2019 13:55:00 10.2 C 75 % 5.97 C
3049 17-03-2019 14:00:00 10.3 C 73 % 5.68 C
3050 17-03-2019 14:05:00 10.6 C 72 % 5.77 C
Sensor: Nr:Datum:Temp:Feuchte:Taupunkt:
Aussen-T/F 3051 17-03-2019 14:10:00 10.7 C 68 % 5.04 C
3052 17-03-2019 14:15:00 10.9 C 65 % 4.59 C
3053 17-03-2019 14:20:00 10.7 C 63 % 3.95 C
3054 17-03-2019 14:25:00 10.6 C 63 % 3.86 C
3055 17-03-2019 14:30:00 10.7 C 67 % 4.83 C
3056 17-03-2019 14:35:00 10.8 C 63 % 4.05 C
3057 17-03-2019 14:40:00 10.9 C 59 % 3.21 C
3058 17-03-2019 14:45:00 10.9 C 60 % 3.45 C
3059 17-03-2019 14:50:00 10.8 C 60 % 3.36 C
3060 17-03-2019 14:55:00 10.7 C 62 % 3.73 C
3061 17-03-2019 15:00:00 10.8 C 63 % 4.05 C
3062 17-03-2019 15:05:00 10.9 C 64 % 4.37 C
3063 17-03-2019 15:10:00 11.1 C 67 % 5.21 C
3064 17-03-2019 15:15:00 11.3 C 66 % 5.19 C
3065 17-03-2019 15:20:00 11.4 C 65 % 5.06 C
3066 17-03-2019 15:25:00 11.6 C 62 % 4.58 C
3067 17-03-2019 15:30:00 11.4 C 61 % 4.16 C
3068 17-03-2019 15:35:00 11.2 C 64 % 4.65 C
3069 17-03-2019 15:40:00 10.9 C 65 % 4.59 C
3070 17-03-2019 15:45:00 10.7 C 68 % 5.04 C
3071 17-03-2019 15:50:00 10.5 C 69 % 5.06 C
3072 17-03-2019 15:55:00 10.4 C 71 % 5.38 C
3073 17-03-2019 16:00:00 10.3 C 72 % 5.48 C
3074 17-03-2019 16:05:00 10.4 C 72 % 5.58 C
3075 17-03-2019 16:10:00 10.5 C 69 % 5.06 C
Sensor: Nr:Datum:Temp:Feuchte:Taupunkt:
Aussen-T/F 3076 17-03-2019 16:15:00 10.5 C 65 % 4.21 C
3077 17-03-2019 16:20:00 10.4 C 63 % 3.67 C
3078 17-03-2019 16:25:00 10.3 C 61 % 3.12 C
3079 17-03-2019 16:30:00 10.2 C 60 % 2.79 C
3080 17-03-2019 16:35:00 10 C 61 % 2.84 C
3081 17-03-2019 16:40:00 9.8 C 64 % 3.32 C
3082 17-03-2019 16:45:00 9.6 C 62 % 2.69 C
3083 17-03-2019 16:50:00 9.4 C 63 % 2.72 C
3084 17-03-2019 16:55:00 9.2 C 63 % 2.53 C
3085 17-03-2019 17:00:00 8.6 C 65 % 2.4 C
3086 17-03-2019 17:05:00 8.2 C 68 % 2.66 C
3087 17-03-2019 17:10:00 7.9 C 68 % 2.37 C
3088 17-03-2019 17:15:00 7.9 C 68 % 2.37 C
3089 17-03-2019 17:20:00 7.9 C 68 % 2.37 C
3090 17-03-2019 17:25:00 8 C 67 % 2.26 C
3091 17-03-2019 17:30:00 8 C 67 % 2.26 C
3092 17-03-2019 17:35:00 7.9 C 69 % 2.57 C
3093 17-03-2019 17:40:00 7.8 C 71 % 2.88 C
3094 17-03-2019 17:45:00 7.6 C 73 % 3.08 C
3095 17-03-2019 17:50:00 7.5 C 74 % 3.17 C
3096 17-03-2019 17:55:00 7.4 C 75 % 3.27 C
3097 17-03-2019 18:00:00 7.3 C 75 % 3.17 C
3098 17-03-2019 18:05:00 7.2 C 76 % 3.26 C
3099 17-03-2019 18:10:00 7.2 C 75 % 3.07 C
3100 17-03-2019 18:15:00 7.2 C 75 % 3.07 C
Sensor: Nr:Datum:Temp:Feuchte:Taupunkt:
Aussen-T/F 3101 17-03-2019 18:20:00 7.2 C 75 % 3.07 C
3102 17-03-2019 18:25:00 7.3 C 74 % 2.98 C
3103 17-03-2019 18:30:00 7.2 C 74 % 2.89 C
3104 17-03-2019 18:35:00 7 C 74 % 2.69 C
3105 17-03-2019 18:40:00 6.8 C 76 % 2.87 C
3106 17-03-2019 18:45:00 6.7 C 77 % 2.96 C
3107 17-03-2019 18:50:00 6.6 C 78 % 3.05 C
3108 17-03-2019 18:55:00 6.5 C 78 % 2.95 C
3109 17-03-2019 19:00:00 6.4 C 79 % 3.03 C
3110 17-03-2019 19:05:00 6.4 C 79 % 3.03 C
3111 17-03-2019 19:10:00 6.3 C 79 % 2.93 C
3112 17-03-2019 19:15:00 6.2 C 80 % 3.01 C
3113 17-03-2019 19:20:00 6.1 C 80 % 2.92 C
3114 17-03-2019 19:25:00 5.9 C 80 % 2.72 C
3115 17-03-2019 19:30:00 5.9 C 80 % 2.72 C
3116 17-03-2019 19:35:00 5.8 C 81 % 2.8 C
3117 17-03-2019 19:40:00 5.8 C 81 % 2.8 C
3118 17-03-2019 19:45:00 5.9 C 81 % 2.9 C
3119 17-03-2019 19:50:00 5.6 C 82 % 2.78 C
3120 17-03-2019 19:55:00 5.2 C 85 % 2.89 C
3121 17-03-2019 20:00:00 5 C 87 % 3.02 C
3122 17-03-2019 20:05:00 4.9 C 88 % 3.08 C
3123 17-03-2019 20:10:00 4.7 C 89 % 3.05 C
3124 17-03-2019 20:15:00 4.7 C 89 % 3.05 C
3125 17-03-2019 20:20:00 4.6 C 89 % 2.95 C
Sensor: Nr:Datum:Temp:Feuchte:Taupunkt:
Aussen-T/F 3126 17-03-2019 20:25:00 4.6 C 89 % 2.95 C
3127 17-03-2019 20:30:00 4.5 C 88 % 2.69 C
3128 17-03-2019 20:35:00 4.4 C 89 % 2.75 C
3129 17-03-2019 20:40:00 4.3 C 89 % 2.65 C
3130 17-03-2019 20:45:00 4.2 C 89 % 2.55 C
3131 17-03-2019 20:50:00 4.2 C 90 % 2.71 C
3132 17-03-2019 20:55:00 4.1 C 90 % 2.61 C
3133 17-03-2019 21:00:00 4.2 C 90 % 2.71 C
3134 17-03-2019 21:05:00 4.1 C 90 % 2.61 C
3135 17-03-2019 21:10:00 4.1 C 91 % 2.77 C
3136 17-03-2019 21:15:00 4.1 C 90 % 2.61 C
3137 17-03-2019 21:20:00 4.1 C 91 % 2.77 C
3138 17-03-2019 21:25:00 4.1 C 90 % 2.61 C
3139 17-03-2019 21:30:00 4.1 C 91 % 2.77 C
3140 17-03-2019 21:35:00 4 C 91 % 2.67 C
3141 17-03-2019 21:40:00 4 C 90 % 2.51 C
3142 17-03-2019 21:45:00 3.9 C 90 % 2.41 C
3143 17-03-2019 21:50:00 3.8 C 90 % 2.31 C
3144 17-03-2019 21:55:00 3.8 C 91 % 2.47 C
3145 17-03-2019 22:00:00 3.8 C 91 % 2.47 C
3146 17-03-2019 22:05:00 3.8 C 91 % 2.47 C
3147 17-03-2019 22:10:00 3.8 C 91 % 2.47 C
3148 17-03-2019 22:15:00 3.9 C 90 % 2.41 C
3149 17-03-2019 22:20:00 3.9 C 90 % 2.41 C
3150 17-03-2019 22:25:00 3.9 C 90 % 2.41 C
Sensor: Nr:Datum:Temp:Feuchte:Taupunkt:
Aussen-T/F 3151 17-03-2019 22:30:00 3.9 C 90 % 2.41 C
3152 17-03-2019 22:35:00 3.9 C 90 % 2.41 C
3153 17-03-2019 22:40:00 3.9 C 90 % 2.41 C
3154 17-03-2019 22:45:00 3.9 C 89 % 2.26 C
3155 17-03-2019 22:50:00 3.9 C 88 % 2.1 C
3156 17-03-2019 22:55:00 3.9 C 88 % 2.1 C
3157 17-03-2019 23:00:00 3.9 C 88 % 2.1 C
3158 17-03-2019 23:05:00 3.9 C 88 % 2.1 C
3159 17-03-2019 23:10:00 4 C 88 % 2.2 C
3160 17-03-2019 23:15:00 4 C 88 % 2.2 C
3161 17-03-2019 23:20:00 3.9 C 88 % 2.1 C
3162 17-03-2019 23:25:00 3.9 C 88 % 2.1 C
3163 17-03-2019 23:30:00 3.9 C 88 % 2.1 C
3164 17-03-2019 23:35:00 3.9 C 88 % 2.1 C
3165 17-03-2019 23:40:00 3.8 C 88 % 2 C
3166 17-03-2019 23:45:00 3.7 C 88 % 1.9 C
3167 17-03-2019 23:50:00 3.6 C 88 % 1.8 C
3168 17-03-2019 23:55:00 3.5 C 88 % 1.7 C
3169 18-03-2019 00:00:00 3.4 C 89 % 1.76 C
3170 18-03-2019 00:05:00 3.3 C 89 % 1.67 C
3171 18-03-2019 00:10:00 3.2 C 89 % 1.57 C
3172 18-03-2019 00:15:00 3.1 C 89 % 1.47 C
3173 18-03-2019 00:20:00 3 C 89 % 1.37 C
3174 18-03-2019 00:25:00 2.9 C 90 % 1.43 C
3175 18-03-2019 00:30:00 2.8 C 90 % 1.33 C
Sensor: Nr:Datum:Temp:Feuchte:Taupunkt:
Aussen-T/F 3176 18-03-2019 00:35:00 2.7 C 90 % 1.23 C
3177 18-03-2019 00:40:00 2.7 C 91 % 1.38 C
3178 18-03-2019 00:45:00 2.7 C 92 % 1.53 C
3179 18-03-2019 00:50:00 2.8 C 91 % 1.48 C
3180 18-03-2019 00:55:00 2.8 C 91 % 1.48 C
3181 18-03-2019 01:00:00 2.7 C 91 % 1.38 C
3182 18-03-2019 01:05:00 2.6 C 91 % 1.28 C
3183 18-03-2019 01:10:00 2.6 C 92 % 1.43 C
3184 18-03-2019 01:15:00 2.6 C 92 % 1.43 C
3185 18-03-2019 01:20:00 2.7 C 92 % 1.53 C
3186 18-03-2019 01:25:00 2.7 C 92 % 1.53 C
3187 18-03-2019 01:30:00 2.6 C 92 % 1.43 C
3188 18-03-2019 01:35:00 2.5 C 91 % 1.18 C
3189 18-03-2019 01:40:00 2.4 C 91 % 1.08 C
3190 18-03-2019 01:45:00 2.3 C 92 % 1.14 C
3191 18-03-2019 01:50:00 2.4 C 92 % 1.24 C
3192 18-03-2019 01:55:00 2.5 C 92 % 1.34 C
3193 18-03-2019 02:00:00 2.7 C 93 % 1.68 C
3194 18-03-2019 02:05:00 2.8 C 93 % 1.78 C
3195 18-03-2019 02:10:00 2.9 C 92 % 1.73 C
3196 18-03-2019 02:15:00 2.9 C 92 % 1.73 C
3197 18-03-2019 02:20:00 2.9 C 92 % 1.73 C
3198 18-03-2019 02:25:00 2.9 C 92 % 1.73 C
3199 18-03-2019 02:30:00 3.1 C 92 % 1.93 C
3200 18-03-2019 02:35:00 3.3 C 91 % 1.98 C
Sensor: Nr:Datum:Temp:Feuchte:Taupunkt:
Aussen-T/F 3201 18-03-2019 02:40:00 3.6 C 90 % 2.12 C
3202 18-03-2019 02:45:00 3.8 C 89 % 2.16 C
3203 18-03-2019 02:50:00 3.9 C 88 % 2.1 C
3204 18-03-2019 02:55:00 3.9 C 88 % 2.1 C
3205 18-03-2019 03:00:00 3.9 C 88 % 2.1 C
3206 18-03-2019 03:05:00 3.9 C 88 % 2.1 C
3207 18-03-2019 03:10:00 3.8 C 87 % 1.84 C
3208 18-03-2019 03:15:00 3.8 C 87 % 1.84 C
3209 18-03-2019 03:20:00 3.8 C 88 % 2 C
3210 18-03-2019 03:25:00 3.7 C 88 % 1.9 C
3211 18-03-2019 03:30:00 3.6 C 88 % 1.8 C
3212 18-03-2019 03:35:00 3.4 C 89 % 1.76 C
3213 18-03-2019 03:40:00 3.4 C 89 % 1.76 C
3214 18-03-2019 03:45:00 3.3 C 89 % 1.67 C
3215 18-03-2019 03:50:00 3.4 C 89 % 1.76 C
3216 18-03-2019 03:55:00 3.4 C 90 % 1.92 C
3217 18-03-2019 04:00:00 3.4 C 89 % 1.76 C
3218 18-03-2019 04:05:00 3.4 C 89 % 1.76 C
3219 18-03-2019 04:10:00 3.4 C 90 % 1.92 C
3220 18-03-2019 04:15:00 3.4 C 89 % 1.76 C
3221 18-03-2019 04:20:00 3.4 C 89 % 1.76 C
3222 18-03-2019 04:25:00 3.3 C 89 % 1.67 C
3223 18-03-2019 04:30:00 3.2 C 89 % 1.57 C
3224 18-03-2019 04:35:00 3.2 C 90 % 1.72 C
3225 18-03-2019 04:40:00 3.1 C 90 % 1.62 C
Sensor: Nr:Datum:Temp:Feuchte:Taupunkt:
Aussen-T/F 3226 18-03-2019 04:45:00 3.1 C 90 % 1.62 C
3227 18-03-2019 04:50:00 3.1 C 90 % 1.62 C
3228 18-03-2019 04:55:00 3 C 90 % 1.52 C
3229 18-03-2019 05:00:00 2.9 C 90 % 1.43 C
3230 18-03-2019 05:05:00 2.9 C 90 % 1.43 C
3231 18-03-2019 05:10:00 2.9 C 90 % 1.43 C
3232 18-03-2019 05:15:00 2.9 C 90 % 1.43 C
3233 18-03-2019 05:20:00 3.1 C 90 % 1.62 C
3234 18-03-2019 05:25:00 3.1 C 90 % 1.62 C
3235 18-03-2019 05:30:00 3.2 C 90 % 1.72 C
3236 18-03-2019 05:35:00 3.2 C 89 % 1.57 C
3237 18-03-2019 05:40:00 3.2 C 89 % 1.57 C
3238 18-03-2019 05:45:00 3.2 C 89 % 1.57 C
3239 18-03-2019 05:50:00 3.3 C 89 % 1.67 C
3240 18-03-2019 05:55:00 3.4 C 89 % 1.76 C
3241 18-03-2019 06:00:00 3.5 C 88 % 1.7 C
3242 18-03-2019 06:05:00 3.6 C 88 % 1.8 C
3243 18-03-2019 06:10:00 3.7 C 87 % 1.74 C
3244 18-03-2019 06:15:00 3.8 C 87 % 1.84 C
3245 18-03-2019 06:20:00 4 C 86 % 1.88 C
3246 18-03-2019 06:25:00 4.1 C 86 % 1.97 C
3247 18-03-2019 06:30:00 4.2 C 86 % 2.07 C
3248 18-03-2019 06:35:00 4.2 C 86 % 2.07 C
3249 18-03-2019 06:40:00 4.1 C 86 % 1.97 C
3250 18-03-2019 06:45:00 4.1 C 86 % 1.97 C
Sensor: Nr:Datum:Temp:Feuchte:Taupunkt:
Aussen-T/F 3251 18-03-2019 06:50:00 4.1 C 86 % 1.97 C
3252 18-03-2019 06:55:00 4.1 C 86 % 1.97 C
3253 18-03-2019 07:00:00 4 C 86 % 1.88 C
3254 18-03-2019 07:05:00 3.9 C 86 % 1.78 C
3255 18-03-2019 07:10:00 3.9 C 87 % 1.94 C
3256 18-03-2019 07:15:00 3.9 C 87 % 1.94 C
3257 18-03-2019 07:20:00 3.9 C 88 % 2.1 C
3258 18-03-2019 07:25:00 4.1 C 87 % 2.14 C
3259 18-03-2019 07:30:00 4.3 C 87 % 2.33 C
3260 18-03-2019 07:35:00 4.3 C 87 % 2.33 C
3261 18-03-2019 07:40:00 4.4 C 86 % 2.27 C
3262 18-03-2019 07:45:00 4.6 C 86 % 2.47 C
3263 18-03-2019 07:50:00 4.7 C 85 % 2.4 C
3264 18-03-2019 07:55:00 4.7 C 85 % 2.4 C
3265 18-03-2019 08:00:00 4.8 C 85 % 2.5 C
3266 18-03-2019 08:05:00 4.8 C 85 % 2.5 C
3267 18-03-2019 08:10:00 4.8 C 85 % 2.5 C
3268 18-03-2019 08:15:00 4.9 C 85 % 2.6 C
3269 18-03-2019 08:20:00 4.9 C 86 % 2.76 C
3270 18-03-2019 08:25:00 5 C 86 % 2.86 C
3271 18-03-2019 08:30:00 5.1 C 86 % 2.96 C
3272 18-03-2019 08:35:00 5.1 C 86 % 2.96 C
3273 18-03-2019 08:40:00 5.2 C 86 % 3.05 C
3274 18-03-2019 08:45:00 5.3 C 86 % 3.15 C
3275 18-03-2019 08:50:00 5.3 C 86 % 3.15 C
Sensor: Nr:Datum:Temp:Feuchte:Taupunkt:
Aussen-T/F 3276 18-03-2019 08:55:00 5.3 C 87 % 3.32 C
3277 18-03-2019 09:00:00 5.2 C 88 % 3.38 C
3278 18-03-2019 09:05:00 5.1 C 89 % 3.44 C
3279 18-03-2019 09:10:00 5 C 89 % 3.34 C
3280 18-03-2019 09:15:00 5 C 90 % 3.5 C
3281 18-03-2019 09:20:00 5.1 C 90 % 3.6 C
3282 18-03-2019 09:25:00 5.1 C 90 % 3.6 C
3283 18-03-2019 09:30:00 5.2 C 91 % 3.85 C
3284 18-03-2019 09:35:00 5.1 C 89 % 3.44 C
3285 18-03-2019 09:40:00 4.9 C 89 % 3.24 C
3286 18-03-2019 09:45:00 4.9 C 90 % 3.4 C
3287 18-03-2019 09:50:00 5 C 90 % 3.5 C
3288 18-03-2019 09:55:00 5.2 C 90 % 3.7 C
3289 18-03-2019 10:00:00 5.3 C 90 % 3.8 C
3290 18-03-2019 10:05:00 5.6 C 90 % 4.09 C
3291 18-03-2019 10:10:00 5.9 C 89 % 4.23 C
3292 18-03-2019 10:15:00 6.2 C 88 % 4.36 C
3293 18-03-2019 10:20:00 6.3 C 87 % 4.3 C
3294 18-03-2019 10:25:00 6.4 C 85 % 4.07 C
3295 18-03-2019 10:30:00 6.4 C 84 % 3.9 C
3296 18-03-2019 10:35:00 6.5 C 84 % 4 C
3297 18-03-2019 10:40:00 6.7 C 84 % 4.19 C
3298 18-03-2019 10:45:00 6.9 C 84 % 4.39 C
3299 18-03-2019 10:50:00 7.1 C 82 % 4.24 C
3300 18-03-2019 10:55:00 7.1 C 81 % 4.07 C
Sensor: Nr:Datum:Temp:Feuchte:Taupunkt:
Aussen-T/F 3301 18-03-2019 11:00:00 7 C 81 % 3.97 C
3302 18-03-2019 11:05:00 7 C 82 % 4.14 C
3303 18-03-2019 11:10:00 7.2 C 82 % 4.34 C
3304 18-03-2019 11:15:00 7.4 C 81 % 4.36 C
3305 18-03-2019 11:20:00 7.7 C 80 % 4.47 C
3306 18-03-2019 11:25:00 7.7 C 78 % 4.11 C
3307 18-03-2019 11:30:00 7.7 C 78 % 4.11 C
3308 18-03-2019 11:35:00 7.9 C 77 % 4.12 C
3309 18-03-2019 11:40:00 8.1 C 74 % 3.75 C
3310 18-03-2019 11:45:00 8.2 C 72 % 3.46 C
3311 18-03-2019 11:50:00 8.4 C 72 % 3.65 C
3312 18-03-2019 11:55:00 8.6 C 72 % 3.85 C
3313 18-03-2019 12:00:00 8.7 C 70 % 3.54 C
3314 18-03-2019 12:05:00 8.6 C 68 % 3.04 C
3315 18-03-2019 12:10:00 8.5 C 70 % 3.35 C
3316 18-03-2019 12:15:00 8.8 C 68 % 3.23 C
3317 18-03-2019 12:20:00 9.1 C 68 % 3.52 C
3318 18-03-2019 12:25:00 9.1 C 65 % 2.88 C
3319 18-03-2019 12:30:00 8.8 C 66 % 2.81 C
3320 18-03-2019 12:35:00 8.6 C 70 % 3.45 C
3321 18-03-2019 12:40:00 7.5 C 75 % 3.36 C
3322 18-03-2019 12:45:00 6.7 C 79 % 3.32 C
3323 18-03-2019 12:50:00 6.3 C 81 % 3.29 C
3324 18-03-2019 12:55:00 6.1 C 83 % 3.44 C
3325 18-03-2019 13:00:00 6.1 C 85 % 3.77 C
Sensor: Nr:Datum:Temp:Feuchte:Taupunkt:
Aussen-T/F 3326 18-03-2019 13:05:00 6 C 85 % 3.67 C
3327 18-03-2019 13:10:00 6 C 86 % 3.84 C
3328 18-03-2019 13:15:00 6.1 C 86 % 3.94 C
3329 18-03-2019 13:20:00 6.2 C 86 % 4.04 C
3330 18-03-2019 13:25:00 6.4 C 87 % 4.4 C
3331 18-03-2019 13:30:00 6.7 C 87 % 4.69 C
3332 18-03-2019 13:35:00 6.8 C 85 % 4.46 C
3333 18-03-2019 13:40:00 7.1 C 85 % 4.75 C
3334 18-03-2019 13:45:00 7.3 C 84 % 4.78 C
3335 18-03-2019 13:50:00 7.5 C 82 % 4.63 C
3336 18-03-2019 13:55:00 7.8 C 80 % 4.57 C
3337 18-03-2019 14:00:00 8.2 C 78 % 4.6 C
3338 18-03-2019 14:05:00 8.6 C 78 % 4.99 C
3339 18-03-2019 14:10:00 8.7 C 76 % 4.71 C
3340 18-03-2019 14:15:00 8.6 C 77 % 4.8 C
3341 18-03-2019 14:20:00 8.2 C 72 % 3.46 C
3342 18-03-2019 14:25:00 8 C 74 % 3.66 C
3343 18-03-2019 14:30:00 8.2 C 72 % 3.46 C
3344 18-03-2019 14:35:00 8.4 C 71 % 3.46 C
3345 18-03-2019 14:40:00 8.7 C 69 % 3.34 C
3346 18-03-2019 14:45:00 8.8 C 67 % 3.02 C
3347 18-03-2019 14:50:00 8.7 C 66 % 2.71 C
3348 18-03-2019 14:55:00 8.1 C 73 % 3.56 C
3349 18-03-2019 15:00:00 7.3 C 79 % 3.91 C
3350 18-03-2019 15:05:00 6.8 C 82 % 3.95 C
Sensor: Nr:Datum:Temp:Feuchte:Taupunkt:
Aussen-T/F 3351 18-03-2019 15:10:00 6.4 C 85 % 4.07 C
3352 18-03-2019 15:15:00 6.3 C 86 % 4.14 C
3353 18-03-2019 15:20:00 6.3 C 88 % 4.46 C
3354 18-03-2019 15:25:00 6.3 C 86 % 4.14 C
3355 18-03-2019 15:30:00 6.5 C 88 % 4.66 C
3356 18-03-2019 15:35:00 6.7 C 88 % 4.86 C
3357 18-03-2019 15:40:00 6.8 C 88 % 4.96 C
3358 18-03-2019 15:45:00 6.9 C 86 % 4.72 C
3359 18-03-2019 15:50:00 7.1 C 88 % 5.25 C
3360 18-03-2019 15:55:00 7.2 C 87 % 5.19 C
3361 18-03-2019 16:00:00 7.3 C 87 % 5.28 C
3362 18-03-2019 16:05:00 7.2 C 87 % 5.19 C
3363 18-03-2019 16:10:00 7.1 C 87 % 5.09 C
3364 18-03-2019 16:15:00 6.8 C 87 % 4.79 C
3365 18-03-2019 16:20:00 6.7 C 88 % 4.86 C
3366 18-03-2019 16:25:00 6.6 C 88 % 4.76 C
3367 18-03-2019 16:30:00 6.6 C 89 % 4.92 C
3368 18-03-2019 16:35:00 6.6 C 89 % 4.92 C
3369 18-03-2019 16:40:00 6.7 C 85 % 4.36 C
3370 18-03-2019 16:45:00 6.8 C 83 % 4.12 C
3371 18-03-2019 16:50:00 7 C 83 % 4.32 C
3372 18-03-2019 16:55:00 7.1 C 81 % 4.07 C
3373 18-03-2019 17:00:00 7.3 C 82 % 4.44 C
3374 18-03-2019 17:05:00 7.7 C 79 % 4.3 C
3375 18-03-2019 17:10:00 8.2 C 78 % 4.6 C
Sensor: Nr:Datum:Temp:Feuchte:Taupunkt:
Aussen-T/F 3376 18-03-2019 17:15:00 8.5 C 75 % 4.33 C
3377 18-03-2019 17:20:00 8.5 C 73 % 3.95 C
3378 18-03-2019 17:25:00 8.3 C 73 % 3.75 C
3379 18-03-2019 17:30:00 8.1 C 74 % 3.75 C
3380 18-03-2019 17:35:00 7.9 C 72 % 3.17 C
3381 18-03-2019 17:40:00 7.8 C 72 % 3.08 C
3382 18-03-2019 17:45:00 7.8 C 72 % 3.08 C
3383 18-03-2019 17:50:00 7.7 C 70 % 2.58 C
3384 18-03-2019 17:55:00 7.7 C 72 % 2.98 C
3385 18-03-2019 18:00:00 7.6 C 70 % 2.49 C
3386 18-03-2019 18:05:00 7.5 C 72 % 2.79 C
3387 18-03-2019 18:10:00 7.4 C 72 % 2.69 C
3388 18-03-2019 18:15:00 7.6 C 75 % 3.46 C
3389 18-03-2019 18:20:00 7.7 C 73 % 3.18 C
3390 18-03-2019 18:25:00 7.9 C 74 % 3.56 C
3391 18-03-2019 18:30:00 7.9 C 75 % 3.75 C
3392 18-03-2019 18:35:00 7.8 C 76 % 3.84 C
3393 18-03-2019 18:40:00 7.6 C 77 % 3.83 C
3394 18-03-2019 18:45:00 7.3 C 79 % 3.91 C
3395 18-03-2019 18:50:00 7 C 80 % 3.79 C
3396 18-03-2019 18:55:00 6.6 C 81 % 3.58 C
3397 18-03-2019 19:00:00 6.3 C 82 % 3.46 C
3398 18-03-2019 19:05:00 5.9 C 82 % 3.07 C
3399 18-03-2019 19:10:00 5.6 C 83 % 2.95 C
3400 18-03-2019 19:15:00 5.4 C 85 % 3.09 C
Sensor: Nr:Datum:Temp:Feuchte:Taupunkt:
Aussen-T/F 3401 18-03-2019 19:20:00 5.2 C 85 % 2.89 C
3402 18-03-2019 19:25:00 5.1 C 86 % 2.96 C
3403 18-03-2019 19:30:00 4.9 C 86 % 2.76 C
3404 18-03-2019 19:35:00 4.9 C 87 % 2.92 C
3405 18-03-2019 19:40:00 4.9 C 87 % 2.92 C
3406 18-03-2019 19:45:00 4.8 C 87 % 2.82 C
3407 18-03-2019 19:50:00 4.8 C 87 % 2.82 C
3408 18-03-2019 19:55:00 4.7 C 87 % 2.73 C
3409 18-03-2019 20:00:00 4.6 C 86 % 2.47 C
3410 18-03-2019 20:05:00 4.4 C 86 % 2.27 C
3411 18-03-2019 20:10:00 4.3 C 86 % 2.17 C
3412 18-03-2019 20:15:00 4.2 C 86 % 2.07 C
3413 18-03-2019 20:20:00 4.1 C 85 % 1.81 C
3414 18-03-2019 20:25:00 4.1 C 86 % 1.97 C
3415 18-03-2019 20:30:00 4 C 86 % 1.88 C
3416 18-03-2019 20:35:00 3.9 C 86 % 1.78 C
3417 18-03-2019 20:40:00 3.8 C 86 % 1.68 C
3418 18-03-2019 20:45:00 3.7 C 86 % 1.58 C
3419 18-03-2019 20:50:00 3.6 C 86 % 1.48 C
3420 18-03-2019 20:55:00 3.5 C 87 % 1.55 C
3421 18-03-2019 21:00:00 3.4 C 87 % 1.45 C
3422 18-03-2019 21:05:00 3.3 C 87 % 1.35 C
3423 18-03-2019 21:10:00 3.2 C 87 % 1.25 C
3424 18-03-2019 21:15:00 3.2 C 87 % 1.25 C
3425 18-03-2019 21:20:00 3.2 C 88 % 1.41 C
Sensor: Nr:Datum:Temp:Feuchte:Taupunkt:
Aussen-T/F 3426 18-03-2019 21:25:00 3.1 C 88 % 1.31 C
3427 18-03-2019 21:30:00 3.1 C 88 % 1.31 C
3428 18-03-2019 21:35:00 3.1 C 88 % 1.31 C
3429 18-03-2019 21:40:00 3 C 88 % 1.21 C
3430 18-03-2019 21:45:00 2.9 C 89 % 1.27 C
3431 18-03-2019 21:50:00 2.8 C 89 % 1.17 C
3432 18-03-2019 21:55:00 2.8 C 89 % 1.17 C
3433 18-03-2019 22:00:00 2.7 C 89 % 1.07 C
3434 18-03-2019 22:05:00 2.6 C 89 % 0.97 C
3435 18-03-2019 22:10:00 2.4 C 89 % 0.78 C
3436 18-03-2019 22:15:00 2.3 C 89 % 0.68 C
3437 18-03-2019 22:20:00 2.1 C 89 % 0.48 C
3438 18-03-2019 22:25:00 1.9 C 89 % 0.28 C
3439 18-03-2019 22:30:00 1.8 C 90 % 0.34 C
3440 18-03-2019 22:35:00 1.8 C 90 % 0.34 C
3441 18-03-2019 22:40:00 1.8 C 90 % 0.34 C
3442 18-03-2019 22:45:00 1.7 C 91 % 0.39 C
3443 18-03-2019 22:50:00 1.7 C 91 % 0.39 C
3444 18-03-2019 22:55:00 1.7 C 91 % 0.39 C
3445 18-03-2019 23:00:00 1.6 C 91 % 0.29 C
3446 18-03-2019 23:05:00 1.6 C 91 % 0.29 C
3447 18-03-2019 23:10:00 1.6 C 92 % 0.44 C
3448 18-03-2019 23:15:00 1.6 C 92 % 0.44 C
3449 18-03-2019 23:20:00 1.6 C 92 % 0.44 C
3450 18-03-2019 23:25:00 1.6 C 92 % 0.44 C
Sensor: Nr:Datum:Temp:Feuchte:Taupunkt:
Aussen-T/F 3451 18-03-2019 23:30:00 1.5 C 92 % 0.35 C
3452 18-03-2019 23:35:00 1.4 C 92 % 0.25 C
3453 18-03-2019 23:40:00 1.4 C 92 % 0.25 C
3454 18-03-2019 23:45:00 1.3 C 92 % 0.15 C
3455 18-03-2019 23:50:00 1.3 C 92 % 0.15 C
3456 18-03-2019 23:55:00 1.3 C 92 % 0.15 C
3457 19-03-2019 00:00:00 1.2 C 92 % 0.05 C
3458 19-03-2019 00:05:00 1.1 C 92 % -0.05 C
3459 19-03-2019 00:10:00 1.1 C 92 % -0.05 C
3460 19-03-2019 00:15:00 1.1 C 93 % 0.1 C
3461 19-03-2019 00:20:00 1.1 C 92 % -0.05 C
3462 19-03-2019 00:25:00 1.1 C 93 % 0.1 C
3463 19-03-2019 00:30:00 1 C 93 % 0 C
3464 19-03-2019 00:35:00 0.9 C 92 % -0.25 C
3465 19-03-2019 00:40:00 0.8 C 92 % -0.35 C
3466 19-03-2019 00:45:00 0.7 C 92 % -0.45 C
3467 19-03-2019 00:50:00 0.6 C 92 % -0.55 C
3468 19-03-2019 00:55:00 0.5 C 93 % -0.5 C
3469 19-03-2019 01:00:00 0.5 C 93 % -0.5 C
3470 19-03-2019 01:05:00 0.5 C 93 % -0.5 C
3471 19-03-2019 01:10:00 0.5 C 93 % -0.5 C
3472 19-03-2019 01:15:00 0.4 C 93 % -0.6 C
3473 19-03-2019 01:20:00 0.4 C 93 % -0.6 C
3474 19-03-2019 01:25:00 0.3 C 93 % -0.7 C
3475 19-03-2019 01:30:00 0.3 C 93 % -0.7 C
Sensor: Nr:Datum:Temp:Feuchte:Taupunkt:
Aussen-T/F 3476 19-03-2019 01:35:00 0.3 C 93 % -0.7 C
3477 19-03-2019 01:40:00 0.4 C 93 % -0.6 C
3478 19-03-2019 01:45:00 0.3 C 93 % -0.7 C
3479 19-03-2019 01:50:00 0.2 C 93 % -0.79 C
3480 19-03-2019 01:55:00 0.2 C 93 % -0.79 C
3481 19-03-2019 02:00:00 0.1 C 93 % -0.89 C
3482 19-03-2019 02:05:00 0.1 C 93 % -0.89 C
3483 19-03-2019 02:10:00 -0.1 C 93 % -1.09 C
3484 19-03-2019 02:15:00 -0.1 C 93 % -1.09 C
3485 19-03-2019 02:20:00 -0.1 C 94 % -0.95 C
3486 19-03-2019 02:25:00 -0.1 C 94 % -0.95 C
3487 19-03-2019 02:30:00 -0.1 C 94 % -0.95 C
3488 19-03-2019 02:35:00 0 C 94 % -0.85 C
3489 19-03-2019 02:40:00 -0.1 C 94 % -0.95 C
3490 19-03-2019 02:45:00 -0.1 C 94 % -0.95 C
3491 19-03-2019 02:50:00 -0.1 C 94 % -0.95 C
3492 19-03-2019 02:55:00 0.1 C 94 % -0.75 C
3493 19-03-2019 03:00:00 0 C 94 % -0.85 C
3494 19-03-2019 03:05:00 -0.1 C 94 % -0.95 C
3495 19-03-2019 03:10:00 -0.2 C 94 % -1.05 C
3496 19-03-2019 03:15:00 -0.2 C 94 % -1.05 C
3497 19-03-2019 03:20:00 -0.2 C 94 % -1.05 C
3498 19-03-2019 03:25:00 -0.3 C 94 % -1.15 C
3499 19-03-2019 03:30:00 -0.3 C 94 % -1.15 C
3500 19-03-2019 03:35:00 -0.4 C 94 % -1.25 C
Sensor: Nr:Datum:Temp:Feuchte:Taupunkt:
Aussen-T/F 3501 19-03-2019 03:40:00 -0.4 C 94 % -1.25 C
3502 19-03-2019 03:45:00 -0.4 C 94 % -1.25 C
3503 19-03-2019 03:50:00 -0.5 C 94 % -1.34 C
3504 19-03-2019 03:55:00 -0.6 C 94 % -1.44 C
3505 19-03-2019 04:00:00 -0.7 C 94 % -1.54 C
3506 19-03-2019 04:05:00 -0.7 C 94 % -1.54 C
3507 19-03-2019 04:10:00 -0.7 C 94 % -1.54 C
3508 19-03-2019 04:15:00 -0.7 C 94 % -1.54 C
3509 19-03-2019 04:20:00 -0.6 C 94 % -1.44 C
3510 19-03-2019 04:25:00 -0.6 C 94 % -1.44 C
3511 19-03-2019 04:30:00 -0.6 C 94 % -1.44 C
3512 19-03-2019 04:35:00 -0.7 C 94 % -1.54 C
3513 19-03-2019 04:40:00 -0.8 C 94 % -1.64 C
3514 19-03-2019 04:45:00 -0.8 C 94 % -1.64 C
3515 19-03-2019 04:50:00 -0.8 C 94 % -1.64 C
3516 19-03-2019 04:55:00 -0.8 C 94 % -1.64 C
3517 19-03-2019 05:00:00 -0.9 C 94 % -1.74 C
3518 19-03-2019 05:05:00 -1 C 94 % -1.84 C
3519 19-03-2019 05:10:00 -1 C 94 % -1.84 C
3520 19-03-2019 05:15:00 -1.1 C 94 % -1.94 C
3521 19-03-2019 05:20:00 -1.1 C 94 % -1.94 C
3522 19-03-2019 05:25:00 -1.1 C 94 % -1.94 C
3523 19-03-2019 05:30:00 -1.1 C 94 % -1.94 C
3524 19-03-2019 05:35:00 -1 C 95 % -1.7 C
3525 19-03-2019 05:40:00 -0.9 C 95 % -1.6 C
Sensor: Nr:Datum:Temp:Feuchte:Taupunkt:
Aussen-T/F 3526 19-03-2019 05:45:00 -0.9 C 95 % -1.6 C
3527 19-03-2019 05:50:00 -1.1 C 94 % -1.94 C
3528 19-03-2019 05:55:00 -1.2 C 94 % -2.04 C
3529 19-03-2019 06:00:00 -1.2 C 94 % -2.04 C
3530 19-03-2019 06:05:00 -1.3 C 94 % -2.14 C
3531 19-03-2019 06:10:00 -1.3 C 94 % -2.14 C
3532 19-03-2019 06:15:00 -1.3 C 95 % -2 C
3533 19-03-2019 06:20:00 -1.3 C 95 % -2 C
3534 19-03-2019 06:25:00 -1.3 C 94 % -2.14 C
3535 19-03-2019 06:30:00 -1.1 C 95 % -1.8 C
3536 19-03-2019 06:35:00 -1.1 C 95 % -1.8 C
3537 19-03-2019 06:40:00 -1.1 C 95 % -1.8 C
3538 19-03-2019 06:45:00 -1.1 C 95 % -1.8 C
3539 19-03-2019 06:50:00 -1.2 C 95 % -1.9 C
3540 19-03-2019 06:55:00 -1.1 C 95 % -1.8 C
3541 19-03-2019 07:00:00 -1 C 95 % -1.7 C
3542 19-03-2019 07:05:00 -0.9 C 95 % -1.6 C
3543 19-03-2019 07:10:00 -0.8 C 95 % -1.5 C
3544 19-03-2019 07:15:00 -0.7 C 95 % -1.4 C
3545 19-03-2019 07:20:00 -0.5 C 95 % -1.2 C
3546 19-03-2019 07:25:00 -0.4 C 95 % -1.1 C
3547 19-03-2019 07:30:00 -0.3 C 96 % -0.86 C
3548 19-03-2019 07:35:00 -0.2 C 95 % -0.9 C
3549 19-03-2019 07:40:00 -0.1 C 95 % -0.8 C
3550 19-03-2019 07:45:00 0.1 C 96 % -0.46 C
Sensor: Nr:Datum:Temp:Feuchte:Taupunkt:
Aussen-T/F 3551 19-03-2019 07:50:00 0.1 C 95 % -0.6 C
3552 19-03-2019 07:55:00 0.2 C 95 % -0.5 C
3553 19-03-2019 08:00:00 0.2 C 95 % -0.5 C
3554 19-03-2019 08:05:00 0.1 C 95 % -0.6 C
3555 19-03-2019 08:10:00 0.1 C 95 % -0.6 C
3556 19-03-2019 08:15:00 -0.1 C 95 % -0.8 C
3557 19-03-2019 08:20:00 -0.2 C 95 % -0.9 C
3558 19-03-2019 08:25:00 -0.2 C 95 % -0.9 C
3559 19-03-2019 08:30:00 -0.2 C 95 % -0.9 C
3560 19-03-2019 08:35:00 -0.2 C 95 % -0.9 C
3561 19-03-2019 08:40:00 -0.2 C 95 % -0.9 C
3562 19-03-2019 08:45:00 -0.1 C 95 % -0.8 C
3563 19-03-2019 08:50:00 0.1 C 95 % -0.6 C
3564 19-03-2019 08:55:00 0.2 C 95 % -0.5 C
3565 19-03-2019 09:00:00 0.2 C 95 % -0.5 C
3566 19-03-2019 09:05:00 0.3 C 95 % -0.4 C
3567 19-03-2019 09:10:00 0.4 C 95 % -0.31 C
3568 19-03-2019 09:15:00 0.5 C 95 % -0.21 C
3569 19-03-2019 09:20:00 0.6 C 95 % -0.11 C
3570 19-03-2019 09:25:00 0.6 C 95 % -0.11 C
3571 19-03-2019 09:30:00 0.7 C 95 % -0.01 C
3572 19-03-2019 09:35:00 0.7 C 95 % -0.01 C
3573 19-03-2019 09:40:00 0.8 C 95 % 0.09 C
3574 19-03-2019 09:45:00 0.9 C 95 % 0.19 C
3575 19-03-2019 09:50:00 1.1 C 95 % 0.39 C
Sensor: Nr:Datum:Temp:Feuchte:Taupunkt:
Aussen-T/F 3576 19-03-2019 09:55:00 1.3 C 96 % 0.73 C
3577 19-03-2019 10:00:00 1.5 C 95 % 0.79 C
3578 19-03-2019 10:05:00 1.7 C 95 % 0.99 C
3579 19-03-2019 10:10:00 1.8 C 95 % 1.09 C
3580 19-03-2019 10:15:00 1.9 C 95 % 1.19 C
3581 19-03-2019 10:20:00 2.2 C 95 % 1.48 C
3582 19-03-2019 10:25:00 2.3 C 95 % 1.58 C
3583 19-03-2019 10:30:00 2.5 C 95 % 1.78 C
3584 19-03-2019 10:35:00 2.6 C 94 % 1.73 C
3585 19-03-2019 10:40:00 2.7 C 94 % 1.83 C
3586 19-03-2019 10:45:00 2.8 C 94 % 1.93 C
3587 19-03-2019 10:50:00 3.1 C 94 % 2.23 C
3588 19-03-2019 10:55:00 3.3 C 94 % 2.43 C
3589 19-03-2019 11:00:00 3.7 C 94 % 2.83 C
3590 19-03-2019 11:05:00 3.8 C 94 % 2.93 C
3591 19-03-2019 11:10:00 4.1 C 94 % 3.22 C
3592 19-03-2019 11:15:00 4.3 C 94 % 3.42 C
3593 19-03-2019 11:20:00 4.6 C 92 % 3.42 C
3594 19-03-2019 11:25:00 4.9 C 91 % 3.56 C
3595 19-03-2019 11:30:00 5.3 C 88 % 3.48 C
3596 19-03-2019 11:35:00 5.6 C 81 % 2.6 C
3597 19-03-2019 11:40:00 5.9 C 80 % 2.72 C
3598 19-03-2019 11:45:00 6.3 C 79 % 2.93 C
3599 19-03-2019 11:50:00 6.4 C 76 % 2.49 C
3600 19-03-2019 11:55:00 6.6 C 73 % 2.12 C
Sensor: Nr:Datum:Temp:Feuchte:Taupunkt:
Aussen-T/F 3601 19-03-2019 12:00:00 6.7 C 73 % 2.21 C
3602 19-03-2019 12:05:00 6.8 C 72 % 2.12 C
3603 19-03-2019 12:10:00 6.9 C 72 % 2.21 C
3604 19-03-2019 12:15:00 7.1 C 72 % 2.4 C
3605 19-03-2019 12:20:00 7.1 C 69 % 1.81 C
3606 19-03-2019 12:25:00 7.2 C 69 % 1.9 C
3607 19-03-2019 12:30:00 7.4 C 68 % 1.89 C
3608 19-03-2019 12:35:00 7.5 C 66 % 1.57 C
3609 19-03-2019 12:40:00 7.6 C 65 % 1.45 C
3610 19-03-2019 12:45:00 7.6 C 65 % 1.45 C
3611 19-03-2019 12:50:00 7.7 C 67 % 1.97 C
3612 19-03-2019 12:55:00 7.9 C 66 % 1.95 C
3613 19-03-2019 13:00:00 8.2 C 64 % 1.81 C
3614 19-03-2019 13:05:00 8.3 C 62 % 1.46 C
3615 19-03-2019 13:10:00 8.5 C 61 % 1.42 C
3616 19-03-2019 13:15:00 8.7 C 61 % 1.61 C
3617 19-03-2019 13:20:00 8.8 C 59 % 1.24 C
3618 19-03-2019 13:25:00 9 C 57 % 0.95 C
3619 19-03-2019 13:30:00 9.1 C 57 % 1.04 C
3620 19-03-2019 13:35:00 9.1 C 56 % 0.8 C
3621 19-03-2019 13:40:00 9.2 C 57 % 1.14 C
3622 19-03-2019 13:45:00 9.3 C 56 % 0.99 C
3623 19-03-2019 13:50:00 9.4 C 55 % 0.83 C
3624 19-03-2019 13:55:00 9.6 C 57 % 1.51 C
3625 19-03-2019 14:00:00 9.8 C 57 % 1.7 C
Sensor: Nr:Datum:Temp:Feuchte:Taupunkt:
Aussen-T/F 3626 19-03-2019 14:05:00 9.8 C 57 % 1.7 C
3627 19-03-2019 14:10:00 9.8 C 58 % 1.94 C
3628 19-03-2019 14:15:00 9.9 C 56 % 1.55 C
3629 19-03-2019 14:20:00 9.9 C 57 % 1.79 C
3630 19-03-2019 14:25:00 10 C 56 % 1.64 C
3631 19-03-2019 14:30:00 10.1 C 57 % 1.98 C
3632 19-03-2019 14:35:00 10.2 C 58 % 2.32 C
3633 19-03-2019 14:40:00 10.2 C 55 % 1.58 C
3634 19-03-2019 14:45:00 10.1 C 55 % 1.48 C
3635 19-03-2019 14:50:00 10 C 55 % 1.39 C
3636 19-03-2019 14:55:00 9.9 C 57 % 1.79 C
3637 19-03-2019 15:00:00 9.9 C 59 % 2.27 C
3638 19-03-2019 15:05:00 9.9 C 57 % 1.79 C
3639 19-03-2019 15:10:00 9.9 C 55 % 1.3 C
3640 19-03-2019 15:15:00 9.9 C 57 % 1.79 C
3641 19-03-2019 15:20:00 9.9 C 53 % 0.78 C
3642 19-03-2019 15:25:00 9.9 C 53 % 0.78 C
3643 19-03-2019 15:30:00 10.1 C 51 % 0.44 C
3644 19-03-2019 15:35:00 10.3 C 52 % 0.89 C
3645 19-03-2019 15:40:00 10.4 C 51 % 0.71 C
3646 19-03-2019 15:45:00 10.5 C 50 % 0.53 C
3647 19-03-2019 15:50:00 10.5 C 51 % 0.81 C
3648 19-03-2019 15:55:00 10.6 C 50 % 0.62 C
3649 19-03-2019 16:00:00 10.7 C 50 % 0.72 C
3650 19-03-2019 16:05:00 10.8 C 50 % 0.81 C
Sensor: Nr:Datum:Temp:Feuchte:Taupunkt:
Aussen-T/F 3651 19-03-2019 16:10:00 10.9 C 50 % 0.9 C
3652 19-03-2019 16:15:00 11.1 C 52 % 1.63 C
3653 19-03-2019 16:20:00 11.2 C 49 % 0.9 C
3654 19-03-2019 16:25:00 11.3 C 53 % 2.08 C
3655 19-03-2019 16:30:00 11.7 C 51 % 1.91 C
3656 19-03-2019 16:35:00 12 C 47 % 1.05 C
3657 19-03-2019 16:40:00 12.1 C 46 % 0.85 C
3658 19-03-2019 16:45:00 12.1 C 46 % 0.85 C
3659 19-03-2019 16:50:00 12.2 C 44 % 0.32 C
3660 19-03-2019 16:55:00 12.1 C 44 % 0.23 C
3661 19-03-2019 17:00:00 11.9 C 43 % -0.27 C
3662 19-03-2019 17:05:00 11.8 C 45 % 0.27 C
3663 19-03-2019 17:10:00 11.9 C 44 % 0.05 C
3664 19-03-2019 17:15:00 12.1 C 47 % 1.14 C
3665 19-03-2019 17:20:00 12.2 C 46 % 0.94 C
3666 19-03-2019 17:25:00 12.3 C 44 % 0.41 C
3667 19-03-2019 17:30:00 12.3 C 45 % 0.72 C
3668 19-03-2019 17:35:00 12.2 C 45 % 0.63 C
3669 19-03-2019 17:40:00 11.9 C 45 % 0.36 C
3670 19-03-2019 17:45:00 11.8 C 47 % 0.87 C
3671 19-03-2019 17:50:00 11.9 C 45 % 0.36 C
3672 19-03-2019 17:55:00 11.8 C 48 % 1.16 C
3673 19-03-2019 18:00:00 11.8 C 47 % 0.87 C
3674 19-03-2019 18:05:00 11.7 C 53 % 2.45 C
3675 19-03-2019 18:10:00 11.6 C 56 % 3.13 C
Sensor: Nr:Datum:Temp:Feuchte:Taupunkt:
Aussen-T/F 3676 19-03-2019 18:15:00 11.4 C 56 % 2.95 C
3677 19-03-2019 18:20:00 11 C 54 % 2.06 C
3678 19-03-2019 18:25:00 10.3 C 57 % 2.17 C
3679 19-03-2019 18:30:00 9.5 C 60 % 2.13 C
3680 19-03-2019 18:35:00 8.8 C 64 % 2.38 C
3681 19-03-2019 18:40:00 8.2 C 67 % 2.45 C
3682 19-03-2019 18:45:00 7.6 C 70 % 2.49 C
3683 19-03-2019 18:50:00 7.1 C 72 % 2.4 C
3684 19-03-2019 18:55:00 6.8 C 73 % 2.31 C
3685 19-03-2019 19:00:00 6.5 C 73 % 2.02 C
3686 19-03-2019 19:05:00 6.2 C 74 % 1.92 C
3687 19-03-2019 19:10:00 6.1 C 75 % 2.01 C
3688 19-03-2019 19:15:00 5.9 C 76 % 2 C
3689 19-03-2019 19:20:00 5.7 C 77 % 1.99 C
3690 19-03-2019 19:25:00 5.6 C 78 % 2.07 C
3691 19-03-2019 19:30:00 5.4 C 78 % 1.88 C
3692 19-03-2019 19:35:00 5.3 C 79 % 1.96 C
3693 19-03-2019 19:40:00 5.2 C 79 % 1.86 C
3694 19-03-2019 19:45:00 5.1 C 79 % 1.77 C
3695 19-03-2019 19:50:00 5.1 C 79 % 1.77 C
3696 19-03-2019 19:55:00 5.1 C 79 % 1.77 C
3697 19-03-2019 20:00:00 5 C 79 % 1.67 C
3698 19-03-2019 20:05:00 4.8 C 79 % 1.47 C
3699 19-03-2019 20:10:00 4.8 C 80 % 1.65 C
3700 19-03-2019 20:15:00 4.7 C 80 % 1.55 C
Sensor: Nr:Datum:Temp:Feuchte:Taupunkt:
Aussen-T/F 3701 19-03-2019 20:20:00 4.6 C 81 % 1.63 C
3702 19-03-2019 20:25:00 4.4 C 81 % 1.43 C
3703 19-03-2019 20:30:00 4.3 C 82 % 1.51 C
3704 19-03-2019 20:35:00 4.2 C 82 % 1.41 C
3705 19-03-2019 20:40:00 4.2 C 83 % 1.58 C
3706 19-03-2019 20:45:00 4.1 C 84 % 1.65 C
3707 19-03-2019 20:50:00 3.9 C 83 % 1.28 C
3708 19-03-2019 20:55:00 3.8 C 84 % 1.35 C
3709 19-03-2019 21:00:00 3.7 C 85 % 1.42 C
3710 19-03-2019 21:05:00 3.6 C 85 % 1.32 C
3711 19-03-2019 21:10:00 3.6 C 85 % 1.32 C
3712 19-03-2019 21:15:00 3.4 C 85 % 1.12 C
3713 19-03-2019 21:20:00 3.3 C 85 % 1.03 C
3714 19-03-2019 21:25:00 3.3 C 85 % 1.03 C
3715 19-03-2019 21:30:00 3.1 C 85 % 0.83 C
3716 19-03-2019 21:35:00 2.9 C 85 % 0.63 C
3717 19-03-2019 21:40:00 2.8 C 85 % 0.54 C
3718 19-03-2019 21:45:00 2.6 C 84 % 0.18 C
3719 19-03-2019 21:50:00 2.5 C 85 % 0.24 C
3720 19-03-2019 21:55:00 2.4 C 86 % 0.3 C
3721 19-03-2019 22:00:00 2.4 C 86 % 0.3 C
3722 19-03-2019 22:05:00 2.3 C 86 % 0.21 C
3723 19-03-2019 22:10:00 2.2 C 86 % 0.11 C
3724 19-03-2019 22:15:00 2.1 C 86 % 0.01 C
3725 19-03-2019 22:20:00 2.1 C 87 % 0.17 C
Sensor: Nr:Datum:Temp:Feuchte:Taupunkt:
Aussen-T/F 3726 19-03-2019 22:25:00 1.9 C 87 % -0.03 C
3727 19-03-2019 22:30:00 1.8 C 87 % -0.13 C
3728 19-03-2019 22:35:00 1.9 C 87 % -0.03 C
3729 19-03-2019 22:40:00 1.9 C 88 % 0.13 C
3730 19-03-2019 22:45:00 1.9 C 88 % 0.13 C
3731 19-03-2019 22:50:00 1.9 C 88 % 0.13 C
3732 19-03-2019 22:55:00 1.9 C 88 % 0.13 C
3733 19-03-2019 23:00:00 1.8 C 88 % 0.03 C
3734 19-03-2019 23:05:00 1.8 C 88 % 0.03 C
3735 19-03-2019 23:10:00 1.7 C 88 % -0.07 C
3736 19-03-2019 23:15:00 1.7 C 88 % -0.07 C
3737 19-03-2019 23:20:00 1.8 C 88 % 0.03 C
3738 19-03-2019 23:25:00 1.9 C 88 % 0.13 C
3739 19-03-2019 23:30:00 1.8 C 87 % -0.13 C
3740 19-03-2019 23:35:00 1.7 C 87 % -0.23 C
3741 19-03-2019 23:40:00 1.7 C 87 % -0.23 C
3742 19-03-2019 23:45:00 1.6 C 88 % -0.17 C
3743 19-03-2019 23:50:00 1.4 C 88 % -0.36 C
3744 19-03-2019 23:55:00 1.3 C 88 % -0.46 C
3745 20-03-2019 00:00:00 1.2 C 88 % -0.56 C
3746 20-03-2019 00:05:00 1.2 C 89 % -0.41 C
3747 20-03-2019 00:10:00 1.2 C 89 % -0.41 C
3748 20-03-2019 00:15:00 1.1 C 89 % -0.51 C
3749 20-03-2019 00:20:00 0.9 C 88 % -0.86 C
3750 20-03-2019 00:25:00 0.8 C 89 % -0.8 C
Sensor: Nr:Datum:Temp:Feuchte:Taupunkt:
Aussen-T/F 3751 20-03-2019 00:30:00 0.7 C 89 % -0.9 C
3752 20-03-2019 00:35:00 0.6 C 89 % -1 C
3753 20-03-2019 00:40:00 0.6 C 90 % -0.85 C
3754 20-03-2019 00:45:00 0.5 C 90 % -0.95 C
3755 20-03-2019 00:50:00 0.4 C 90 % -1.04 C
3756 20-03-2019 00:55:00 0.4 C 90 % -1.04 C
3757 20-03-2019 01:00:00 0.4 C 90 % -1.04 C
3758 20-03-2019 01:05:00 0.4 C 91 % -0.89 C
3759 20-03-2019 01:10:00 0.5 C 91 % -0.79 C
3760 20-03-2019 01:15:00 0.5 C 91 % -0.79 C
3761 20-03-2019 01:20:00 0.4 C 91 % -0.89 C
3762 20-03-2019 01:25:00 0.4 C 91 % -0.89 C
3763 20-03-2019 01:30:00 0.4 C 91 % -0.89 C
3764 20-03-2019 01:35:00 0.4 C 91 % -0.89 C
3765 20-03-2019 01:40:00 0.3 C 91 % -0.99 C
3766 20-03-2019 01:45:00 0.3 C 91 % -0.99 C
3767 20-03-2019 01:50:00 0.2 C 91 % -1.09 C
3768 20-03-2019 01:55:00 0.1 C 90 % -1.34 C
3769 20-03-2019 02:00:00 -0.1 C 91 % -1.39 C
3770 20-03-2019 02:05:00 -0.1 C 91 % -1.39 C
3771 20-03-2019 02:10:00 -0.1 C 91 % -1.39 C
3772 20-03-2019 02:15:00 0 C 92 % -1.14 C
3773 20-03-2019 02:20:00 -0.1 C 91 % -1.39 C
3774 20-03-2019 02:25:00 -0.2 C 91 % -1.49 C
3775 20-03-2019 02:30:00 -0.2 C 91 % -1.49 C
Sensor: Nr:Datum:Temp:Feuchte:Taupunkt:
Aussen-T/F 3776 20-03-2019 02:35:00 -0.3 C 91 % -1.59 C
3777 20-03-2019 02:40:00 -0.3 C 92 % -1.44 C
3778 20-03-2019 02:45:00 -0.2 C 92 % -1.34 C
3779 20-03-2019 02:50:00 -0.2 C 92 % -1.34 C
3780 20-03-2019 02:55:00 -0.2 C 92 % -1.34 C
3781 20-03-2019 03:00:00 -0.3 C 92 % -1.44 C
3782 20-03-2019 03:05:00 -0.4 C 92 % -1.54 C
3783 20-03-2019 03:10:00 -0.4 C 92 % -1.54 C
3784 20-03-2019 03:15:00 -0.4 C 92 % -1.54 C
3785 20-03-2019 03:20:00 -0.4 C 92 % -1.54 C
3786 20-03-2019 03:25:00 -0.5 C 92 % -1.64 C
3787 20-03-2019 03:30:00 -0.6 C 92 % -1.74 C
3788 20-03-2019 03:35:00 -0.7 C 92 % -1.83 C
3789 20-03-2019 03:40:00 -0.7 C 92 % -1.83 C
3790 20-03-2019 03:45:00 -0.7 C 92 % -1.83 C
3791 20-03-2019 03:50:00 -0.7 C 92 % -1.83 C
3792 20-03-2019 03:55:00 -0.8 C 92 % -1.93 C
3793 20-03-2019 04:00:00 -0.8 C 92 % -1.93 C
3794 20-03-2019 04:05:00 -0.8 C 92 % -1.93 C
3795 20-03-2019 04:10:00 -0.9 C 92 % -2.03 C
3796 20-03-2019 04:15:00 -0.9 C 93 % -1.89 C
3797 20-03-2019 04:20:00 -0.9 C 93 % -1.89 C
3798 20-03-2019 04:25:00 -0.9 C 93 % -1.89 C
3799 20-03-2019 04:30:00 -1 C 93 % -1.99 C
3800 20-03-2019 04:35:00 -1 C 93 % -1.99 C
Sensor: Nr:Datum:Temp:Feuchte:Taupunkt:
Aussen-T/F 3801 20-03-2019 04:40:00 -1 C 93 % -1.99 C
3802 20-03-2019 04:45:00 -0.9 C 93 % -1.89 C
3803 20-03-2019 04:50:00 -0.9 C 93 % -1.89 C
3804 20-03-2019 04:55:00 -0.9 C 93 % -1.89 C
3805 20-03-2019 05:00:00 -0.9 C 93 % -1.89 C
3806 20-03-2019 05:05:00 -1 C 93 % -1.99 C
3807 20-03-2019 05:10:00 -1 C 93 % -1.99 C
3808 20-03-2019 05:15:00 -1.1 C 93 % -2.09 C
3809 20-03-2019 05:20:00 -1.1 C 93 % -2.09 C
3810 20-03-2019 05:25:00 -1.2 C 93 % -2.18 C
3811 20-03-2019 05:30:00 -1.2 C 93 % -2.18 C
3812 20-03-2019 05:35:00 -1.2 C 93 % -2.18 C
3813 20-03-2019 05:40:00 -1.1 C 94 % -1.94 C
3814 20-03-2019 05:45:00 -1.1 C 93 % -2.09 C
3815 20-03-2019 05:50:00 -1.2 C 93 % -2.18 C
3816 20-03-2019 05:55:00 -1.2 C 93 % -2.18 C
3817 20-03-2019 06:00:00 -1.3 C 93 % -2.28 C
3818 20-03-2019 06:05:00 -1.3 C 93 % -2.28 C
3819 20-03-2019 06:10:00 -1.3 C 93 % -2.28 C
3820 20-03-2019 06:15:00 -1.3 C 94 % -2.14 C
3821 20-03-2019 06:20:00 -1.2 C 94 % -2.04 C
3822 20-03-2019 06:25:00 -1.1 C 94 % -1.94 C
3823 20-03-2019 06:30:00 -1.1 C 94 % -1.94 C
3824 20-03-2019 06:35:00 -1.1 C 94 % -1.94 C
3825 20-03-2019 06:40:00 -1.2 C 94 % -2.04 C
Sensor: Nr:Datum:Temp:Feuchte:Taupunkt:
Aussen-T/F 3826 20-03-2019 06:45:00 -1.2 C 94 % -2.04 C
3827 20-03-2019 06:50:00 -1.3 C 94 % -2.14 C
3828 20-03-2019 06:55:00 -1.3 C 94 % -2.14 C
3829 20-03-2019 07:00:00 -1.2 C 94 % -2.04 C
3830 20-03-2019 07:05:00 -1.2 C 94 % -2.04 C
3831 20-03-2019 07:10:00 -1.2 C 94 % -2.04 C
3832 20-03-2019 07:15:00 -1.2 C 94 % -2.04 C
3833 20-03-2019 07:20:00 -1.1 C 94 % -1.94 C
3834 20-03-2019 07:25:00 -1.1 C 94 % -1.94 C
3835 20-03-2019 07:30:00 -1.1 C 94 % -1.94 C
3836 20-03-2019 07:35:00 -1 C 94 % -1.84 C
3837 20-03-2019 07:40:00 -1.1 C 94 % -1.94 C
3838 20-03-2019 07:45:00 -1 C 94 % -1.84 C
3839 20-03-2019 07:50:00 -0.9 C 94 % -1.74 C
3840 20-03-2019 07:55:00 -0.9 C 94 % -1.74 C
3841 20-03-2019 08:00:00 -0.9 C 94 % -1.74 C
3842 20-03-2019 08:05:00 -0.9 C 94 % -1.74 C
3843 20-03-2019 08:10:00 -0.9 C 94 % -1.74 C
3844 20-03-2019 08:15:00 -0.9 C 94 % -1.74 C
3845 20-03-2019 08:20:00 -0.8 C 94 % -1.64 C
3846 20-03-2019 08:25:00 -0.8 C 94 % -1.64 C
3847 20-03-2019 08:30:00 -0.7 C 95 % -1.4 C
3848 20-03-2019 08:35:00 -0.6 C 95 % -1.3 C
3849 20-03-2019 08:40:00 -0.6 C 95 % -1.3 C
3850 20-03-2019 08:45:00 -0.4 C 95 % -1.1 C
Sensor: Nr:Datum:Temp:Feuchte:Taupunkt:
Aussen-T/F 3851 20-03-2019 08:50:00 -0.3 C 95 % -1 C
3852 20-03-2019 08:55:00 -0.3 C 95 % -1 C
3853 20-03-2019 09:00:00 -0.2 C 95 % -0.9 C
3854 20-03-2019 09:05:00 -0.1 C 95 % -0.8 C
3855 20-03-2019 09:10:00 0.1 C 95 % -0.6 C
3856 20-03-2019 09:15:00 0.2 C 95 % -0.5 C
3857 20-03-2019 09:20:00 0.3 C 95 % -0.4 C
3858 20-03-2019 09:25:00 0.4 C 95 % -0.31 C
3859 20-03-2019 09:30:00 0.6 C 95 % -0.11 C
3860 20-03-2019 09:35:00 0.7 C 95 % -0.01 C
3861 20-03-2019 09:40:00 0.8 C 95 % 0.09 C
3862 20-03-2019 09:45:00 1.1 C 95 % 0.39 C
3863 20-03-2019 09:50:00 1.3 C 95 % 0.59 C
3864 20-03-2019 09:55:00 1.7 C 95 % 0.99 C
3865 20-03-2019 10:00:00 2.1 C 95 % 1.38 C
3866 20-03-2019 10:05:00 2.6 C 95 % 1.88 C
3867 20-03-2019 10:10:00 3.1 C 94 % 2.23 C
3868 20-03-2019 10:15:00 3.4 C 94 % 2.53 C
3869 20-03-2019 10:20:00 3.8 C 93 % 2.77 C
3870 20-03-2019 10:25:00 4.1 C 92 % 2.92 C
3871 20-03-2019 10:30:00 4.3 C 90 % 2.81 C
3872 20-03-2019 10:35:00 4.7 C 89 % 3.05 C
3873 20-03-2019 10:40:00 5.1 C 87 % 3.12 C
3874 20-03-2019 10:45:00 5.6 C 86 % 3.45 C
3875 20-03-2019 10:50:00 6 C 83 % 3.34 C
Sensor: Nr:Datum:Temp:Feuchte:Taupunkt:
Aussen-T/F 3876 20-03-2019 10:55:00 6.4 C 81 % 3.38 C
3877 20-03-2019 11:00:00 6.8 C 78 % 3.24 C
3878 20-03-2019 11:05:00 7.1 C 78 % 3.53 C
3879 20-03-2019 11:10:00 7.4 C 77 % 3.64 C
3880 20-03-2019 11:15:00 7.8 C 76 % 3.84 C
3881 20-03-2019 11:20:00 8.2 C 73 % 3.66 C
3882 20-03-2019 11:25:00 8.7 C 71 % 3.74 C
3883 20-03-2019 11:30:00 9.2 C 69 % 3.82 C
3884 20-03-2019 11:35:00 9.6 C 67 % 3.78 C
3885 20-03-2019 11:40:00 10 C 64 % 3.51 C
3886 20-03-2019 11:45:00 10.3 C 61 % 3.12 C
3887 20-03-2019 11:50:00 10.6 C 59 % 2.93 C
3888 20-03-2019 11:55:00 10.8 C 59 % 3.12 C
3889 20-03-2019 12:00:00 11 C 59 % 3.31 C
3890 20-03-2019 12:05:00 11.1 C 58 % 3.16 C
3891 20-03-2019 12:10:00 11.2 C 58 % 3.25 C
3892 20-03-2019 12:15:00 11.3 C 57 % 3.1 C
3893 20-03-2019 12:20:00 11.4 C 58 % 3.44 C
3894 20-03-2019 12:25:00 11.6 C 58 % 3.63 C
3895 20-03-2019 12:30:00 11.8 C 56 % 3.32 C
3896 20-03-2019 12:35:00 11.8 C 56 % 3.32 C
3897 20-03-2019 12:40:00 12 C 56 % 3.51 C
3898 20-03-2019 12:45:00 12.1 C 53 %